Provisional Data: Meshoppen Creek near Kaiserville, PA


Please select a monitoring station.
Please select start date.
Please select start date.

Toggle Unit: C/F Toggle Unit: C/F
Sample Time Temperature (C) Temperature (F) Specific Conductivity (mS/cm) pH   Turbidity (NTU+) DO (mg/L)
3/7/2021 12:00:00 AM -0.07 31.874 0.146 7.19 4.79 14.4
3/7/2021 12:15:00 AM -0.07 31.874 0.15 7.2 3.81 14.4
3/7/2021 12:30:00 AM -0.07 31.874 0.14 7.19 4.83 14.4
3/7/2021 12:45:00 AM -0.07 31.874 0.141 7.19 4.9 14.41
3/7/2021 1:00:00 AM -0.07 31.874 0.15 7.2 3.99 14.41
3/7/2021 1:15:00 AM -0.07 31.874 0.147 7.19 5.19 14.4
3/7/2021 1:30:00 AM -0.07 31.874 0.151 7.19 3.86 14.4
3/7/2021 1:45:00 AM -0.07 31.874 0.151 7.18 3.95 14.4
3/7/2021 2:00:00 AM -0.07 31.874 0.147 7.18 5.67 14.4
3/7/2021 2:15:00 AM -0.07 31.874 0.151 7.17 3.9 14.4
3/7/2021 2:30:00 AM -0.07 31.874 0.147 7.17 5.81 14.4
3/7/2021 2:45:00 AM -0.07 31.874 0.148 7.18 5.56 14.4
3/7/2021 3:00:00 AM -0.07 31.874 0.152 7.17 3.82 14.41
3/7/2021 3:15:00 AM -0.07 31.874 0.148 7.18 5.8 14.4
3/7/2021 3:30:00 AM -0.07 31.874 0.143 7.19 5.82 14.41
3/7/2021 3:45:00 AM -0.07 31.874 0.152 7.19 3.86 14.41
3/7/2021 4:00:00 AM -0.07 31.874 0.148 7.18 5.54 14.41
3/7/2021 4:15:00 AM -0.07 31.874 0.149 7.19 5.47 14.41
3/7/2021 4:30:00 AM -0.07 31.874 0.149 7.19 5.72 14.41
3/7/2021 4:45:00 AM -0.07 31.874 0.149 7.19 5.61 14.42
3/7/2021 5:00:00 AM -0.07 31.874 0.153 7.19 3.81 14.42
3/7/2021 5:15:00 AM -0.07 31.874 0.153 7.18 3.6 14.42
3/7/2021 5:30:00 AM -0.07 31.874 0.144 7.19 5.7 14.42
3/7/2021 5:45:00 AM -0.07 31.874 0.154 7.19 3.72 14.42
3/7/2021 6:00:00 AM -0.07 31.874 0.145 7.19 6.04 14.43
3/7/2021 6:15:00 AM -0.07 31.874 0.15 7.18 5.72 14.43
3/7/2021 6:30:00 AM -0.07 31.874 0.15 7.17 5.79 14.43
3/7/2021 6:45:00 AM -0.07 31.874 0.154 7.17 3.74 14.44
3/7/2021 7:00:00 AM -0.07 31.874 0.144 7.18 5.57 14.46
3/7/2021 7:15:00 AM -0.07 31.874 0.146 7.18 5.67 14.48
3/7/2021 7:30:00 AM -0.07 31.874 0.139 7.19 4.62 14.49
3/7/2021 7:45:00 AM -0.07 31.874 0.144 7.19 5.72 14.52
3/7/2021 8:00:00 AM -0.07 31.874 0.154 7.2 4.27 14.54
3/7/2021 8:15:00 AM -0.07 31.874 0.15 7.21 5.78 14.55
3/7/2021 8:30:00 AM -0.07 31.874 0.144 7.21 5.92 14.56
3/7/2021 8:45:00 AM -0.07 31.874 0.154 7.22 3.99 14.57
3/7/2021 9:00:00 AM -0.07 31.874 0.144 7.22 7.01 14.58
3/7/2021 9:15:00 AM -0.07 31.874 0.153 7.22 3.84 14.58
3/7/2021 9:30:00 AM -0.07 31.874 0.144 7.22 5.68 14.58
3/7/2021 9:45:00 AM -0.06 31.892 0.149 7.24 5.72 14.58
3/7/2021 10:00:00 AM -0.06 31.892 0.152 7.25 3.66 14.58
3/7/2021 10:15:00 AM -0.06 31.892 0.148 7.25 5.64 14.57
3/7/2021 10:30:00 AM -0.06 31.892 0.143 7.25 5.65 14.57
3/7/2021 10:45:00 AM 0.02 32.036 0.147 7.28 6.03 14.54
3/7/2021 11:00:00 AM 0.16 32.288 0.151 7.26 3.54 14.51
3/7/2021 11:15:00 AM 0.23 32.414 0.151 7.23 3.63 14.51
3/7/2021 11:30:00 AM 0.28 32.504 0.15 7.23 3.68 14.51
3/7/2021 11:45:00 AM 0.3 32.54 0.15 7.23 3.48 14.51
3/7/2021 12:00:00 PM 0.38 32.684 0.15 7.26 3.52 14.51
3/7/2021 12:15:00 PM 0.52 32.936 0.146 7.26 5.42 14.48
3/7/2021 12:30:00 PM 0.52 32.936 0.141 7.25 5.44 14.46
3/7/2021 12:45:00 PM 0.53 32.954 0.149 7.24 3.55 14.47
3/7/2021 1:00:00 PM 0.54 32.972 0.144 7.23 5.99 14.47
3/7/2021 1:15:00 PM 0.49 32.882 0.144 7.22 5.37 14.47
3/7/2021 1:30:00 PM 0.55 32.99 0.148 7.25 3.72 14.46
3/7/2021 1:45:00 PM 0.69 33.242 0.148 7.27 3.41 14.42
3/7/2021 2:00:00 PM 0.81 33.458 0.148 7.25 3.38 14.36
3/7/2021 2:15:00 PM 0.91 33.638 0.148 7.26 3.39 14.3
3/7/2021 2:30:00 PM 0.95 33.71 0.144 7.24 5.3 14.29
3/7/2021 2:45:00 PM 0.97 33.746 0.148 7.25 3.34 14.26
3/7/2021 3:00:00 PM 1.01 33.818 0.148 7.26 3.18 14.26
3/7/2021 3:15:00 PM 1.14 34.052 0.137 7.27 4.67 14.22
3/7/2021 3:30:00 PM 1.27 34.286 0.137 7.28 4.82 14.18
3/7/2021 3:45:00 PM 1.35 34.43 0.144 7.28 4.97 14.14
3/7/2021 4:00:00 PM 1.37 34.466 0.148 7.28 3.18 14.12
3/7/2021 4:15:00 PM 1.33 34.394 0.144 7.27 5.11 14.12
3/7/2021 4:30:00 PM 1.26 34.268 0.144 7.24 5.13 14.13
3/7/2021 4:45:00 PM 1.18 34.124 0.144 7.25 5.25 14.14
3/7/2021 5:00:00 PM 1.11 33.998 0.148 7.24 3.17 14.14
3/7/2021 5:15:00 PM 1.05 33.89 0.137 7.24 4.78 14.14
3/7/2021 5:30:00 PM 1 33.8 0.148 7.22 3.16 14.14
3/7/2021 5:45:00 PM 0.95 33.71 0.144 7.22 5.15 14.14
3/7/2021 6:00:00 PM 0.91 33.638 0.148 7.21 3.24 14.12
3/7/2021 6:15:00 PM 0.89 33.602 0.144 7.21 5.12 14.11
3/7/2021 6:30:00 PM 0.88 33.584 0.147 7.21 3.33 14.1
3/7/2021 6:45:00 PM 0.88 33.584 0.138 7.2 5.01 14.08
3/7/2021 7:00:00 PM 0.88 33.584 0.143 7.18 5 14.07
3/7/2021 7:15:00 PM 0.88 33.584 0.143 7.19 4.95 14.05
3/7/2021 7:30:00 PM 0.88 33.584 0.144 7.19 5.07 14.05
3/7/2021 7:45:00 PM 0.86 33.548 0.147 7.19 3.3 14.05
3/7/2021 8:00:00 PM 0.83 33.494 0.147 7.19 3.3 14.06
3/7/2021 8:15:00 PM 0.79 33.422 0.147 7.19 3.11 14.07
3/7/2021 8:30:00 PM 0.74 33.332 0.147 7.17 3 14.1
3/7/2021 8:45:00 PM 0.67 33.206 0.147 7.18 3.41 14.11
3/7/2021 9:00:00 PM 0.6 33.08 0.147 7.17 3.07 14.14
3/7/2021 9:15:00 PM 0.51 32.918 0.138 7.17 5.05 14.17
3/7/2021 9:30:00 PM 0.42 32.756 0.138 7.15 4.95 14.2
3/7/2021 9:45:00 PM 0.33 32.594 0.147 7.16 3.31 14.24
3/7/2021 10:00:00 PM 0.23 32.414 0.138 7.15 4.88 14.29
3/7/2021 10:15:00 PM 0.14 32.252 0.138 7.15 5.03 14.33
3/7/2021 10:30:00 PM 0.04 32.072 0.143 7.15 4.94 14.36
3/7/2021 10:45:00 PM -0.06 31.892 0.143 7.14 4.95 14.4
3/7/2021 11:00:00 PM -0.09 31.838 0.143 7.13 5.51 14.44
3/7/2021 11:15:00 PM -0.07 31.874 0.143 7.13 5.62 14.46
3/7/2021 11:30:00 PM -0.07 31.874 0.144 7.16 5.51 14.48
3/7/2021 11:45:00 PM -0.07 31.874 0.144 7.17 5.32 14.49
3/8/2021 12:00:00 AM -0.07 31.874 0.139 7.18 4.91 14.49
3/8/2021 12:15:00 AM -0.07 31.874 0.144 7.19 5 14.5
3/8/2021 12:30:00 AM -0.07 31.874 0.145 7.19 4.97 14.5
3/8/2021 12:45:00 AM -0.07 31.874 0.145 7.19 4.88 14.5
3/8/2021 1:00:00 AM -0.07 31.874 0.145 7.2 4.88 14.5
3/8/2021 1:15:00 AM -0.07 31.874 0.146 7.2 5.07 14.51
3/8/2021 1:30:00 AM -0.07 31.874 0.142 7.19 5.02 14.51
3/8/2021 1:45:00 AM -0.07 31.874 0.15 7.2 3.1 14.51
3/8/2021 2:00:00 AM -0.07 31.874 0.147 7.2 4.83 14.52
3/8/2021 2:15:00 AM -0.07 31.874 0.143 7.2 4.66 14.52
3/8/2021 2:30:00 AM -0.07 31.874 0.147 7.2 4.95 14.52
3/8/2021 2:45:00 AM -0.07 31.874 0.148 7.21 4.83 14.52
3/8/2021 3:00:00 AM -0.07 31.874 0.142 7.21 4.76 14.52
3/8/2021 3:15:00 AM -0.07 31.874 0.152 7.22 2.91 14.52
3/8/2021 3:30:00 AM -0.07 31.874 0.148 7.22 4.81 14.52
3/8/2021 3:45:00 AM -0.07 31.874 0.143 7.22 4.77 14.52
3/8/2021 4:00:00 AM -0.07 31.874 0.153 7.22 2.87 14.51
3/8/2021 4:15:00 AM -0.07 31.874 0.144 7.21 4.92 14.52
3/8/2021 4:30:00 AM -0.07 31.874 0.149 7.21 4.74 14.5
3/8/2021 4:45:00 AM -0.07 31.874 0.149 7.2 4.87 14.47
3/8/2021 5:00:00 AM -0.07 31.874 0.146 7.18 4.69 14.46
3/8/2021 5:15:00 AM -0.07 31.874 0.154 7.17 2.93 14.45
3/8/2021 5:30:00 AM -0.07 31.874 0.15 7.17 4.83 14.46
3/8/2021 5:45:00 AM -0.07 31.874 0.154 7.17 2.87 14.45
3/8/2021 6:00:00 AM -0.07 31.874 0.146 7.17 4.68 14.44
3/8/2021 6:15:00 AM -0.07 31.874 0.155 7.16 2.8 14.43
3/8/2021 6:30:00 AM -0.07 31.874 0.151 7.15 4.76 14.42
3/8/2021 6:45:00 AM -0.07 31.874 0.151 7.16 4.82 14.45
3/8/2021 7:00:00 AM -0.07 31.874 0.155 7.17 2.87 14.46
3/8/2021 7:15:00 AM -0.07 31.874 0.152 7.16 4.92 14.46
3/8/2021 7:30:00 AM -0.07 31.874 0.152 7.16 4.67 14.5
3/8/2021 7:45:00 AM -0.07 31.874 0.152 7.18 4.64 14.53
3/8/2021 8:00:00 AM -0.07 31.874 0.152 7.18 4.62 14.56
3/8/2021 8:15:00 AM -0.07 31.874 0.152 7.19 4.67 14.57
3/8/2021 8:30:00 AM -0.07 31.874 0.152 7.2 4.74 14.59
3/8/2021 8:45:00 AM -0.07 31.874 0.147 7.2 4.55 14.59
3/8/2021 9:00:00 AM -0.07 31.874 0.151 7.2 4.58 14.57
3/8/2021 9:15:00 AM -0.06 31.892 0.144 7.21 3.84 14.59
3/8/2021 9:30:00 AM -0.07 31.874 0.155 7.22 2.73 14.6
3/8/2021 9:45:00 AM -0.06 31.892 0.147 7.23 4.55 14.61
3/8/2021 10:00:00 AM -0.06 31.892 0.15 7.24 4.54 14.62
3/8/2021 10:15:00 AM -0.05 31.91 0.15 7.24 4.73 14.62
3/8/2021 10:30:00 AM -0.04 31.928 0.15 7.24 4.53 14.62
3/8/2021 10:45:00 AM 0.03 32.054 0.145 7.24 4.83 14.61
3/8/2021 11:00:00 AM 0.1 32.18 0.154 7.22 2.85 14.6
3/8/2021 11:15:00 AM 0.16 32.288 0.153 7.24 11.04 14.57
3/8/2021 11:30:00 AM 0.19 32.342 0.142 7.25 5.13 14.56
3/8/2021 11:45:00 AM 0.23 32.414 0.143 7.26 4.73 14.54
3/8/2021 12:00:00 PM 0.3 32.54 0.148 7.25 4.82 14.52
3/8/2021 12:15:00 PM 0.39 32.702 0.151 7.26 3.14 14.51
3/8/2021 12:30:00 PM 0.47 32.846 0.139 7.26 4.25 14.49
3/8/2021 12:45:00 PM 0.56 33.008 0.15 7.27 3.3 14.48
3/8/2021 1:00:00 PM 0.64 33.152 0.141 7.29 5.08 14.47
3/8/2021 1:15:00 PM 0.69 33.242 0.15 7.29 3.24 14.44
3/8/2021 1:30:00 PM 0.75 33.35 0.149 7.28 3.31 14.44
3/8/2021 1:45:00 PM 0.75 33.35 0.149 7.29 3.37 14.42
3/8/2021 2:00:00 PM 0.74 33.332 0.149 7.28 3.23 14.41
3/8/2021 2:15:00 PM 0.75 33.35 0.149 7.28 3.25 14.42
3/8/2021 2:30:00 PM 0.76 33.368 0.149 7.29 3.3 14.4
3/8/2021 2:45:00 PM 0.79 33.422 0.149 7.29 3.16 14.39
3/8/2021 3:00:00 PM 0.8 33.44 0.149 7.3 3.2 14.39
3/8/2021 3:15:00 PM 0.8 33.44 0.148 7.29 3.2 14.4
3/8/2021 3:30:00 PM 0.85 33.53 0.144 7.3 5.02 14.38
3/8/2021 3:45:00 PM 0.87 33.566 0.14 7.29 5 14.36
3/8/2021 4:00:00 PM 0.91 33.638 0.148 7.27 3.02 14.34
3/8/2021 4:15:00 PM 0.96 33.728 0.138 7.3 4.74 14.33
3/8/2021 4:30:00 PM 0.99 33.782 0.147 7.29 2.91 14.29
3/8/2021 4:45:00 PM 1.01 33.818 0.143 7.29 4.85 14.28
3/8/2021 5:00:00 PM 1.01 33.818 0.147 7.29 3.1 14.26
3/8/2021 5:15:00 PM 0.99 33.782 0.146 7.26 3.07 14.25
3/8/2021 5:30:00 PM 0.96 33.728 0.146 7.28 3.06 14.23
3/8/2021 5:45:00 PM 0.93 33.674 0.137 7.27 4.77 14.23
3/8/2021 6:00:00 PM 0.87 33.566 0.146 7.26 2.88 14.22
3/8/2021 6:15:00 PM 0.81 33.458 0.146 7.24 3.01 14.21
3/8/2021 6:30:00 PM 0.76 33.368 0.146 7.23 3.04 14.2
3/8/2021 6:45:00 PM 0.71 33.278 0.142 7.22 5.29 14.21
3/8/2021 7:00:00 PM 0.68 33.224 0.146 7.22 3.06 14.2
3/8/2021 7:15:00 PM 0.66 33.188 0.141 7.22 4.94 14.2
3/8/2021 7:30:00 PM 0.66 33.188 0.137 7.21 5.13 14.18
3/8/2021 7:45:00 PM 0.66 33.188 0.146 7.2 3.24 14.17
3/8/2021 8:00:00 PM 0.67 33.206 0.142 7.19 4.88 14.14
3/8/2021 8:15:00 PM 0.69 33.242 0.142 7.2 5.01 14.12
3/8/2021 8:30:00 PM 0.71 33.278 0.138 7.2 4.84 14.11
3/8/2021 8:45:00 PM 0.72 33.296 0.138 7.19 5.05 14.11
3/8/2021 9:00:00 PM 0.72 33.296 0.146 7.2 3.14 14.1
3/8/2021 9:15:00 PM 0.72 33.296 0.146 7.19 3.3 14.09
3/8/2021 9:30:00 PM 0.71 33.278 0.146 7.19 3.22 14.1
3/8/2021 9:45:00 PM 0.69 33.242 0.137 7.18 4.92 14.11
3/8/2021 10:00:00 PM 0.67 33.206 0.146 7.18 3.09 14.12
3/8/2021 10:15:00 PM 0.65 33.17 0.143 7.18 4.94 14.13
3/8/2021 10:30:00 PM 0.62 33.116 0.146 7.18 3.17 14.14
3/8/2021 10:45:00 PM 0.6 33.08 0.143 7.18 4.98 14.14
3/8/2021 11:00:00 PM 0.57 33.026 0.138 7.17 5.08 14.15
3/8/2021 11:15:00 PM 0.55 32.99 0.142 7.17 4.89 14.17
3/8/2021 11:30:00 PM 0.52 32.936 0.138 7.18 4.8 14.18
3/8/2021 11:45:00 PM 0.5 32.9 0.142 7.17 4.87 14.18
3/9/2021 12:00:00 AM 0.48 32.864 0.142 7.18 4.68 14.2
3/9/2021 12:15:00 AM 0.46 32.828 0.137 7.18 4.81 14.2
3/9/2021 12:30:00 AM 0.44 32.792 0.142 7.17 4.81 14.2
3/9/2021 12:45:00 AM 0.43 32.774 0.137 7.18 4.72 14.21
3/9/2021 1:00:00 AM 0.41 32.738 0.146 7.17 2.98 14.21
3/9/2021 1:15:00 AM 0.4 32.72 0.145 7.18 3.04 14.23
3/9/2021 1:30:00 AM 0.38 32.684 0.145 7.18 3.11 14.24
3/9/2021 1:45:00 AM 0.37 32.666 0.145 7.17 2.93 14.24
3/9/2021 2:00:00 AM 0.35 32.63 0.145 7.18 3.05 14.24
3/9/2021 2:15:00 AM 0.33 32.594 0.145 7.16 2.98 14.24
3/9/2021 2:30:00 AM 0.31 32.558 0.137 7.16 4.74 14.25
3/9/2021 2:45:00 AM 0.28 32.504 0.145 7.18 2.97 14.26
3/9/2021 3:00:00 AM 0.25 32.45 0.138 7.17 4.85 14.27
3/9/2021 3:15:00 AM 0.21 32.378 0.142 7.17 4.72 14.27
3/9/2021 3:30:00 AM 0.18 32.324 0.142 7.17 4.78 14.29
3/9/2021 3:45:00 AM 0.15 32.27 0.146 7.18 3.02 14.29
3/9/2021 4:00:00 AM 0.15 32.27 0.146 7.18 3.01 14.3
3/9/2021 4:15:00 AM 0.15 32.27 0.146 7.18 3.01 14.3
3/9/2021 4:30:00 AM 0.15 32.27 0.146 7.18 3.15 14.3
3/9/2021 4:45:00 AM 0.16 32.288 0.146 7.18 3.26 14.31
3/9/2021 5:00:00 AM 0.15 32.27 0.146 7.18 3.23 14.3
3/9/2021 5:15:00 AM 0.13 32.234 0.146 7.18 3.06 14.31
3/9/2021 5:30:00 AM 0.1 32.18 0.146 7.17 2.98 14.32
3/9/2021 5:45:00 AM 0.07 32.126 0.146 7.16 3.09 14.32
3/9/2021 6:00:00 AM 0.05 32.09 0.137 7.17 4.26 14.34
3/9/2021 6:15:00 AM 0.03 32.054 0.137 7.18 4.25 14.34
3/9/2021 6:30:00 AM 0.01 32.018 0.138 7.18 4.77 14.36
3/9/2021 6:45:00 AM 0 32 0.147 7.17 2.9 14.37
3/9/2021 7:00:00 AM -0.01 31.982 0.143 7.19 4.64 14.41
3/9/2021 7:15:00 AM -0.01 31.982 0.143 7.2 4.83 14.44
3/9/2021 7:30:00 AM -0.01 31.982 0.139 7.18 4.68 14.46
3/9/2021 7:45:00 AM 0 32 0.143 7.21 4.64 14.49
3/9/2021 8:00:00 AM 0.02 32.036 0.148 7.22 2.94 14.51
3/9/2021 8:15:00 AM 0.06 32.108 0.148 7.23 3.01 14.53
3/9/2021 8:30:00 AM 0.12 32.216 0.148 7.23 2.9 14.54
3/9/2021 8:45:00 AM 0.2 32.36 0.144 7.24 4.74 14.53
3/9/2021 9:00:00 AM 0.3 32.54 0.148 7.26 2.88 14.53
3/9/2021 9:15:00 AM 0.42 32.756 0.144 7.27 4.65 14.51
3/9/2021 9:30:00 AM 0.57 33.026 0.14 7.27 4.55 14.5
3/9/2021 9:45:00 AM 0.72 33.296 0.148 7.28 3.08 14.47
3/9/2021 10:00:00 AM 0.88 33.584 0.147 7.3 2.86 14.44
3/9/2021 10:15:00 AM 1.05 33.89 0.147 7.3 2.87 14.4
3/9/2021 10:30:00 AM 1.23 34.214 0.139 7.3 4.85 14.35
3/9/2021 10:45:00 AM 1.41 34.538 0.147 7.31 3.17 14.3
3/9/2021 11:00:00 AM 1.61 34.898 0.147 7.32 3.09 14.25
3/9/2021 11:15:00 AM 1.78 35.204 0.137 7.32 4.7 14.18
3/9/2021 11:30:00 AM 2 35.6 0.142 7.32 4.69 14.1
3/9/2021 11:45:00 AM 2.22 35.996 0.146 7.33 2.99 14.03
3/9/2021 12:00:00 PM 2.44 36.392 0.146 7.33 3.06 13.96
3/9/2021 12:15:00 PM 2.65 36.77 0.145 7.34 3.3 13.89
3/9/2021 12:30:00 PM 2.87 37.166 0.145 7.34 3.24 13.81
3/9/2021 12:45:00 PM 3.08 37.544 0.145 7.35 3.39 13.73
3/9/2021 1:00:00 PM 3.27 37.886 0.144 7.34 3.36 13.66
3/9/2021 1:15:00 PM 3.46 38.228 0.144 7.34 3.37 13.59
3/9/2021 1:30:00 PM 3.63 38.534 0.144 7.34 3.42 13.53
3/9/2021 1:45:00 PM 3.79 38.822 0.144 7.35 3.25 13.47
3/9/2021 2:00:00 PM 3.91 39.038 0.143 7.35 3.38 13.42
3/9/2021 2:15:00 PM 4.01 39.218 0.143 7.33 3.34 13.37
3/9/2021 2:30:00 PM 4.09 39.362 0.143 7.32 3.27 13.33
3/9/2021 2:45:00 PM 4.14 39.452 0.143 7.32 3.37 13.3
3/9/2021 3:00:00 PM 4.17 39.506 0.143 7.32 3.46 13.28
3/9/2021 3:15:00 PM 4.17 39.506 0.142 7.3 3.83 13.26
3/9/2021 3:30:00 PM 4.16 39.488 0.142 7.3 4.52 13.24
3/9/2021 3:45:00 PM 4.12 39.416 0.142 7.28 5.14 13.24
3/9/2021 4:00:00 PM 4.08 39.344 0.142 7.28 4.83 13.23
3/9/2021 4:15:00 PM 4.03 39.254 0.142 7.28 4.56 13.22
3/9/2021 4:30:00 PM 3.99 39.182 0.142 7.27 4.33 13.21
3/9/2021 4:45:00 PM 3.94 39.092 0.142 7.28 4.04 13.21
3/9/2021 5:00:00 PM 3.9 39.02 0.142 7.26 4.12 13.2
3/9/2021 5:15:00 PM 3.85 38.93 0.142 7.25 4.58 13.19
3/9/2021 5:30:00 PM 3.81 38.858 0.142 7.23 4.33 13.17
3/9/2021 5:45:00 PM 3.77 38.786 0.142 7.24 4.44 13.16
3/9/2021 6:00:00 PM 3.74 38.732 0.143 7.24 4.52 13.14
3/9/2021 6:15:00 PM 3.7 38.66 0.142 7.22 4.93 13.13
3/9/2021 6:30:00 PM 3.67 38.606 0.142 7.2 5.21 13.12
3/9/2021 6:45:00 PM 3.62 38.516 0.142 7.19 5.4 13.11
3/9/2021 7:00:00 PM 3.56 38.408 0.142 7.18 6.64 13.12
3/9/2021 7:15:00 PM 3.49 38.282 0.142 7.19 6.17 13.14
3/9/2021 7:30:00 PM 3.4 38.12 0.141 7.18 6.37 13.17
3/9/2021 7:45:00 PM 3.3 37.94 0.14 7.17 7.66 13.2
3/9/2021 8:00:00 PM 3.17 37.706 0.139 7.15 7.31 13.24
3/9/2021 8:15:00 PM 3.03 37.454 0.138 7.16 9.01 13.3
3/9/2021 8:30:00 PM 2.88 37.184 0.137 7.13 9.38 13.35
3/9/2021 8:45:00 PM 2.72 36.896 0.136 7.13 9.04 13.41
3/9/2021 9:00:00 PM 2.55 36.59 0.136 7.11 9.3 13.47
3/9/2021 9:15:00 PM 2.38 36.284 0.135 7.11 9.72 13.54
3/9/2021 9:30:00 PM 2.21 35.978 0.131 7.1 11.38 13.6
3/9/2021 9:45:00 PM 2.05 35.69 0.134 7.11 9.56 13.65
3/9/2021 10:00:00 PM 1.91 35.438 0.13 7.12 10.9 13.7
3/9/2021 10:15:00 PM 1.78 35.204 0.127 7.11 10.27 13.75
3/9/2021 10:30:00 PM 1.67 35.006 0.134 7.11 8.76 13.78
3/9/2021 10:45:00 PM 1.6 34.88 0.135 7.13 8.52 13.8
3/9/2021 11:00:00 PM 1.57 34.826 0.132 7.13 9.88 13.81
3/9/2021 11:15:00 PM 1.57 34.826 0.133 7.11 9.69 13.8
3/9/2021 11:30:00 PM 1.58 34.844 0.134 7.15 9.85 13.79
3/9/2021 11:45:00 PM 1.6 34.88 0.135 7.15 9.85 13.78
3/10/2021 12:00:00 AM 1.62 34.916 0.139 7.16 8.05 13.76
3/10/2021 12:15:00 AM 1.63 34.934 0.14 7.14 8.82 13.76
3/10/2021 12:30:00 AM 1.62 34.916 0.14 7.14 8.67 13.76
3/10/2021 12:45:00 AM 1.6 34.88 0.136 7.15 10.99 13.77
3/10/2021 1:00:00 AM 1.57 34.826 0.14 7.15 9.9 13.78
3/10/2021 1:15:00 AM 1.53 34.754 0.136 7.13 11.83 13.8
3/10/2021 1:30:00 AM 1.49 34.682 0.139 7.15 10.44 13.82
3/10/2021 1:45:00 AM 1.44 34.592 0.139 7.14 10.31 13.84
3/10/2021 2:00:00 AM 1.39 34.502 0.138 7.12 10.32 13.86
3/10/2021 2:15:00 AM 1.34 34.412 0.134 7.13 12.1 13.88
3/10/2021 2:30:00 AM 1.28 34.304 0.129 7.13 12.2 13.9
3/10/2021 2:45:00 AM 1.22 34.196 0.128 7.13 13.46 13.92
3/10/2021 3:00:00 AM 1.16 34.088 0.133 7.14 13.42 13.96
3/10/2021 3:15:00 AM 1.09 33.962 0.132 7.13 13.48 13.98
3/10/2021 3:30:00 AM 1.03 33.854 0.135 7.14 12.35 14.02
3/10/2021 3:45:00 AM 0.97 33.746 0.134 7.12 12.77 14.04
3/10/2021 4:00:00 AM 0.91 33.638 0.134 7.11 12.1 14.06
3/10/2021 4:15:00 AM 0.87 33.566 0.134 7.13 11.49 14.08
3/10/2021 4:30:00 AM 0.83 33.494 0.133 7.13 11.88 14.09
3/10/2021 4:45:00 AM 0.79 33.422 0.133 7.12 11.78 14.12
3/10/2021 5:00:00 AM 0.76 33.368 0.133 7.12 11.34 14.12
3/10/2021 5:15:00 AM 0.74 33.332 0.134 7.13 10.86 14.14
3/10/2021 5:30:00 AM 0.73 33.314 0.134 7.14 10.55 14.13
3/10/2021 5:45:00 AM 0.71 33.278 0.127 7.13 12.4 14.14
3/10/2021 6:00:00 AM 0.7 33.26 0.134 7.13 11.09 14.16
3/10/2021 6:15:00 AM 0.7 33.26 0.134 7.14 10.15 14.15
3/10/2021 6:30:00 AM 0.69 33.242 0.134 7.13 10.49 14.16
3/10/2021 6:45:00 AM 0.7 33.26 0.131 7.14 12.01 14.16
3/10/2021 7:00:00 AM 0.71 33.278 0.131 7.15 12.01 14.16
3/10/2021 7:15:00 AM 0.73 33.314 0.135 7.15 9.93 14.18
3/10/2021 7:30:00 AM 0.76 33.368 0.135 7.15 9.47 14.2
3/10/2021 7:45:00 AM 0.79 33.422 0.135 7.17 9.27 14.2
3/10/2021 8:00:00 AM 0.83 33.494 0.135 7.18 9.35 14.22
3/10/2021 8:15:00 AM 0.88 33.584 0.128 7.18 10.71 14.22
3/10/2021 8:30:00 AM 0.94 33.692 0.128 7.18 11.1 14.21
3/10/2021 8:45:00 AM 1.01 33.818 0.136 7.19 8.89 14.22
3/10/2021 9:00:00 AM 1.11 33.998 0.133 7.2 10.49 14.21
3/10/2021 9:15:00 AM 1.21 34.178 0.136 7.22 9 14.2
3/10/2021 9:30:00 AM 1.32 34.376 0.132 7.22 10.95 14.18
3/10/2021 9:45:00 AM 1.42 34.556 0.135 7.23 8.72 14.17
3/10/2021 10:00:00 AM 1.54 34.772 0.132 7.23 11.44 14.16
3/10/2021 10:15:00 AM 1.67 35.006 0.135 7.24 8.76 14.13
3/10/2021 10:30:00 AM 1.81 35.258 0.131 7.24 11.34 14.1
3/10/2021 10:45:00 AM 1.97 35.546 0.135 7.27 9.58 14.05
3/10/2021 11:00:00 AM 2.12 35.816 0.135 7.26 9.58 14.02
3/10/2021 11:15:00 AM 2.29 36.122 0.135 7.29 9.62 13.98
3/10/2021 11:30:00 AM 2.45 36.41 0.135 7.28 8.8 13.94
3/10/2021 11:45:00 AM 2.62 36.716 0.135 7.29 8.97 13.89
3/10/2021 12:00:00 PM 2.78 37.004 0.136 7.3 9.02 13.85
3/10/2021 12:15:00 PM 2.96 37.328 0.136 7.3 9.76 13.79
3/10/2021 12:30:00 PM 3.14 37.652 0.137 7.31 9.32 13.74
3/10/2021 12:45:00 PM 3.32 37.976 0.137 7.32 8.54 13.68
3/10/2021 1:00:00 PM 3.49 38.282 0.137 7.32 9.39 13.62
3/10/2021 1:15:00 PM 3.66 38.588 0.138 7.32 9.31 13.57
3/10/2021 1:30:00 PM 3.8 38.84 0.138 7.33 9.74 13.51
3/10/2021 1:45:00 PM 3.94 39.092 0.139 7.33 9.7 13.47
3/10/2021 2:00:00 PM 4.07 39.326 0.139 7.33 9.4 13.42
3/10/2021 2:15:00 PM 4.17 39.506 0.139 7.33 9.89 13.37
3/10/2021 2:30:00 PM 4.27 39.686 0.139 7.33 9.4 13.32
3/10/2021 2:45:00 PM 4.35 39.83 0.14 7.33 9.32 13.28
3/10/2021 3:00:00 PM 4.43 39.974 0.14 7.33 9.27 13.24
3/10/2021 3:15:00 PM 4.49 40.082 0.14 7.32 8.76 13.2
3/10/2021 3:30:00 PM 4.55 40.19 0.14 7.31 9.06 13.17
3/10/2021 3:45:00 PM 4.58 40.244 0.14 7.31 8.4 13.13
3/10/2021 4:00:00 PM 4.62 40.316 0.139 7.3 8.4 13.1
3/10/2021 4:15:00 PM 4.64 40.352 0.139 7.3 7.96 13.05
3/10/2021 4:30:00 PM 4.68 40.424 0.139 7.31 8.37 13.02
3/10/2021 4:45:00 PM 4.71 40.478 0.139 7.29 7.87 12.98
3/10/2021 5:00:00 PM 4.73 40.514 0.138 7.29 7.91 12.95
3/10/2021 5:15:00 PM 4.74 40.532 0.138 7.27 8.07 12.9
3/10/2021 5:30:00 PM 4.76 40.568 0.138 7.27 8.01 12.86
3/10/2021 5:45:00 PM 4.77 40.586 0.137 7.26 7.95 12.84
3/10/2021 6:00:00 PM 4.76 40.568 0.137 7.24 8.44 12.81
3/10/2021 6:15:00 PM 4.75 40.55 0.136 7.23 8.21 12.79
3/10/2021 6:30:00 PM 4.73 40.514 0.136 7.22 8.94 12.79
3/10/2021 6:45:00 PM 4.7 40.46 0.135 7.22 9.16 12.77
3/10/2021 7:00:00 PM 4.66 40.388 0.134 7.2 9.89 12.77
3/10/2021 7:15:00 PM 4.61 40.298 0.134 7.19 10.87 12.78
3/10/2021 7:30:00 PM 4.54 40.172 0.133 7.18 11.71 12.79
3/10/2021 7:45:00 PM 4.44 39.992 0.133 7.17 12.39 12.81
3/10/2021 8:00:00 PM 4.33 39.794 0.132 7.16 13.06 12.84
3/10/2021 8:15:00 PM 4.21 39.578 0.132 7.15 12.63 12.87
3/10/2021 8:30:00 PM 4.1 39.38 0.131 7.15 13.46 12.89
3/10/2021 8:45:00 PM 4 39.2 0.131 7.14 13.51 12.92
3/10/2021 9:00:00 PM 3.9 39.02 0.131 7.12 13.38 12.95
3/10/2021 9:15:00 PM 3.81 38.858 0.131 7.11 13.48 12.97
3/10/2021 9:30:00 PM 3.73 38.714 0.132 7.11 14.76 13
3/10/2021 9:45:00 PM 3.66 38.588 0.132 7.11 13.85 13.01
3/10/2021 10:00:00 PM 3.59 38.462 0.132 7.11 14.01 13.03
3/10/2021 10:15:00 PM 3.53 38.354 0.132 7.11 14.43 13.05
3/10/2021 10:30:00 PM 3.46 38.228 0.131 7.09 15.35 13.06
3/10/2021 10:45:00 PM 3.4 38.12 0.131 7.09 14.76 13.08
3/10/2021 11:00:00 PM 3.33 37.994 0.13 7.07 17.54 13.1
3/10/2021 11:15:00 PM 3.26 37.868 0.13 7.08 16.72 13.13
3/10/2021 11:30:00 PM 3.17 37.706 0.129 7.07 21.12 13.15
3/10/2021 11:45:00 PM 3.08 37.544 0.129 7.04 18.03 13.19
3/11/2021 12:00:00 AM 2.98 37.364 0.128 7.06 22.58 13.22
3/11/2021 12:15:00 AM 2.88 37.184 0.127 7.06 25.23 13.26
3/11/2021 12:30:00 AM 2.79 37.022 0.127 7.06 24.76 13.3
3/11/2021 12:45:00 AM 2.69 36.842 0.126 7.05 27.57 13.33
3/11/2021 1:00:00 AM 2.61 36.698 0.125 7.05 23.97 13.36
3/11/2021 1:15:00 AM 2.54 36.572 0.125 7.04 26.46 13.38
3/11/2021 1:30:00 AM 2.49 36.482 0.125 7.05 27.67 13.41
3/11/2021 1:45:00 AM 2.45 36.41 0.125 7.07 21.36 13.41
3/11/2021 2:00:00 AM 2.43 36.374 0.125 7.07 27.25 13.42
3/11/2021 2:15:00 AM 2.42 36.356 0.125 7.08 22.26 13.42
3/11/2021 2:30:00 AM 2.41 36.338 0.125 7.08 27.48 13.41
3/11/2021 2:45:00 AM 2.43 36.374 0.125 7.05 27.37 13.4
3/11/2021 3:00:00 AM 2.45 36.41 0.126 7.07 22.96 13.4
3/11/2021 3:15:00 AM 2.46 36.428 0.126 7.07 27.86 13.38
3/11/2021 3:30:00 AM 2.48 36.464 0.126 7.06 24.68 13.37
3/11/2021 3:45:00 AM 2.48 36.464 0.126 7.06 22.59 13.37
3/11/2021 4:00:00 AM 2.49 36.482 0.126 7.07 27.09 13.37
3/11/2021 4:15:00 AM 2.47 36.446 0.125 7.06 25.63 13.38
3/11/2021 4:30:00 AM 2.46 36.428 0.125 7.05 46.64 13.38
3/11/2021 4:45:00 AM 2.43 36.374 0.124 7.06 28.12 13.4
3/11/2021 5:00:00 AM 2.39 36.302 0.124 7.05 35.33 13.41
3/11/2021 5:15:00 AM 2.35 36.23 0.124 7.04 28.76 13.44
3/11/2021 5:30:00 AM 2.31 36.158 0.124 7.04 35.79 13.44
3/11/2021 5:45:00 AM 2.28 36.104 0.125 7.05 35.54 13.46
3/11/2021 6:00:00 AM 2.26 36.068 0.125 7.04 32.42 13.47
3/11/2021 6:15:00 AM 2.24 36.032 0.126 7.05 38.78 13.48
3/11/2021 6:30:00 AM 2.23 36.014 0.126 7.04 37.57 13.49
3/11/2021 6:45:00 AM 2.22 35.996 0.127 7.04 32.21 13.49
3/11/2021 7:00:00 AM 2.22 35.996 0.127 7.05 40.4 13.49
3/11/2021 7:15:00 AM 2.22 35.996 0.127 7.03 33.03 13.5
3/11/2021 7:30:00 AM 2.22 35.996 0.127 7.04 34.42 13.52
3/11/2021 7:45:00 AM 2.22 35.996 0.126 7.05 31.33 13.53
3/11/2021 8:00:00 AM 2.23 36.014 0.122 7.03 29.54 13.53
3/11/2021 8:15:00 AM 2.24 36.032 0.125 7.05 34.89 13.55
3/11/2021 8:30:00 AM 2.27 36.086 0.124 7.05 29.79 13.54
3/11/2021 8:45:00 AM 2.3 36.14 0.124 7.05 27.62 13.55
3/11/2021 9:00:00 AM 2.35 36.23 0.124 7.06 24.44 13.55
3/11/2021 9:15:00 AM 2.42 36.356 0.123 7.07 26.68 13.55
3/11/2021 9:30:00 AM 2.46 36.428 0.123 7.08 30.55 13.54
3/11/2021 9:45:00 AM 2.55 36.59 0.122 7.09 30.68 13.54
3/11/2021 10:00:00 AM 2.65 36.77 0.122 7.1 30.07 13.53
3/11/2021 10:15:00 AM 2.77 36.986 0.121 7.13 20.81 13.51
3/11/2021 10:30:00 AM 2.86 37.148 0.12 7.11 26.5 13.49
3/11/2021 10:45:00 AM 2.96 37.328 0.12 7.12 29.13 13.48
3/11/2021 11:00:00 AM 3.08 37.544 0.12 7.13 24.54 13.46
3/11/2021 11:15:00 AM 3.21 37.778 0.119 7.13 32.75 13.44
3/11/2021 11:30:00 AM 3.35 38.03 0.119 7.15 35.68 13.41
3/11/2021 11:45:00 AM 3.47 38.246 0.118 7.15 30.25 13.38
3/11/2021 12:00:00 PM 3.57 38.426 0.118 7.15 25.91 13.37
3/11/2021 12:15:00 PM 3.62 38.516 0.118 7.15 24.72 13.35
3/11/2021 12:30:00 PM 3.75 38.75 0.118 7.15 28.92 13.32
3/11/2021 12:45:00 PM 3.89 39.002 0.117 7.18 22.86 13.28
3/11/2021 1:00:00 PM 3.98 39.164 0.117 7.19 26.59 13.26
3/11/2021 1:15:00 PM 4.06 39.308 0.117 7.18 22.05 13.21
3/11/2021 1:30:00 PM 4.08 39.344 0.117 7.17 30.11 13.17
3/11/2021 1:45:00 PM 4.09 39.362 0.117 7.15 21.13 13.15
3/11/2021 2:00:00 PM 4.14 39.452 0.117 7.16 24.34 13.11
3/11/2021 2:15:00 PM 4.22 39.596 0.116 7.16 25.86 13.07
3/11/2021 2:30:00 PM 4.25 39.65 0.116 7.15 22.71 13.03
3/11/2021 2:45:00 PM 4.28 39.704 0.116 7.14 26.1 12.99
3/11/2021 3:00:00 PM 4.36 39.848 0.116 7.15 30.01 12.95
3/11/2021 3:15:00 PM 4.41 39.938 0.116 7.14 26.52 12.93
3/11/2021 3:30:00 PM 4.45 40.01 0.116 7.14 28.36 12.9
3/11/2021 3:45:00 PM 4.49 40.082 0.116 7.15 20.62 12.88
3/11/2021 4:00:00 PM 4.51 40.118 0.116 7.13 27.51 12.87
3/11/2021 4:15:00 PM 4.53 40.154 0.116 7.14 26.87 12.85
3/11/2021 4:30:00 PM 4.53 40.154 0.115 7.11 27.04 12.84
3/11/2021 4:45:00 PM 4.54 40.172 0.115 7.12 31.56 12.82
3/11/2021 5:00:00 PM 4.55 40.19 0.115 7.11 22.15 12.8
3/11/2021 5:15:00 PM 4.55 40.19 0.115 7.1 28.76 12.79
3/11/2021 5:30:00 PM 4.51 40.118 0.114 7.08 19.24 12.79
3/11/2021 5:45:00 PM 4.47 40.046 0.114 7.09 26.08 12.79
3/11/2021 6:00:00 PM 4.44 39.992 0.114 7.09 18.11 12.78
3/11/2021 6:15:00 PM 4.42 39.956 0.114 7.08 29.19 12.78
3/11/2021 6:30:00 PM 4.42 39.956 0.114 7.09 26.62 12.77
3/11/2021 6:45:00 PM 4.41 39.938 0.113 7.09 19.91 12.76
3/11/2021 7:00:00 PM 4.39 39.902 0.113 7.04 44.53 12.76
3/11/2021 7:15:00 PM 4.37 39.866 0.113 7.05 27.44 12.75
3/11/2021 7:30:00 PM 4.37 39.866 0.113 7.02 24.05 12.75
3/11/2021 7:45:00 PM 4.32 39.776 0.112 7.04 24.56 12.76
3/11/2021 8:00:00 PM 4.3 39.74 0.112 7.03 21.32 12.76
3/11/2021 8:15:00 PM 4.28 39.704 0.112 7.05 18.38 12.76
3/11/2021 8:30:00 PM 4.26 39.668 0.112 7.04 29.49 12.76
3/11/2021 8:45:00 PM 4.22 39.596 0.112 7.03 25.88 12.77
3/11/2021 9:00:00 PM 4.2 39.56 0.112 7.02 27.86 12.78
3/11/2021 9:15:00 PM 4.16 39.488 0.111 7.02 39.99 12.78
3/11/2021 9:30:00 PM 4.13 39.434 0.111 7 26.79 12.79
3/11/2021 9:45:00 PM 4.1 39.38 0.111 7.02 30.24 12.8
3/11/2021 10:00:00 PM 4.08 39.344 0.111 6.98 27.97 12.8
3/11/2021 10:15:00 PM 4.09 39.362 0.111 6.99 30.36 12.79
3/11/2021 10:30:00 PM 4.1 39.38 0.111 6.99 31.62 12.79
3/11/2021 10:45:00 PM 4.09 39.362 0.111 7 34.15 12.78
3/11/2021 11:00:00 PM 4.09 39.362 0.111 7 33.86 12.79
3/11/2021 11:15:00 PM 4.09 39.362 0.111 6.99 40.68 12.78
3/11/2021 11:30:00 PM 4.09 39.362 0.111 7 29.8 12.77
3/11/2021 11:45:00 PM 4.11 39.398 0.111 6.99 31.26 12.77
3/12/2021 12:00:00 AM 4.12 39.416 0.11 6.99 33.16 12.76
3/12/2021 12:15:00 AM 4.15 39.47 0.11 6.99 40.13 12.75
3/12/2021 12:30:00 AM 4.17 39.506 0.11 7 36.08 12.74
3/12/2021 12:45:00 AM 4.17 39.506 0.11 6.99 43.4 12.75
3/12/2021 1:00:00 AM 4.16 39.488 0.11 6.99 41.03 12.75
3/12/2021 1:15:00 AM 4.15 39.47 0.109 6.99 34.14 12.75
3/12/2021 1:30:00 AM 4.15 39.47 0.11 6.97 45.68 12.75
3/12/2021 1:45:00 AM 4.16 39.488 0.11 6.96 45.92 12.75
3/12/2021 2:00:00 AM 4.16 39.488 0.11 6.98 52.8 12.75
3/12/2021 2:15:00 AM 4.15 39.47 0.111 6.96 37.09 12.75
3/12/2021 2:30:00 AM 4.15 39.47 0.111 6.96 47.76 12.75
3/12/2021 2:45:00 AM 4.14 39.452 0.111 6.95 59.26 12.75
3/12/2021 3:00:00 AM 4.15 39.47 0.112 6.95 52.14 12.75
3/12/2021 3:15:00 AM 4.16 39.488 0.078 6.94 54.05 12.75
3/12/2021 3:30:00 AM 4.16 39.488 0.112 6.93 58.69 12.76
3/12/2021 3:45:00 AM 4.16 39.488 0.111 6.95 46.49 12.76
3/12/2021 4:00:00 AM 4.16 39.488 0.111 6.97 50.5 12.76
3/12/2021 4:15:00 AM 4.14 39.452 0.11 6.94 45.07 12.77
3/12/2021 4:30:00 AM 4.11 39.398 0.11 6.94 52.85 12.78
3/12/2021 4:45:00 AM 4.07 39.326 0.109 6.94 51.59 12.79
3/12/2021 5:00:00 AM 4.02 39.236 0.109 6.94 49.97 12.81
3/12/2021 5:15:00 AM 3.98 39.164 0.108 6.94 47.19 12.83
3/12/2021 5:30:00 AM 3.93 39.074 0.107 6.92 60.98 12.85
3/12/2021 5:45:00 AM 3.86 38.948 0.107 6.93 62.44 12.87
3/12/2021 6:00:00 AM 3.78 38.804 0.106 6.9 64.25 12.9
3/12/2021 6:15:00 AM 3.7 38.66 0.106 6.9 65.03 12.92
3/12/2021 6:30:00 AM 3.62 38.516 0.105 6.91 59.59 12.95
3/12/2021 6:45:00 AM 3.54 38.372 0.105 6.88 50.88 12.98
3/12/2021 7:00:00 AM 3.46 38.228 0.104 6.91 55.1 13.01
3/12/2021 7:15:00 AM 3.39 38.102 0.104 6.9 57.91 13.04
3/12/2021 7:30:00 AM 3.33 37.994 0.104 6.88 69.23 13.06
3/12/2021 7:45:00 AM 3.27 37.886 0.103 6.89 76.32 13.08
3/12/2021 8:00:00 AM 3.23 37.814 0.103 6.89 61.76 13.11
3/12/2021 8:15:00 AM 3.2 37.76 0.102 6.92 65.01 13.13
3/12/2021 8:30:00 AM 3.17 37.706 0.102 6.91 81.91 13.15
3/12/2021 8:45:00 AM 3.15 37.67 0.101 6.9 54.16 13.17
3/12/2021 9:00:00 AM 3.14 37.652 0.101 6.9 60.67 13.18
3/12/2021 9:15:00 AM 3.14 37.652 0.1 6.89 67.66 13.2
3/12/2021 9:30:00 AM 3.15 37.67 0.1 6.91 70.06 13.2
3/12/2021 9:45:00 AM 3.17 37.706 0.099 6.92 89.75 13.21
3/12/2021 10:00:00 AM 3.21 37.778 0.099 6.92 68.57 13.21
3/12/2021 10:15:00 AM 3.26 37.868 0.099 6.91 64.75 13.2
3/12/2021 10:30:00 AM 3.32 37.976 0.098 6.93 47.51 13.2
3/12/2021 10:45:00 AM 3.39 38.102 0.098 6.92 64.28 13.18
3/12/2021 11:00:00 AM 3.47 38.246 0.098 6.92 55.5 13.17
3/12/2021 11:15:00 AM 3.55 38.39 0.097 6.95 70.44 13.16
3/12/2021 11:30:00 AM 3.64 38.552 0.097 6.95 50.84 13.14
3/12/2021 11:45:00 AM 3.74 38.732 0.097 6.94 62.52 13.12
3/12/2021 12:00:00 PM 3.84 38.912 0.097 6.95 47.48 13.09
3/12/2021 12:15:00 PM 3.95 39.11 0.096 6.94 95.38 13.07
3/12/2021 12:30:00 PM 4.06 39.308 0.096 6.95 59.64 13.04
3/12/2021 12:45:00 PM 4.17 39.506 0.096 6.95 47.64 13.01
3/12/2021 1:00:00 PM 4.28 39.704 0.096 6.94 46.93 12.98
3/12/2021 1:15:00 PM 4.38 39.884 0.096 6.95 42.03 12.95
3/12/2021 1:30:00 PM 4.47 40.046 0.096 6.96 45.56 12.91
3/12/2021 1:45:00 PM 4.56 40.208 0.096 6.92 40.99 12.88
3/12/2021 2:00:00 PM 4.64 40.352 0.095 6.92 43.67 12.86
3/12/2021 2:15:00 PM 4.7 40.46 0.095 6.94 48.84 12.82
3/12/2021 2:30:00 PM 4.75 40.55 0.095 6.96 45.2 12.81
3/12/2021 2:45:00 PM 4.8 40.64 0.095 6.94 42.4 12.79
3/12/2021 3:00:00 PM 4.83 40.694 0.095 6.91 62.96 12.76
3/12/2021 3:15:00 PM 4.85 40.73 0.095 6.93 42.49 12.75
3/12/2021 3:30:00 PM 4.86 40.748 0.095 6.93 51.84 12.73
3/12/2021 3:45:00 PM 4.85 40.73 0.095 6.92 32.97 12.72
3/12/2021 4:00:00 PM 4.84 40.712 0.095 6.91 45.26 12.71
3/12/2021 4:15:00 PM 4.82 40.676 0.095 6.87 40.1 12.71
3/12/2021 4:30:00 PM 4.79 40.622 0.095 6.89 34.63 12.69
3/12/2021 4:45:00 PM 4.75 40.55 0.095 6.88 31.7 12.7
3/12/2021 5:00:00 PM 4.72 40.496 0.095 6.9 30.05 12.69
3/12/2021 5:15:00 PM 4.68 40.424 0.095 6.89 40.48 12.69
3/12/2021 5:30:00 PM 4.64 40.352 0.095 6.87 55.97 12.7
3/12/2021 5:45:00 PM 4.6 40.28 0.095 6.88 31.45 12.69
3/12/2021 6:00:00 PM 4.56 40.208 0.095 6.85 40.48 12.69
3/12/2021 6:15:00 PM 4.51 40.118 0.095 6.89 30.05 12.7
3/12/2021 6:30:00 PM 4.47 40.046 0.095 6.89 38.3 12.7
3/12/2021 6:45:00 PM 4.43 39.974 0.095 6.89 34.78 12.7
3/12/2021 7:00:00 PM 4.39 39.902 0.095 6.88 33.69 12.71
3/12/2021 7:15:00 PM 4.35 39.83 0.095 6.89 33.27 12.71
3/12/2021 7:30:00 PM 4.32 39.776 0.095 6.9 32.44 12.72
3/12/2021 7:45:00 PM 4.3 39.74 0.095 6.9 50.55 12.72
3/12/2021 8:00:00 PM 4.29 39.722 0.095 6.88 26.65 12.71
3/12/2021 8:15:00 PM 4.29 39.722 0.095 6.89 36.88 12.71
3/12/2021 8:30:00 PM 4.29 39.722 0.095 6.88 32.44 12.71
3/12/2021 8:45:00 PM 4.29 39.722 0.095 6.89 32.51 12.7
3/12/2021 9:00:00 PM 4.3 39.74 0.095 6.9 31.15 12.7
3/12/2021 9:15:00 PM 4.31 39.758 0.095 6.89 35.94 12.7
3/12/2021 9:30:00 PM 4.33 39.794 0.095 6.91 30.52 12.69
3/12/2021 9:45:00 PM 4.36 39.848 0.095 6.88 30.59 12.68
3/12/2021 10:00:00 PM 4.37 39.866 0.095 6.89 39.72 12.68
3/12/2021 10:15:00 PM 4.38 39.884 0.095 6.9 37.81 12.67
3/12/2021 10:30:00 PM 4.41 39.938 0.095 6.9 31.32 12.66
3/12/2021 10:45:00 PM 4.43 39.974 0.095 6.89 28.52 12.66
3/12/2021 11:00:00 PM 4.43 39.974 0.069 6.88 28.16 12.66
3/12/2021 11:15:00 PM 4.44 39.992 0.044 6.88 27.16 12.65
3/12/2021 11:30:00 PM 4.45 40.01 0.095 6.89 28.91 12.65
3/12/2021 11:45:00 PM 4.44 39.992 0.095 6.9 28.17 12.65
3/13/2021 12:00:00 AM 4.43 39.974 0.095 6.89 29.24 12.65
3/13/2021 12:15:00 AM 4.42 39.956 0.095 6.89 38.65 12.65
3/13/2021 12:30:00 AM 4.4 39.92 0.095 6.89 23.34 12.66
3/13/2021 12:45:00 AM 4.38 39.884 0.095 6.89 32.1 12.67
3/13/2021 1:00:00 AM 4.36 39.848 0.095 6.9 24 12.67
3/13/2021 1:15:00 AM 4.35 39.83 0.095 6.87 25.41 12.67
3/13/2021 1:30:00 AM 4.33 39.794 0.094 6.89 25.76 12.69
3/13/2021 1:45:00 AM 4.3 39.74 0.094 6.9 28.05 12.7
3/13/2021 2:00:00 AM 4.26 39.668 0.094 6.89 27.6 12.71
3/13/2021 2:15:00 AM 4.23 39.614 0.094 6.9 27.56 12.72
3/13/2021 2:30:00 AM 4.19 39.542 0.094 6.89 35.58 12.73
3/13/2021 2:45:00 AM 4.15 39.47 0.094 6.88 27.76 12.75
3/13/2021 3:00:00 AM 4.1 39.38 0.094 6.89 32.4 12.77
3/13/2021 3:15:00 AM 4.04 39.272 0.094 6.88 27.21 12.79
3/13/2021 3:30:00 AM 4 39.2 0.094 6.9 24.16 12.8
3/13/2021 3:45:00 AM 3.95 39.11 0.094 6.89 47.24 12.82
3/13/2021 4:00:00 AM 3.91 39.038 0.094 6.92 23.03 12.84
3/13/2021 4:15:00 AM 3.87 38.966 0.094 6.91 26.91 12.85
3/13/2021 4:30:00 AM 3.82 38.876 0.094 6.91 27.87 12.87
3/13/2021 4:45:00 AM 3.78 38.804 0.094 6.88 27.62 12.88
3/13/2021 5:00:00 AM 3.73 38.714 0.094 6.89 28.14 12.9
3/13/2021 5:15:00 AM 3.68 38.624 0.094 6.9 24.72 12.92
3/13/2021 5:30:00 AM 3.62 38.516 0.094 6.87 28.53 12.94
3/13/2021 5:45:00 AM 3.56 38.408 0.094 6.91 30.51 12.96
3/13/2021 6:00:00 AM 3.5 38.3 0.094 6.88 33.93 12.98
3/13/2021 6:15:00 AM 3.45 38.21 0.093 6.9 25.64 13
3/13/2021 6:30:00 AM 3.4 38.12 0.093 6.88 32.5 13.02
3/13/2021 6:45:00 AM 3.35 38.03 0.093 6.88 29.97 13.03
3/13/2021 7:00:00 AM 3.29 37.922 0.093 6.85 32.18 13.06
3/13/2021 7:15:00 AM 3.25 37.85 0.093 6.89 22.77 13.08
3/13/2021 7:30:00 AM 3.21 37.778 0.093 6.88 48.34 13.1
3/13/2021 7:45:00 AM 3.18 37.724 0.093 6.87 26.47 13.12
3/13/2021 8:00:00 AM 3.15 37.67 0.093 6.89 26.54 13.15
3/13/2021 8:15:00 AM 3.13 37.634 0.092 6.91 30.79 13.16
3/13/2021 8:30:00 AM 3.12 37.616 0.092 6.89 24.55 13.18
3/13/2021 8:45:00 AM 3.1 37.58 0.092 6.91 25.62 13.21
3/13/2021 9:00:00 AM 3.1 37.58 0.092 6.91 27.36 13.23
3/13/2021 9:15:00 AM 3.1 37.58 0.092 6.91 26.37 13.24
3/13/2021 9:30:00 AM 3.12 37.616 0.092 6.91 25.89 13.25
3/13/2021 9:45:00 AM 3.14 37.652 0.092 6.93 27.11 13.27
3/13/2021 10:00:00 AM 3.17 37.706 0.092 6.92 25.69 13.27
3/13/2021 10:15:00 AM 3.22 37.796 0.092 6.95 19.79 13.28
3/13/2021 10:30:00 AM 3.26 37.868 0.092 6.94 25.4 13.29
3/13/2021 10:45:00 AM 3.33 37.994 0.092 6.95 23.02 13.28
3/13/2021 11:00:00 AM 3.4 38.12 0.092 6.95 23.5 13.28
3/13/2021 11:15:00 AM 3.47 38.246 0.092 6.95 21.46 13.27
3/13/2021 11:30:00 AM 3.55 38.39 0.091 6.97 21.55 13.26
3/13/2021 11:45:00 AM 3.64 38.552 0.091 6.99 26.72 13.25
3/13/2021 12:00:00 PM 3.72 38.696 0.091 6.99 17.53 13.25
3/13/2021 12:15:00 PM 3.8 38.84 0.091 6.98 21.3 13.24
3/13/2021 12:30:00 PM 3.89 39.002 0.09 7 21.72 13.22
3/13/2021 12:45:00 PM 3.96 39.128 0.09 6.97 22.79 13.2
3/13/2021 1:00:00 PM 4.05 39.29 0.09 7 22.56 13.19
3/13/2021 1:15:00 PM 4.12 39.416 0.09 6.98 23.59 13.17
3/13/2021 1:30:00 PM 4.2 39.56 0.09 7 20.66 13.14
3/13/2021 1:45:00 PM 4.26 39.668 0.09 7 23.56 13.12
3/13/2021 2:00:00 PM 4.31 39.758 0.091 7 21.95 13.1
3/13/2021 2:15:00 PM 4.35 39.83 0.09 7.01 24.14 13.09
3/13/2021 2:30:00 PM 4.38 39.884 0.091 6.99 17.02 13.07
3/13/2021 2:45:00 PM 4.4 39.92 0.091 6.98 23.32 13.06
3/13/2021 3:00:00 PM 4.41 39.938 0.091 6.99 19.22 13.05
3/13/2021 3:15:00 PM 4.41 39.938 0.091 6.98 21.66 13.03
3/13/2021 3:30:00 PM 4.4 39.92 0.091 6.98 20.87 13.02
3/13/2021 3:45:00 PM 4.38 39.884 0.091 6.96 17.73 13.02
3/13/2021 4:00:00 PM 4.34 39.812 0.091 6.96 19.82 13.01
3/13/2021 4:15:00 PM 4.3 39.74 0.091 6.97 19.64 13.01
3/13/2021 4:30:00 PM 4.26 39.668 0.091 6.96 38.92 12.99
3/13/2021 4:45:00 PM 4.2 39.56 0.091 6.96 18.95 12.99
3/13/2021 5:00:00 PM 4.14 39.452 0.091 6.96 19.02 13
3/13/2021 5:15:00 PM 4.09 39.362 0.091 6.95 18.69 13
3/13/2021 5:30:00 PM 4.03 39.254 0.092 6.94 18.93 13
3/13/2021 5:45:00 PM 3.97 39.146 0.092 6.95 22.15 13.01
3/13/2021 6:00:00 PM 3.89 39.002 0.092 6.92 18.16 13.01
3/13/2021 6:15:00 PM 3.81 38.858 0.092 6.94 17.77 13.02
3/13/2021 6:30:00 PM 3.72 38.696 0.092 6.93 19.79 13.04
3/13/2021 6:45:00 PM 3.62 38.516 0.092 6.92 18.33 13.05
3/13/2021 7:00:00 PM 3.53 38.354 0.092 6.94 12.97 13.07
3/13/2021 7:15:00 PM 3.43 38.174 0.092 6.93 14.89 13.1
3/13/2021 7:30:00 PM 3.33 37.994 0.092 6.93 17.76 13.12
3/13/2021 7:45:00 PM 3.23 37.814 0.092 6.91 16.69 13.14
3/13/2021 8:00:00 PM 3.15 37.67 0.093 6.92 16.67 13.15
3/13/2021 8:15:00 PM 3.07 37.526 0.093 6.92 15.3 13.17
3/13/2021 8:30:00 PM 2.99 37.382 0.093 6.92 17.04 13.2
3/13/2021 8:45:00 PM 2.93 37.274 0.093 6.93 15.83 13.2
3/13/2021 9:00:00 PM 2.88 37.184 0.093 6.94 16.28 13.22
3/13/2021 9:15:00 PM 2.83 37.094 0.093 6.93 15.79 13.22
3/13/2021 9:30:00 PM 2.79 37.022 0.093 6.93 16.16 13.24
3/13/2021 9:45:00 PM 2.74 36.932 0.094 6.95 16.17 13.25
3/13/2021 10:00:00 PM 2.7 36.86 0.093 6.95 15.95 13.25
3/13/2021 10:15:00 PM 2.67 36.806 0.094 6.95 15.65 13.26
3/13/2021 10:30:00 PM 2.63 36.734 0.094 6.95 14.76 13.27
3/13/2021 10:45:00 PM 2.6 36.68 0.094 6.94 14.65 13.28
3/13/2021 11:00:00 PM 2.57 36.626 0.094 6.95 15.33 13.28
3/13/2021 11:15:00 PM 2.54 36.572 0.094 6.95 13.54 13.29
3/13/2021 11:30:00 PM 2.52 36.536 0.094 6.95 14.99 13.3
3/13/2021 11:45:00 PM 2.49 36.482 0.094 6.95 14.39 13.3
3/14/2021 12:00:00 AM 2.48 36.464 0.094 6.97 14.39 13.31
3/14/2021 12:15:00 AM 2.46 36.428 0.094 6.95 15.14 13.31
3/14/2021 12:30:00 AM 2.45 36.41 0.095 6.96 13.63 13.32
3/14/2021 12:45:00 AM 2.43 36.374 0.095 6.98 14.01 13.31
3/14/2021 1:00:00 AM 2.42 36.356 0.094 6.99 13.94 13.32
3/14/2021 1:15:00 AM 2.41 36.338 0.095 6.97 14.05 13.32
3/14/2021 1:30:00 AM 2.41 36.338 0.095 6.98 14.55 13.32
3/14/2021 1:45:00 AM 2.4 36.32 0.095 6.97 13.77 13.32
3/14/2021 3:00:00 AM 2.4 36.32 0.095 6.95 12.99 13.31
3/14/2021 3:15:00 AM 2.4 36.32 0.095 6.98 15.15 13.31
3/14/2021 3:30:00 AM 2.4 36.32 0.095 6.97 14.33 13.3
3/14/2021 3:45:00 AM 2.4 36.32 0.095 6.97 13.57 13.31
3/14/2021 4:00:00 AM 2.41 36.338 0.095 6.96 13.39 13.29
3/14/2021 5:15:00 AM 2.43 36.374 0.095 6.98 13.14 13.29
3/14/2021 5:30:00 AM 2.43 36.374 0.095 6.98 13.03 13.29
3/14/2021 5:45:00 AM 2.43 36.374 0.095 6.97 12.29 13.29
3/14/2021 6:00:00 AM 2.42 36.356 0.095 6.97 13.05 13.29
3/14/2021 6:15:00 AM 2.42 36.356 0.095 6.98 12.61 13.29
3/14/2021 6:30:00 AM 2.41 36.338 0.095 6.98 12.5 13.3
3/14/2021 6:45:00 AM 2.39 36.302 0.095 6.97 12.28 13.3
3/14/2021 7:00:00 AM 2.38 36.284 0.095 6.97 12.79 13.3
3/14/2021 7:15:00 AM 2.37 36.266 0.095 6.98 11.99 13.3
3/14/2021 7:30:00 AM 2.36 36.248 0.095 6.97 12.04 13.31
3/14/2021 7:45:00 AM 2.36 36.248 0.095 6.98 12.05 13.33
3/14/2021 8:00:00 AM 2.35 36.23 0.096 6.98 12.24 13.33
3/14/2021 8:15:00 AM 2.35 36.23 0.095 6.99 12.33 13.36
3/14/2021 8:30:00 AM 2.36 36.248 0.095 6.98 11.69 13.36
3/14/2021 8:45:00 AM 2.37 36.266 0.095 7 10.94 13.37
3/14/2021 9:00:00 AM 2.39 36.302 0.095 7.01 11.62 13.39
3/14/2021 9:15:00 AM 2.43 36.374 0.095 7.02 11.92 13.4
3/14/2021 9:30:00 AM 2.48 36.464 0.095 7.03 11.56 13.41
3/14/2021 9:45:00 AM 2.55 36.59 0.095 7.04 13.71 13.41
3/14/2021 10:00:00 AM 2.61 36.698 0.095 7.06 11.94 13.41
3/14/2021 10:15:00 AM 2.68 36.824 0.095 7.06 10.79 13.41
3/14/2021 10:30:00 AM 2.76 36.968 0.095 7.06 10.97 13.4
3/14/2021 10:45:00 AM 2.85 37.13 0.095 7.07 10.73 13.39
3/14/2021 11:00:00 AM 2.88 37.184 0.095 7.09 13.18 13.38
3/14/2021 11:15:00 AM 2.95 37.31 0.095 7.08 13.43 13.38
3/14/2021 11:30:00 AM 3.07 37.526 0.095 7.1 13.62 13.37
3/14/2021 11:45:00 AM 3.24 37.832 0.095 7.13 13.02 13.35
3/14/2021 12:00:00 PM 3.41 38.138 0.095 7.14 222.01 13.31
3/14/2021 12:15:00 PM 3.42 38.156 0.095 7.11 25.21 13.3
3/14/2021 12:30:00 PM 3.54 38.372 0.095 7.13 10.34 13.28
3/14/2021 12:45:00 PM 3.61 38.498 0.095 7.14 10.23 13.26
3/14/2021 1:00:00 PM 3.64 38.552 0.095 7.13 9.89 13.25
3/14/2021 1:15:00 PM 3.69 38.642 0.095 7.14 10.03 13.25
3/14/2021 1:30:00 PM 3.83 38.894 0.095 7.16 10.28 13.21
3/14/2021 1:45:00 PM 4 39.2 0.095 7.16 10.34 13.18
3/14/2021 2:00:00 PM 4.14 39.452 0.095 7.18 10.65 13.14
3/14/2021 2:15:00 PM 4.21 39.578 0.095 7.18 9.64 13.12
3/14/2021 2:30:00 PM 4.2 39.56 0.095 7.16 10.13 13.11
3/14/2021 2:45:00 PM 4.24 39.632 0.095 7.13 9.55 13.1
3/14/2021 3:00:00 PM 4.27 39.686 0.095 7.15 9.79 13.08
3/14/2021 3:15:00 PM 4.33 39.794 0.095 7.16 10.2 13.06
3/14/2021 3:30:00 PM 4.38 39.884 0.095 7.16 10.15 13.05
3/14/2021 3:45:00 PM 4.35 39.83 0.095 7.14 9.67 13.04
3/14/2021 4:00:00 PM 4.37 39.866 0.095 7.15 9.88 13.04
3/14/2021 4:15:00 PM 4.32 39.776 0.095 7.14 9.6 13.03
3/14/2021 4:30:00 PM 4.3 39.74 0.095 7.14 9.6 13.05
3/14/2021 4:45:00 PM 4.23 39.614 0.095 7.13 9.61 13.05
3/14/2021 5:00:00 PM 4.2 39.56 0.095 7.14 9.07 13.05
3/14/2021 5:15:00 PM 4.16 39.488 0.096 7.13 9.39 13.05
3/14/2021 5:30:00 PM 4.12 39.416 0.096 7.12 9.23 13.07
3/14/2021 5:45:00 PM 4.06 39.308 0.096 7.13 9.81 13.07
3/14/2021 6:00:00 PM 3.99 39.182 0.096 7.13 9.46 13.07
3/14/2021 6:15:00 PM 3.92 39.056 0.096 7.12 9.7 13.08
3/14/2021 6:30:00 PM 3.84 38.912 0.097 7.1 9.3 13.08
3/14/2021 6:45:00 PM 3.75 38.75 0.096 7.09 9.51 13.08
3/14/2021 7:00:00 PM 3.66 38.588 0.097 7.07 9.59 13.09
3/14/2021 7:15:00 PM 3.58 38.444 0.097 7.06 9.85 13.09
3/14/2021 7:30:00 PM 3.5 38.3 0.097 7.03 9.67 13.1
3/14/2021 7:45:00 PM 3.42 38.156 0.097 7.02 9.34 13.11
3/14/2021 8:00:00 PM 3.33 37.994 0.097 7.04 9.68 13.13
3/14/2021 8:15:00 PM 3.24 37.832 0.097 7.02 9.5 13.15
3/14/2021 8:30:00 PM 3.13 37.634 0.097 7.03 9.65 13.19
3/14/2021 8:45:00 PM 3.03 37.454 0.097 7 9.06 13.22
3/14/2021 9:00:00 PM 2.94 37.292 0.098 7.02 9.85 13.24
3/14/2021 9:15:00 PM 2.85 37.13 0.098 7.02 9.67 13.26
3/14/2021 9:30:00 PM 2.77 36.986 0.098 7.01 9.2 13.29
3/14/2021 9:45:00 PM 2.69 36.842 0.098 7.02 9.25 13.33
3/14/2021 10:00:00 PM 2.6 36.68 0.098 7.02 9.21 13.35
3/14/2021 10:15:00 PM 2.5 36.5 0.098 7.01 9.11 13.38
3/14/2021 10:30:00 PM 2.41 36.338 0.099 7.01 8.57 13.42
3/14/2021 10:45:00 PM 2.31 36.158 0.099 6.99 9.57 13.44
3/14/2021 11:00:00 PM 2.22 35.996 0.099 7.01 9.2 13.48
3/14/2021 11:15:00 PM 2.15 35.87 0.099 7.01 9.2 13.5
3/14/2021 11:30:00 PM 2.09 35.762 0.099 6.99 8.7 13.53
3/14/2021 11:45:00 PM 2.03 35.654 0.099 7.01 8.64 13.55
3/15/2021 12:00:00 AM 1.95 35.51 0.099 7.01 8.75 13.57
3/15/2021 12:15:00 AM 1.86 35.348 0.099 6.99 8.81 13.61
3/15/2021 12:30:00 AM 1.78 35.204 0.099 7 8.56 13.64
3/15/2021 12:45:00 AM 1.69 35.042 0.099 7.01 9.38 13.67
3/15/2021 1:00:00 AM 1.62 34.916 0.099 7.01 8.84 13.69
3/15/2021 1:15:00 AM 1.55 34.79 0.099 7.02 8.43 13.73
3/15/2021 1:30:00 AM 1.48 34.664 0.1 7.01 8.75 13.75
3/15/2021 1:45:00 AM 1.43 34.574 0.1 7.01 8.77 13.77
3/15/2021 2:00:00 AM 1.36 34.448 0.1 7.02 8.83 13.79
3/15/2021 2:15:00 AM 1.31 34.358 0.1 7.02 8.6 13.82
3/15/2021 2:30:00 AM 1.25 34.25 0.1 6.99 8.63 13.84
3/15/2021 2:45:00 AM 1.21 34.178 0.1 7.01 8.46 13.86
3/15/2021 3:00:00 AM 1.15 34.07 0.1 7.03 8.02 13.88
3/15/2021 3:15:00 AM 1.09 33.962 0.1 7.01 8.82 13.91
3/15/2021 3:30:00 AM 1.03 33.854 0.1 7.02 8.54 13.93
3/15/2021 3:45:00 AM 1 33.8 0.101 7.02 8.46 13.94
3/15/2021 4:00:00 AM 0.94 33.692 0.101 7 8.33 13.97
3/15/2021 4:15:00 AM 0.88 33.584 0.101 7.02 8.11 13.99
3/15/2021 4:30:00 AM 0.83 33.494 0.101 7.02 8.7 14
3/15/2021 4:45:00 AM 0.78 33.404 0.101 7.03 7.99 14.03
3/15/2021 5:00:00 AM 0.75 33.35 0.101 7.03 8.21 14.03
3/15/2021 5:15:00 AM 0.71 33.278 0.101 7.03 8.11 14.06
3/15/2021 5:30:00 AM 0.68 33.224 0.101 7.03 8.71 14.08
3/15/2021 5:45:00 AM 0.65 33.17 0.101 7.01 8.01 14.09
3/15/2021 6:00:00 AM 0.61 33.098 0.101 7.03 7.99 14.11
3/15/2021 6:15:00 AM 0.55 32.99 0.101 7.02 7.48 14.13
3/15/2021 6:30:00 AM 0.51 32.918 0.101 7.01 8.2 14.14
3/15/2021 6:45:00 AM 0.48 32.864 0.101 7.02 8.46 14.16
3/15/2021 7:00:00 AM 0.45 32.81 0.101 7.02 7.85 14.18
3/15/2021 7:15:00 AM 0.41 32.738 0.101 7.03 7.98 14.19
3/15/2021 7:30:00 AM 0.39 32.702 0.101 7.03 7.81 14.21
3/15/2021 7:45:00 AM 0.37 32.666 0.101 7.03 8.01 14.24
3/15/2021 8:00:00 AM 0.34 32.612 0.101 7.02 7.87 14.26
3/15/2021 8:15:00 AM 0.3 32.54 0.101 7.03 8.09 14.29
3/15/2021 8:30:00 AM 0.28 32.504 0.101 7.05 8.03 14.33
3/15/2021 8:45:00 AM 0.24 32.432 0.101 7.06 7.57 14.37
3/15/2021 9:00:00 AM 0.22 32.396 0.101 7.06 7.65 14.4
3/15/2021 9:15:00 AM 0.22 32.396 0.101 7.07 7.41 14.42
3/15/2021 9:30:00 AM 0.26 32.468 0.101 7.07 7.8 14.45
3/15/2021 9:45:00 AM 0.31 32.558 0.101 7.1 7.7 14.45
3/15/2021 10:00:00 AM 0.37 32.666 0.101 7.1 7.51 14.46
3/15/2021 10:15:00 AM 0.43 32.774 0.101 7.1 7.68 14.46
3/15/2021 10:30:00 AM 0.49 32.882 0.101 7.12 7.09 14.46
3/15/2021 10:45:00 AM 0.56 33.008 0.101 7.12 7.39 14.46
3/15/2021 11:00:00 AM 0.65 33.17 0.101 7.14 7.58 14.44
3/15/2021 11:15:00 AM 0.76 33.368 0.101 7.15 7.66 14.43
3/15/2021 11:30:00 AM 0.87 33.566 0.101 7.16 7.57 14.4
3/15/2021 11:45:00 AM 0.99 33.782 0.1 7.17 7.45 14.37
3/15/2021 12:00:00 PM 1.12 34.016 0.101 7.17 6.99 14.35
3/15/2021 12:15:00 PM 1.25 34.25 0.101 7.19 7.98 14.31
3/15/2021 12:30:00 PM 1.4 34.52 0.1 7.19 7.84 14.27
3/15/2021 12:45:00 PM 1.54 34.772 0.1 7.19 7.39 14.22
3/15/2021 1:00:00 PM 1.69 35.042 0.1 7.19 7.8 14.18
3/15/2021 1:15:00 PM 1.85 35.33 0.1 7.2 7.27 14.12
3/15/2021 1:30:00 PM 2.01 35.618 0.1 7.21 7.7 14.08
3/15/2021 1:45:00 PM 2.15 35.87 0.1 7.19 7.72 14.03
3/15/2021 2:00:00 PM 2.29 36.122 0.1 7.21 8.14 13.98
3/15/2021 2:15:00 PM 2.43 36.374 0.1 7.21 7.36 13.93
3/15/2021 2:30:00 PM 2.53 36.554 0.1 7.2 7.65 13.89
3/15/2021 2:45:00 PM 2.63 36.734 0.1 7.21 7.12 13.85
3/15/2021 3:00:00 PM 2.71 36.878 0.1 7.21 7.24 13.81
3/15/2021 3:15:00 PM 2.77 36.986 0.1 7.2 7.06 13.79
3/15/2021 3:30:00 PM 2.82 37.076 0.1 7.19 6.98 13.75
3/15/2021 3:45:00 PM 2.87 37.166 0.1 7.21 6.75 13.72
3/15/2021 4:00:00 PM 2.91 37.238 0.1 7.19 7.08 13.69
3/15/2021 4:15:00 PM 2.94 37.292 0.1 7.2 6.34 13.67
3/15/2021 4:30:00 PM 2.95 37.31 0.1 7.18 7.07 13.65
3/15/2021 4:45:00 PM 2.95 37.31 0.1 7.19 7.18 13.63
3/15/2021 5:00:00 PM 2.94 37.292 0.1 7.18 6.89 13.6
3/15/2021 5:15:00 PM 2.92 37.256 0.1 7.17 6.62 13.59
3/15/2021 5:30:00 PM 2.94 37.292 0.1 7.18 6.75 13.58
3/15/2021 5:45:00 PM 2.93 37.274 0.101 7.17 6.43 13.56
3/15/2021 6:00:00 PM 2.92 37.256 0.101 7.17 7.27 13.55
3/15/2021 6:15:00 PM 2.87 37.166 0.101 7.16 6.93 13.54
3/15/2021 6:30:00 PM 2.85 37.13 0.101 7.17 7.19 13.53
3/15/2021 6:45:00 PM 2.81 37.058 0.101 7.15 7.23 13.51
3/15/2021 7:00:00 PM 2.78 37.004 0.101 7.15 6.62 13.49
3/15/2021 7:15:00 PM 2.74 36.932 0.102 7.14 6.59 13.48
3/15/2021 7:30:00 PM 2.7 36.86 0.102 7.13 6.8 13.47
3/15/2021 7:45:00 PM 2.65 36.77 0.102 7.12 6.51 13.47
3/15/2021 8:00:00 PM 2.59 36.662 0.103 7.1 7.12 13.48
3/15/2021 8:15:00 PM 2.52 36.536 0.103 7.1 6.86 13.49
3/15/2021 8:30:00 PM 2.45 36.41 0.103 7.09 7.02 13.51
3/15/2021 8:45:00 PM 2.38 36.284 0.103 7.08 6.85 13.52
3/15/2021 9:00:00 PM 2.3 36.14 0.103 7.09 7.23 13.55
3/15/2021 9:15:00 PM 2.22 35.996 0.103 7.08 6.99 13.57
3/15/2021 9:30:00 PM 2.13 35.834 0.103 7.06 6.63 13.58
3/15/2021 9:45:00 PM 2.04 35.672 0.103 7.07 6.67 13.62
3/15/2021 10:00:00 PM 1.94 35.492 0.103 7.06 7.22 13.65
3/15/2021 10:15:00 PM 1.84 35.312 0.103 7.05 6.56 13.68
3/15/2021 10:30:00 PM 1.74 35.132 0.103 7.05 6.72 13.73
3/15/2021 10:45:00 PM 1.64 34.952 0.104 7.04 6.42 13.76
3/15/2021 11:00:00 PM 1.54 34.772 0.104 7.04 6.68 13.81
3/15/2021 11:15:00 PM 1.45 34.61 0.103 7.03 6.57 13.84
3/15/2021 11:30:00 PM 1.36 34.448 0.103 7.03 6.34 13.87
3/15/2021 11:45:00 PM 1.27 34.286 0.103 7.05 6.55 13.9
3/16/2021 12:00:00 AM 1.19 34.142 0.104 7.06 6.9 13.94
3/16/2021 12:15:00 AM 1.11 33.998 0.104 7.05 6.44 13.97
3/16/2021 12:30:00 AM 1.05 33.89 0.103 7.05 6.05 14
3/16/2021 12:45:00 AM 0.98 33.764 0.103 7.06 6.87 14.02
3/16/2021 1:00:00 AM 0.93 33.674 0.104 7.05 6.64 14.04
3/16/2021 1:15:00 AM 0.88 33.584 0.104 7.05 6.39 14.05
3/16/2021 1:30:00 AM 0.83 33.494 0.104 7.05 6.4 14.07
3/16/2021 1:45:00 AM 0.79 33.422 0.104 7.05 6.21 14.08
3/16/2021 2:00:00 AM 0.74 33.332 0.104 7.02 6.61 14.1
3/16/2021 2:15:00 AM 0.69 33.242 0.104 7.04 6.54 14.12
3/16/2021 2:30:00 AM 0.65 33.17 0.104 7.05 6.53 14.13
3/16/2021 2:45:00 AM 0.62 33.116 0.105 7.06 6.2 14.14
3/16/2021 3:00:00 AM 0.59 33.062 0.105 7.05 6.25 14.17
3/16/2021 3:15:00 AM 0.56 33.008 0.105 7.06 6.34 14.17
3/16/2021 3:30:00 AM 0.53 32.954 0.105 7.06 6.04 14.19
3/16/2021 3:45:00 AM 0.49 32.882 0.105 7.06 6.18 14.2
3/16/2021 4:00:00 AM 0.46 32.828 0.105 7.08 6.47 14.22
3/16/2021 4:15:00 AM 0.44 32.792 0.105 7.05 6.52 14.22
3/16/2021 4:30:00 AM 0.42 32.756 0.105 7.07 6.21 14.23
3/16/2021 4:45:00 AM 0.4 32.72 0.105 7.09 6.71 14.24
3/16/2021 5:00:00 AM 0.39 32.702 0.105 7.05 5.89 14.24
3/16/2021 5:15:00 AM 0.37 32.666 0.105 7.06 6.4 14.24
3/16/2021 5:30:00 AM 0.36 32.648 0.105 7.08 6.19 14.25
3/16/2021 5:45:00 AM 0.35 32.63 0.105 7.06 6.19 14.25
3/16/2021 6:00:00 AM 0.35 32.63 0.104 7.06 6.28 14.25
3/16/2021 6:15:00 AM 0.34 32.612 0.105 7.07 5.82 14.25
3/16/2021 6:30:00 AM 0.34 32.612 0.105 7.08 6.21 14.25
3/16/2021 6:45:00 AM 0.33 32.594 0.105 7.08 6.26 14.25
3/16/2021 7:00:00 AM 0.32 32.576 0.105 7.09 5.77 14.25
3/16/2021 7:15:00 AM 0.32 32.576 0.105 7.09 6.45 14.25
3/16/2021 7:30:00 AM 0.31 32.558 0.105 7.09 6.11 14.26
3/16/2021 7:45:00 AM 0.32 32.576 0.105 7.1 5.86 14.27
3/16/2021 8:00:00 AM 0.33 32.594 0.106 7.09 6.17 14.29
3/16/2021 8:15:00 AM 0.36 32.648 0.105 7.12 6.32 14.3
3/16/2021 8:30:00 AM 0.37 32.666 0.105 7.12 6.14 14.31
3/16/2021 8:45:00 AM 0.39 32.702 0.105 7.12 6.54 14.32
3/16/2021 9:00:00 AM 0.42 32.756 0.106 7.14 6.24 14.33
3/16/2021 9:15:00 AM 0.45 32.81 0.105 7.14 6.34 14.34
3/16/2021 9:30:00 AM 0.49 32.882 0.105 7.16 5.7 14.35
3/16/2021 9:45:00 AM 0.52 32.936 0.106 7.17 5.8 14.35
3/16/2021 10:00:00 AM 0.57 33.026 0.106 7.18 6.07 14.36
3/16/2021 10:15:00 AM 0.61 33.098 0.106 7.18 6.2 14.36
3/16/2021 10:30:00 AM 0.66 33.188 0.106 7.2 5.87 14.36
3/16/2021 10:45:00 AM 0.7 33.26 0.106 7.18 6.02 14.35
3/16/2021 11:00:00 AM 0.73 33.314 0.105 7.19 6.3 14.33
3/16/2021 11:15:00 AM 0.78 33.404 0.106 7.2 5.67 14.34
3/16/2021 11:30:00 AM 0.81 33.458 0.105 7.21 5.38 14.32
3/16/2021 11:45:00 AM 0.85 33.53 0.106 7.21 5.96 14.33
3/16/2021 12:00:00 PM 0.88 33.584 0.105 7.2 6.03 14.31
3/16/2021 12:15:00 PM 0.9 33.62 0.106 7.2 5.44 14.3
3/16/2021 12:30:00 PM 0.93 33.674 0.105 7.21 5.61 14.29
3/16/2021 12:45:00 PM 1.01 33.818 0.105 7.23 5.74 14.29
3/16/2021 1:00:00 PM 1.11 33.998 0.105 7.24 5.62 14.27
3/16/2021 1:15:00 PM 1.15 34.07 0.105 7.22 5.8 14.22
3/16/2021 1:30:00 PM 1.17 34.106 0.105 7.22 5.44 14.22
3/16/2021 1:45:00 PM 1.19 34.142 0.105 7.23 5.68 14.21
3/16/2021 2:00:00 PM 1.2 34.16 0.105 7.22 5.87 14.21
3/16/2021 2:15:00 PM 1.22 34.196 0.105 7.22 5.6 14.19
3/16/2021 2:30:00 PM 1.25 34.25 0.105 7.22 5.97 14.17
3/16/2021 2:45:00 PM 1.29 34.322 0.105 7.23 5.79 14.16
3/16/2021 3:00:00 PM 1.32 34.376 0.105 7.23 5.96 14.14
3/16/2021 3:15:00 PM 1.34 34.412 0.105 7.24 5.53 14.14
3/16/2021 3:30:00 PM 1.39 34.502 0.105 7.26 5.55 14.13
3/16/2021 3:45:00 PM 1.43 34.574 0.105 7.26 5.57 14.1
3/16/2021 4:00:00 PM 1.44 34.592 0.105 7.23 5.22 14.09
3/16/2021 4:15:00 PM 1.46 34.628 0.105 7.24 5.58 14.08
3/16/2021 4:30:00 PM 1.47 34.646 0.105 7.25 5.74 14.07
3/16/2021 4:45:00 PM 1.48 34.664 0.105 7.24 5.13 14.04
3/16/2021 5:00:00 PM 1.48 34.664 0.105 7.22 5.57 14.02
3/16/2021 5:15:00 PM 1.48 34.664 0.105 7.23 5.75 14.01
3/16/2021 5:30:00 PM 1.45 34.61 0.105 7.23 5.26 13.98
3/16/2021 5:45:00 PM 1.45 34.61 0.105 7.24 5.27 13.98
3/16/2021 6:00:00 PM 1.45 34.61 0.105 7.2 5.39 13.97
3/16/2021 6:15:00 PM 1.46 34.628 0.105 7.21 5.52 13.96
3/16/2021 6:30:00 PM 1.47 34.646 0.105 7.2 5.39 13.92
3/16/2021 6:45:00 PM 1.47 34.646 0.106 7.19 5.34 13.9
3/16/2021 7:00:00 PM 1.47 34.646 0.105 7.18 5.2 13.89
3/16/2021 7:15:00 PM 1.46 34.628 0.106 7.14 5.53 13.87
3/16/2021 7:30:00 PM 1.45 34.61 0.106 7.15 5.62 13.86
3/16/2021 7:45:00 PM 1.44 34.592 0.106 7.15 5.27 13.85
3/16/2021 8:00:00 PM 1.44 34.592 0.106 7.13 5.34 13.83
3/16/2021 8:15:00 PM 1.43 34.574 0.106 7.15 5.48 13.83
3/16/2021 8:30:00 PM 1.43 34.574 0.106 7.13 5.29 13.82
3/16/2021 8:45:00 PM 1.43 34.574 0.106 7.14 5.45 13.82
3/16/2021 9:00:00 PM 1.43 34.574 0.106 7.13 5.26 13.82
3/16/2021 9:15:00 PM 1.42 34.556 0.107 7.12 5.27 13.81
3/16/2021 9:30:00 PM 1.42 34.556 0.106 7.14 5.32 13.81
3/16/2021 9:45:00 PM 1.42 34.556 0.106 7.12 5.84 13.81
3/16/2021 10:00:00 PM 1.41 34.538 0.107 7.14 5.15 13.81
3/16/2021 10:15:00 PM 1.41 34.538 0.107 7.13 5.32 13.8
3/16/2021 10:30:00 PM 1.4 34.52 0.107 7.13 5.45 13.81
3/16/2021 10:45:00 PM 1.4 34.52 0.107 7.12 5.1 13.81
3/16/2021 11:00:00 PM 1.39 34.502 0.107 7.11 5.39 13.81
3/16/2021 11:15:00 PM 1.38 34.484 0.107 7.11 5.41 13.81
3/16/2021 11:30:00 PM 1.37 34.466 0.107 7.13 5.41 13.81
3/16/2021 11:45:00 PM 1.37 34.466 0.107 7.13 5.24 13.81
3/17/2021 12:00:00 AM 1.36 34.448 0.107 7.12 5.27 13.81
3/17/2021 12:15:00 AM 1.35 34.43 0.107 7.13 5.25 13.81
3/17/2021 12:30:00 AM 1.34 34.412 0.107 7.12 5.26 13.81
3/17/2021 12:45:00 AM 1.33 34.394 0.107 7.12 5.22 13.8
3/17/2021 1:00:00 AM 1.32 34.376 0.107 7.12 5.04 13.81
3/17/2021 1:15:00 AM 1.32 34.376 0.108 7.13 5.18 13.81
3/17/2021 1:30:00 AM 1.31 34.358 0.108 7.14 5.2 13.81
3/17/2021 1:45:00 AM 1.31 34.358 0.108 7.11 5.08 13.81
3/17/2021 2:00:00 AM 1.3 34.34 0.108 7.14 5.56 13.81
3/17/2021 2:15:00 AM 1.3 34.34 0.108 7.15 5.37 13.81
3/17/2021 2:30:00 AM 1.29 34.322 0.108 7.15 5.41 13.81
3/17/2021 2:45:00 AM 1.28 34.304 0.109 7.15 5.69 13.81
3/17/2021 3:00:00 AM 1.28 34.304 0.108 7.15 5.35 13.82
3/17/2021 3:15:00 AM 1.27 34.286 0.109 7.14 5.49 13.82
3/17/2021 3:30:00 AM 1.27 34.286 0.108 7.14 5.39 13.82
3/17/2021 3:45:00 AM 1.27 34.286 0.108 7.13 5.6 13.82
3/17/2021 4:00:00 AM 1.26 34.268 0.109 7.13 5.75 13.82
3/17/2021 4:15:00 AM 1.26 34.268 0.109 7.12 5.47 13.82
3/17/2021 4:30:00 AM 1.26 34.268 0.108 7.12 5.46 13.81
3/17/2021 4:45:00 AM 1.26 34.268 0.108 7.13 5.33 13.82
3/17/2021 5:00:00 AM 1.26 34.268 0.108 7.12 5.42 13.83
3/17/2021 5:15:00 AM 1.26 34.268 0.108 7.12 5.62 13.83
3/17/2021 5:30:00 AM 1.26 34.268 0.108 7.12 5.52 13.83
3/17/2021 5:45:00 AM 1.25 34.25 0.108 7.12 5.26 13.83
3/17/2021 6:00:00 AM 1.25 34.25 0.108 7.13 5.04 13.83
3/17/2021 6:15:00 AM 1.25 34.25 0.108 7.12 4.89 13.83
3/17/2021 6:30:00 AM 1.25 34.25 0.109 7.11 5.37 13.84
3/17/2021 6:45:00 AM 1.25 34.25 0.109 7.12 5.23 13.84
3/17/2021 7:00:00 AM 1.25 34.25 0.109 7.11 5.22 13.84
3/17/2021 7:15:00 AM 1.25 34.25 0.108 7.11 5.33 13.84
3/17/2021 7:30:00 AM 1.25 34.25 0.108 7.12 5.31 13.84
3/17/2021 7:45:00 AM 1.25 34.25 0.108 7.12 5.23 13.85
3/17/2021 8:00:00 AM 1.26 34.268 0.108 7.12 5.02 13.87
3/17/2021 8:15:00 AM 1.27 34.286 0.108 7.13 5.08 13.89
3/17/2021 8:30:00 AM 1.29 34.322 0.108 7.14 4.83 13.91
3/17/2021 8:45:00 AM 1.31 34.358 0.108 7.15 4.69 13.93
3/17/2021 9:00:00 AM 1.34 34.412 0.108 7.17 4.65 13.96
3/17/2021 9:15:00 AM 1.37 34.466 0.108 7.17 4.93 13.98
3/17/2021 9:30:00 AM 1.41 34.538 0.108 7.18 5 13.99
3/17/2021 9:45:00 AM 1.47 34.646 0.108 7.21 4.71 14
3/17/2021 10:00:00 AM 1.52 34.736 0.108 7.22 4.19 14.01
3/17/2021 10:15:00 AM 1.58 34.844 0.108 7.23 4.75 14.02
3/17/2021 10:30:00 AM 1.64 34.952 0.108 7.24 4.85 14.01
3/17/2021 10:45:00 AM 1.7 35.06 0.108 7.25 4.48 14.01
3/17/2021 11:00:00 AM 1.76 35.168 0.108 7.26 4.62 14
3/17/2021 11:15:00 AM 1.82 35.276 0.108 7.27 4.6 13.99
3/17/2021 11:30:00 AM 1.9 35.42 0.108 7.27 4.75 13.98
3/17/2021 11:45:00 AM 1.97 35.546 0.108 7.29 4.56 13.95
3/17/2021 12:00:00 PM 2.07 35.726 0.108 7.29 4.74 13.94
3/17/2021 12:15:00 PM 2.15 35.87 0.108 7.3 4.33 13.92
3/17/2021 12:30:00 PM 2.23 36.014 0.108 7.29 4.52 13.9
3/17/2021 12:45:00 PM 2.32 36.176 0.108 7.29 4.64 13.87
3/17/2021 1:00:00 PM 2.42 36.356 0.108 7.31 4.5 13.85
3/17/2021 1:15:00 PM 2.53 36.554 0.108 7.32 4.33 13.82
3/17/2021 1:30:00 PM 2.66 36.788 0.108 7.32 4.33 13.78
3/17/2021 1:45:00 PM 2.78 37.004 0.108 7.33 4.62 13.74
3/17/2021 2:00:00 PM 2.93 37.274 0.108 7.34 4.63 13.71
3/17/2021 2:15:00 PM 3.07 37.526 0.108 7.35 4.47 13.66
3/17/2021 2:30:00 PM 3.19 37.742 0.108 7.35 4.47 13.62
3/17/2021 2:45:00 PM 3.32 37.976 0.107 7.35 4.53 13.57
3/17/2021 3:00:00 PM 3.51 38.318 0.108 7.36 4.3 13.5
3/17/2021 3:15:00 PM 3.7 38.66 0.107 7.36 4.67 13.44
3/17/2021 3:30:00 PM 3.84 38.912 0.107 7.36 4.4 13.38
3/17/2021 3:45:00 PM 3.89 39.002 0.107 7.35 4.14 13.36
3/17/2021 4:00:00 PM 3.93 39.074 0.107 7.35 4.27 13.34
3/17/2021 4:15:00 PM 3.96 39.128 0.107 7.34 4.59 13.31
3/17/2021 4:30:00 PM 3.98 39.164 0.107 7.33 4.25 13.3
3/17/2021 4:45:00 PM 4.01 39.218 0.107 7.33 4.25 13.28
3/17/2021 5:00:00 PM 4.01 39.218 0.107 7.33 4.35 13.26
3/17/2021 5:15:00 PM 4.01 39.218 0.107 7.32 4.35 13.23
3/17/2021 5:30:00 PM 3.99 39.182 0.107 7.31 4.45 13.22
3/17/2021 5:45:00 PM 3.98 39.164 0.107 7.3 4.58 13.2
3/17/2021 6:00:00 PM 3.97 39.146 0.107 7.3 4.38 13.17
3/17/2021 6:15:00 PM 3.98 39.164 0.107 7.29 4.44 13.14
3/17/2021 6:30:00 PM 3.98 39.164 0.108 7.28 4.35 13.1
3/17/2021 6:45:00 PM 3.97 39.146 0.107 7.28 4.54 13.06
3/17/2021 7:00:00 PM 3.96 39.128 0.107 7.27 4.37 13.03
3/17/2021 7:15:00 PM 3.95 39.11 0.107 7.24 4.56 12.99
3/17/2021 7:30:00 PM 3.94 39.092 0.108 7.22 4.56 12.96
3/17/2021 7:45:00 PM 3.93 39.074 0.107 7.17 4.51 12.94
3/17/2021 8:00:00 PM 3.91 39.038 0.107 7.17 4.45 12.92
3/17/2021 8:15:00 PM 3.89 39.002 0.107 7.18 4.54 12.9
3/17/2021 8:30:00 PM 3.87 38.966 0.107 7.16 4.76 12.89
3/17/2021 8:45:00 PM 3.84 38.912 0.108 7.16 4.69 12.89
3/17/2021 9:00:00 PM 3.8 38.84 0.095 7.15 4.61 12.89
3/17/2021 9:15:00 PM 3.76 38.768 0.094 7.14 4.42 12.89
3/17/2021 9:30:00 PM 3.73 38.714 0.094 7.13 4.65 12.9
3/17/2021 9:45:00 PM 3.69 38.642 0.103 7.13 4.74 12.9
3/17/2021 10:00:00 PM 3.65 38.57 0.108 7.11 4.52 12.92
3/17/2021 10:15:00 PM 3.61 38.498 0.108 7.13 4.37 12.93
3/17/2021 10:30:00 PM 3.57 38.426 0.109 7.11 4.74 12.94
3/17/2021 10:45:00 PM 3.53 38.354 0.109 7.12 4.47 12.95
3/17/2021 11:00:00 PM 3.5 38.3 0.109 7.12 4.39 12.96
3/17/2021 11:15:00 PM 3.47 38.246 0.109 7.11 4.4 12.97
3/17/2021 11:30:00 PM 3.43 38.174 0.109 7.11 4.44 12.98
3/17/2021 11:45:00 PM 3.4 38.12 0.109 7.11 4.58 12.98
3/18/2021 12:00:00 AM 3.37 38.066 0.109 7.12 4.61 13
3/18/2021 12:15:00 AM 3.35 38.03 0.109 7.12 4.59 13
3/18/2021 12:30:00 AM 3.34 38.012 0.109 7.12 4.48 13.01
3/18/2021 12:45:00 AM 3.33 37.994 0.109 7.1 4.54 13.01
3/18/2021 1:00:00 AM 3.32 37.976 0.11 7.12 4.54 13.01
3/18/2021 1:15:00 AM 3.31 37.958 0.11 7.12 4.61 13.01
3/18/2021 1:30:00 AM 3.29 37.922 0.11 7.11 4.5 13.01
3/18/2021 1:45:00 AM 3.27 37.886 0.11 7.12 4.64 13.02
3/18/2021 2:00:00 AM 3.24 37.832 0.11 7.12 4.57 13.03
3/18/2021 2:15:00 AM 3.23 37.814 0.11 7.12 4.44 13.04
3/18/2021 2:30:00 AM 3.21 37.778 0.11 7.13 4.34 13.04
3/18/2021 2:45:00 AM 3.19 37.742 0.11 7.13 4.5 13.04
3/18/2021 3:00:00 AM 3.18 37.724 0.11 7.14 4.51 13.05
3/18/2021 3:15:00 AM 3.17 37.706 0.11 7.13 4.21 13.05
3/18/2021 3:30:00 AM 3.15 37.67 0.11 7.13 4.48 13.05
3/18/2021 3:45:00 AM 3.14 37.652 0.11 7.13 4.67 13.05
3/18/2021 4:00:00 AM 3.12 37.616 0.11 7.14 4.55 13.06
3/18/2021 4:15:00 AM 3.1 37.58 0.111 7.14 4.25 13.07
3/18/2021 4:30:00 AM 3.08 37.544 0.111 7.12 4.32 13.07
3/18/2021 4:45:00 AM 3.07 37.526 0.111 7.13 4.34 13.07
3/18/2021 5:00:00 AM 3.05 37.49 0.11 7.12 4.24 13.07
3/18/2021 5:15:00 AM 3.04 37.472 0.11 7.17 4.37 13.08
3/18/2021 5:30:00 AM 3.02 37.436 0.111 7.15 4.36 13.08
3/18/2021 5:45:00 AM 3.01 37.418 0.111 7.15 4.47 13.09
3/18/2021 6:00:00 AM 3 37.4 0.111 7.16 4.6 13.09
3/18/2021 6:15:00 AM 2.99 37.382 0.11 7.17 4.1 13.1
3/18/2021 6:30:00 AM 2.98 37.364 0.11 7.15 3.95 13.1
3/18/2021 6:45:00 AM 2.97 37.346 0.11 7.15 5.08 13.1
3/18/2021 7:00:00 AM 2.96 37.328 0.11 7.16 4.57 13.1
3/18/2021 7:15:00 AM 2.96 37.328 0.11 7.14 4.46 13.1
3/18/2021 7:30:00 AM 2.96 37.328 0.11 7.12 4.43 13.1
3/18/2021 7:45:00 AM 2.96 37.328 0.11 7.14 4.44 13.1
3/18/2021 8:00:00 AM 2.96 37.328 0.11 7.14 4.65 13.11
3/18/2021 8:15:00 AM 2.96 37.328 0.11 7.15 4.55 13.12
3/18/2021 8:30:00 AM 2.97 37.346 0.11 7.14 4.45 13.14
3/18/2021 8:45:00 AM 2.99 37.382 0.11 7.14 4.43 13.15
3/18/2021 9:00:00 AM 3.01 37.418 0.11 7.15 4.41 13.17
3/18/2021 9:15:00 AM 3.03 37.454 0.11 7.15 4.41 13.18
3/18/2021 9:30:00 AM 3.06 37.508 0.109 7.16 4.35 13.2
3/18/2021 9:45:00 AM 3.08 37.544 0.109 7.17 4.5 13.21
3/18/2021 10:00:00 AM 3.12 37.616 0.109 7.15 4.64 13.21
3/18/2021 10:15:00 AM 3.15 37.67 0.109 7.17 4.8 13.21
3/18/2021 10:30:00 AM 3.18 37.724 0.108 7.16 4.79 13.21
3/18/2021 10:45:00 AM 3.21 37.778 0.108 7.19 5.06 13.2
3/18/2021 11:00:00 AM 3.24 37.832 0.108 7.17 5.33 13.19
3/18/2021 11:15:00 AM 3.27 37.886 0.108 7.18 5.76 13.19
3/18/2021 11:30:00 AM 3.31 37.958 0.108 7.16 5.37 13.18
3/18/2021 11:45:00 AM 3.35 38.03 0.108 7.18 6.09 13.17
3/18/2021 12:00:00 PM 3.39 38.102 0.109 7.17 6.36 13.17
3/18/2021 12:15:00 PM 3.43 38.174 0.11 7.19 7.29 13.18
3/18/2021 12:30:00 PM 3.47 38.246 0.11 7.2 7.53 13.17
3/18/2021 12:45:00 PM 3.52 38.336 0.11 7.2 8.48 13.17
3/18/2021 1:00:00 PM 3.57 38.426 0.11 7.2 9.43 13.17
3/18/2021 1:15:00 PM 3.61 38.498 0.111 7.21 10.05 13.17
3/18/2021 1:30:00 PM 3.64 38.552 0.112 7.2 11.08 13.15
3/18/2021 1:45:00 PM 3.69 38.642 0.114 7.21 11.26 13.14
3/18/2021 2:00:00 PM 3.72 38.696 0.115 7.2 12.73 13.12
3/18/2021 2:15:00 PM 3.77 38.786 0.116 7.22 15.42 13.11
3/18/2021 2:30:00 PM 3.8 38.84 0.116 7.21 15.7 13.09
3/18/2021 2:45:00 PM 3.81 38.858 0.117 7.19 17.93 13.06
3/18/2021 3:00:00 PM 3.83 38.894 0.118 7.19 19.81 13.04
3/18/2021 3:15:00 PM 3.85 38.93 0.117 7.19 17.37 13.01
3/18/2021 3:30:00 PM 3.87 38.966 0.118 7.18 23.28 12.99
3/18/2021 3:45:00 PM 3.88 38.984 0.119 7.14 18.75 12.97
3/18/2021 4:00:00 PM 3.89 39.002 0.12 7.14 26.84 12.94
3/18/2021 4:15:00 PM 3.9 39.02 0.121 7.12 29.94 12.91
3/18/2021 4:30:00 PM 3.92 39.056 0.121 7.11 51.95 12.9
3/18/2021 4:45:00 PM 3.94 39.092 0.121 7.1 33.19 12.89
3/18/2021 5:00:00 PM 3.95 39.11 0.121 7.07 34.93 12.87
3/18/2021 5:15:00 PM 3.97 39.146 0.12 7.06 47.38 12.86
3/18/2021 5:30:00 PM 3.98 39.164 0.119 7.05 34.05 12.86
3/18/2021 5:45:00 PM 3.99 39.182 0.118 7.04 43.72 12.85
3/18/2021 6:00:00 PM 4 39.2 0.117 7.03 30.19 12.83
3/18/2021 6:15:00 PM 4.01 39.218 0.117 7.03 34.19 12.83
3/18/2021 6:30:00 PM 4.01 39.218 0.117 7.06 35.36 12.81
3/18/2021 6:45:00 PM 4 39.2 0.117 7.01 37.48 12.8
3/18/2021 7:00:00 PM 3.99 39.182 0.117 7 33.07 12.79
3/18/2021 7:15:00 PM 3.98 39.164 0.118 7.02 31.21 12.79
3/18/2021 7:30:00 PM 3.97 39.146 0.119 6.99 61.95 12.78
3/18/2021 7:45:00 PM 3.95 39.11 0.119 6.98 43.36 12.78
3/18/2021 8:00:00 PM 3.94 39.092 0.118 6.98 37.14 12.78
3/18/2021 8:15:00 PM 3.92 39.056 0.117 6.98 40.79 12.78
3/18/2021 8:30:00 PM 3.89 39.002 0.118 6.96 40.38 12.78
3/18/2021 8:45:00 PM 3.87 38.966 0.118 6.96 55.42 12.79
3/18/2021 9:00:00 PM 3.85 38.93 0.118 6.97 45.25 12.8
3/18/2021 9:15:00 PM 3.82 38.876 0.117 6.96 46.92 12.81
3/18/2021 9:30:00 PM 3.79 38.822 0.116 6.96 47.11 12.81
3/18/2021 9:45:00 PM 3.77 38.786 0.116 6.95 50.2 12.82
3/18/2021 10:00:00 PM 3.74 38.732 0.115 6.95 41.34 12.83
3/18/2021 10:15:00 PM 3.72 38.696 0.114 6.94 56.35 12.83
3/18/2021 10:30:00 PM 3.69 38.642 0.116 6.94 46.54 12.85
3/18/2021 10:45:00 PM 3.66 38.588 0.116 6.96 54.5 12.85
3/18/2021 11:00:00 PM 3.64 38.552 0.117 6.95 56.69 12.86
3/18/2021 11:15:00 PM 3.61 38.498 0.117 6.95 53.64 12.87
3/18/2021 11:30:00 PM 3.59 38.462 0.117 6.95 56.9 12.88
3/18/2021 11:45:00 PM 3.56 38.408 0.115 6.95 49.71 12.89
3/19/2021 12:00:00 AM 3.54 38.372 0.115 6.95 51.89 12.89
3/19/2021 12:15:00 AM 3.52 38.336 0.114 6.94 43.08 12.91
3/19/2021 12:30:00 AM 3.5 38.3 0.113 6.94 47.61 12.92
3/19/2021 12:45:00 AM 3.47 38.246 0.112 6.94 51.35 12.93
3/19/2021 1:00:00 AM 3.44 38.192 0.111 6.94 46.88 12.94
3/19/2021 1:15:00 AM 3.4 38.12 0.111 6.91 41.61 12.96
3/19/2021 1:30:00 AM 3.36 38.048 0.111 6.93 58.9 12.97
3/19/2021 1:45:00 AM 3.32 37.976 0.112 6.93 57.58 12.99
3/19/2021 2:00:00 AM 3.29 37.922 0.112 6.93 43.01 13.01
3/19/2021 2:15:00 AM 3.25 37.85 0.113 6.94 41.66 13.02
3/19/2021 2:30:00 AM 3.21 37.778 0.114 6.94 44.84 13.04
3/19/2021 2:45:00 AM 3.17 37.706 0.114 6.94 44.35 13.05
3/19/2021 3:00:00 AM 3.12 37.616 0.115 6.92 47.65 13.07
3/19/2021 3:15:00 AM 3.07 37.526 0.114 6.92 61.34 13.09
3/19/2021 3:30:00 AM 3.02 37.436 0.116 6.92 53.54 13.1
3/19/2021 3:45:00 AM 2.97 37.346 0.116 6.92 59.05 13.12
3/19/2021 4:00:00 AM 2.93 37.274 0.115 6.9 39.38 13.14
3/19/2021 4:15:00 AM 2.88 37.184 0.114 6.89 36.84 13.15
3/19/2021 4:30:00 AM 2.83 37.094 0.114 6.9 46.76 13.17
3/19/2021 4:45:00 AM 2.79 37.022 0.113 6.87 55.5 13.19
3/19/2021 5:00:00 AM 2.74 36.932 0.113 6.91 45.1 13.21
3/19/2021 5:15:00 AM 2.7 36.86 0.111 6.9 50.85 13.22
3/19/2021 5:30:00 AM 2.65 36.77 0.111 6.9 39.36 13.24
3/19/2021 5:45:00 AM 2.61 36.698 0.111 6.9 45.96 13.25
3/19/2021 6:00:00 AM 2.56 36.608 0.11 6.92 45.46 13.27
3/19/2021 6:15:00 AM 2.51 36.518 0.11 6.89 51.85 13.29
3/19/2021 6:30:00 AM 2.46 36.428 0.109 6.92 42.5 13.31
3/19/2021 6:45:00 AM 2.41 36.338 0.109 6.92 43.68 13.33
3/19/2021 7:00:00 AM 2.36 36.248 0.109 6.91 43.19 13.35
3/19/2021 7:15:00 AM 2.3 36.14 0.108 6.9 42.44 13.38
3/19/2021 7:30:00 AM 2.25 36.05 0.108 6.88 43.69 13.4
3/19/2021 7:45:00 AM 2.21 35.978 0.108 6.9 43.71 13.43
3/19/2021 8:00:00 AM 2.17 35.906 0.108 6.88 43.63 13.44
3/19/2021 8:15:00 AM 2.15 35.87 0.108 6.9 36.85 13.46
3/19/2021 8:30:00 AM 2.11 35.798 0.108 6.9 46.42 13.49
3/19/2021 8:45:00 AM 2.08 35.744 0.108 6.89 39.08 13.5
3/19/2021 9:00:00 AM 2.06 35.708 0.108 6.9 53.82 13.52
3/19/2021 9:15:00 AM 2.04 35.672 0.108 6.88 57.62 13.54
3/19/2021 9:30:00 AM 2.04 35.672 0.107 6.91 57.4 13.56
3/19/2021 9:45:00 AM 2.04 35.672 0.108 6.91 39.61 13.57
3/19/2021 10:00:00 AM 2.05 35.69 0.108 6.92 40.12 13.59
3/19/2021 10:15:00 AM 2.06 35.708 0.107 6.94 46.97 13.6
3/19/2021 10:30:00 AM 2.1 35.78 0.107 6.94 37.14 13.61
3/19/2021 10:45:00 AM 2.15 35.87 0.106 6.9 32.78 13.61
3/19/2021 11:00:00 AM 2.2 35.96 0.106 6.94 37.28 13.62
3/19/2021 11:15:00 AM 2.26 36.068 0.106 6.97 36.06 13.61
3/19/2021 11:30:00 AM 2.34 36.212 0.104 6.97 40.26 13.62
3/19/2021 11:45:00 AM 2.43 36.374 0.104 6.98 28.72 13.6
3/19/2021 12:00:00 PM 2.52 36.536 0.104 6.98 28.88 13.6
3/19/2021 12:15:00 PM 2.61 36.698 0.104 6.98 34.86 13.58
3/19/2021 12:30:00 PM 2.72 36.896 0.104 7.01 25.1 13.57
3/19/2021 12:45:00 PM 2.83 37.094 0.104 6.98 32.02 13.55
3/19/2021 1:00:00 PM 2.96 37.328 0.103 7.01 32.12 13.53
3/19/2021 1:15:00 PM 3.08 37.544 0.104 7.01 30.69 13.51
3/19/2021 1:30:00 PM 3.2 37.76 0.103 7.04 28.05 13.49
3/19/2021 1:45:00 PM 3.31 37.958 0.103 7.04 34.2 13.46
3/19/2021 2:00:00 PM 3.43 38.174 0.103 7.05 25.44 13.43
3/19/2021 2:15:00 PM 3.55 38.39 0.103 7.06 30.33 13.41
3/19/2021 2:30:00 PM 3.65 38.57 0.103 7.05 28.67 13.38
3/19/2021 2:45:00 PM 3.75 38.75 0.103 7.05 23.4 13.35
3/19/2021 3:00:00 PM 3.83 38.894 0.103 7.07 25.04 13.33
3/19/2021 3:15:00 PM 3.9 39.02 0.103 7.08 21.61 13.31
3/19/2021 3:30:00 PM 3.95 39.11 0.103 7.09 23.44 13.28
3/19/2021 3:45:00 PM 4.01 39.218 0.103 7.08 23.4 13.26
3/19/2021 4:00:00 PM 4.04 39.272 0.103 7.09 24.04 13.24
3/19/2021 4:15:00 PM 4.07 39.326 0.103 7.09 22.84 13.22
3/19/2021 4:30:00 PM 4.07 39.326 0.102 7.09 23.04 13.21
3/19/2021 4:45:00 PM 4.07 39.326 0.102 7.09 18.48 13.2
3/19/2021 5:00:00 PM 4.06 39.308 0.103 7.08 20.8 13.19
3/19/2021 5:15:00 PM 4.03 39.254 0.103 7.08 23.51 13.18
3/19/2021 5:30:00 PM 3.99 39.182 0.104 7.09 22.27 13.17
3/19/2021 5:45:00 PM 3.96 39.128 0.104 7.08 22.25 13.16
3/19/2021 6:00:00 PM 3.92 39.056 0.104 7.05 18.56 13.16
3/19/2021 6:15:00 PM 3.87 38.966 0.103 7.05 18.73 13.16
3/19/2021 6:30:00 PM 3.81 38.858 0.103 7.04 19.61 13.16
3/19/2021 6:45:00 PM 3.74 38.732 0.103 7.03 17.65 13.16
3/19/2021 7:00:00 PM 3.68 38.624 0.103 7.03 17.37 13.17
3/19/2021 7:15:00 PM 3.61 38.498 0.104 7.02 18.82 13.18
3/19/2021 7:30:00 PM 3.53 38.354 0.103 7.01 17.39 13.19
3/19/2021 7:45:00 PM 3.45 38.21 0.103 7 16.5 13.21
3/19/2021 8:00:00 PM 3.36 38.048 0.104 7.01 16.3 13.23
3/19/2021 8:15:00 PM 3.26 37.868 0.104 7 17.14 13.25
3/19/2021 8:30:00 PM 3.17 37.706 0.104 7.01 16.59 13.28
3/19/2021 8:45:00 PM 3.07 37.526 0.104 7.02 16.1 13.31
3/19/2021 9:00:00 PM 2.99 37.382 0.104 7.01 16.1 13.33
3/19/2021 9:15:00 PM 2.9 37.22 0.104 7 16.33 13.35
3/19/2021 9:30:00 PM 2.82 37.076 0.104 7.01 15.89 13.37
3/19/2021 9:45:00 PM 2.76 36.968 0.104 6.99 12.77 13.4
3/19/2021 10:00:00 PM 2.69 36.842 0.105 7 15.64 13.41
3/19/2021 10:15:00 PM 2.64 36.752 0.105 7.01 14.78 13.43
3/19/2021 10:30:00 PM 2.58 36.644 0.104 7 14.98 13.44
3/19/2021 10:45:00 PM 2.53 36.554 0.105 7 15.01 13.46
3/19/2021 11:00:00 PM 2.48 36.464 0.105 7 14.74 13.47
3/19/2021 11:15:00 PM 2.44 36.392 0.105 7.01 14.38 13.49
3/19/2021 11:30:00 PM 2.39 36.302 0.105 7.01 14.14 13.5
3/19/2021 11:45:00 PM 2.35 36.23 0.105 7.02 13.45 13.52
3/20/2021 12:00:00 AM 2.3 36.14 0.105 7.01 13.64 13.54
3/20/2021 12:15:00 AM 2.26 36.068 0.106 7.03 13.44 13.55
3/20/2021 12:30:00 AM 2.22 35.996 0.105 7.02 13.05 13.57
3/20/2021 12:45:00 AM 2.17 35.906 0.105 7 13.44 13.58
3/20/2021 1:00:00 AM 2.13 35.834 0.106 7 12.96 13.6
3/20/2021 1:15:00 AM 2.09 35.762 0.106 7.01 12.34 13.61
3/20/2021 1:30:00 AM 2.05 35.69 0.106 7.01 12.73 13.63
3/20/2021 1:45:00 AM 2.02 35.636 0.106 7.02 12.07 13.64
3/20/2021 2:00:00 AM 1.98 35.564 0.106 7.02 12.66 13.66
3/20/2021 2:15:00 AM 1.95 35.51 0.106 7.04 12.7 13.67
3/20/2021 2:30:00 AM 1.92 35.456 0.106 7.04 11.91 13.68
3/20/2021 2:45:00 AM 1.9 35.42 0.106 7.04 11.8 13.69
3/20/2021 3:00:00 AM 1.87 35.366 0.106 7.05 12.18 13.7
3/20/2021 3:15:00 AM 1.85 35.33 0.106 7.04 11.91 13.71
3/20/2021 3:30:00 AM 1.82 35.276 0.106 7.05 11.69 13.72
3/20/2021 3:45:00 AM 1.8 35.24 0.106 7.04 10.96 13.73
3/20/2021 4:00:00 AM 1.78 35.204 0.106 7.05 10.8 13.73
3/20/2021 4:15:00 AM 1.75 35.15 0.106 7.05 11.46 13.75
3/20/2021 4:30:00 AM 1.73 35.114 0.106 7.06 11.25 13.75
3/20/2021 4:45:00 AM 1.7 35.06 0.105 7.05 10.95 13.76
3/20/2021 5:00:00 AM 1.68 35.024 0.106 7.04 10.77 13.77
3/20/2021 5:15:00 AM 1.65 34.97 0.106 7.05 10.44 13.78
3/20/2021 5:30:00 AM 1.63 34.934 0.106 7.06 11.05 13.79
3/20/2021 5:45:00 AM 1.6 34.88 0.106 7.04 10.83 13.8
3/20/2021 6:00:00 AM 1.57 34.826 0.106 7.06 10.15 13.81
3/20/2021 6:15:00 AM 1.54 34.772 0.106 7.06 10.31 13.82
3/20/2021 6:30:00 AM 1.52 34.736 0.106 7.06 10.19 13.84
3/20/2021 6:45:00 AM 1.49 34.682 0.107 7.06 10 13.85
3/20/2021 7:00:00 AM 1.46 34.628 0.107 7.05 10 13.86
3/20/2021 7:15:00 AM 1.43 34.574 0.107 7.05 9.72 13.88
3/20/2021 7:30:00 AM 1.41 34.538 0.107 7.05 9.72 13.89
3/20/2021 7:45:00 AM 1.39 34.502 0.107 7.06 9.43 13.92
3/20/2021 8:00:00 AM 1.37 34.466 0.107 7.07 9.81 13.95
3/20/2021 8:15:00 AM 1.36 34.448 0.107 7.07 9.1 13.97
3/20/2021 8:30:00 AM 1.36 34.448 0.107 7.06 9.19 13.99
3/20/2021 8:45:00 AM 1.37 34.466 0.107 7.09 9.03 14.02
3/20/2021 9:00:00 AM 1.39 34.502 0.107 7.1 8.96 14.04
3/20/2021 9:15:00 AM 1.43 34.574 0.107 7.12 8.59 14.06
3/20/2021 9:30:00 AM 1.49 34.682 0.107 7.13 8.71 14.07
3/20/2021 9:45:00 AM 1.55 34.79 0.107 7.14 9.75 14.08
3/20/2021 10:00:00 AM 1.63 34.934 0.107 7.14 8.33 14.07
3/20/2021 10:15:00 AM 1.71 35.078 0.106 7.15 8.96 14.07
3/20/2021 10:30:00 AM 1.81 35.258 0.106 7.17 8.5 14.06
3/20/2021 10:45:00 AM 1.92 35.456 0.106 7.18 8.08 14.05
3/20/2021 11:00:00 AM 2.04 35.672 0.106 7.18 8.63 14.04
3/20/2021 11:15:00 AM 2.18 35.924 0.106 7.19 8.33 14.01
3/20/2021 11:30:00 AM 2.33 36.194 0.106 7.21 8.39 13.97
3/20/2021 11:45:00 AM 2.5 36.5 0.106 7.22 8.35 13.94
3/20/2021 12:00:00 PM 2.68 36.824 0.106 7.23 8.16 13.9
3/20/2021 12:15:00 PM 2.85 37.13 0.106 7.22 7.92 13.85
3/20/2021 12:30:00 PM 3.04 37.472 0.106 7.24 7.72 13.8
3/20/2021 12:45:00 PM 3.24 37.832 0.106 7.25 7.82 13.75
3/20/2021 1:00:00 PM 3.42 38.156 0.106 7.24 7.88 13.7
3/20/2021 1:15:00 PM 3.61 38.498 0.106 7.26 7.83 13.64
3/20/2021 1:30:00 PM 3.79 38.822 0.106 7.26 7.77 13.59
3/20/2021 1:45:00 PM 3.98 39.164 0.106 7.26 8.09 13.54
3/20/2021 2:00:00 PM 4.16 39.488 0.106 7.27 7.37 13.48
3/20/2021 2:15:00 PM 4.32 39.776 0.106 7.27 7.54 13.43
3/20/2021 2:30:00 PM 4.48 40.064 0.106 7.28 7.53 13.37
3/20/2021 2:45:00 PM 4.63 40.334 0.106 7.28 7.49 13.31
3/20/2021 3:00:00 PM 4.77 40.586 0.106 7.28 7.3 13.27
3/20/2021 3:15:00 PM 4.89 40.802 0.106 7.28 7.43 13.21
3/20/2021 3:30:00 PM 5.01 41.018 0.106 7.28 7.35 13.17
3/20/2021 3:45:00 PM 5.12 41.216 0.106 7.27 7.79 13.12
3/20/2021 4:00:00 PM 5.21 41.378 0.106 7.28 7.42 13.08
3/20/2021 4:15:00 PM 5.28 41.504 0.106 7.28 7.06 13.04
3/20/2021 4:30:00 PM 5.35 41.63 0.106 7.28 7.47 13
3/20/2021 4:45:00 PM 5.4 41.72 0.106 7.27 6.88 12.96
3/20/2021 5:00:00 PM 5.44 41.792 0.106 7.27 7.05 12.92
3/20/2021 5:15:00 PM 5.47 41.846 0.106 7.26 7.75 12.89
3/20/2021 5:30:00 PM 5.48 41.864 0.106 7.25 6.94 12.86
3/20/2021 5:45:00 PM 5.49 41.882 0.106 7.23 7.64 12.83
3/20/2021 6:00:00 PM 5.48 41.864 0.106 7.22 6.8 12.8
3/20/2021 6:15:00 PM 5.48 41.864 0.106 7.21 7.38 12.77
3/20/2021 6:30:00 PM 5.46 41.828 0.106 7.2 7.29 12.75
3/20/2021 6:45:00 PM 5.44 41.792 0.106 7.18 7.42 12.72
3/20/2021 7:00:00 PM 5.41 41.738 0.106 7.17 7.27 12.7
3/20/2021 7:15:00 PM 5.37 41.666 0.106 7.16 7.33 12.69
3/20/2021 7:30:00 PM 5.32 41.576 0.106 7.14 7.33 12.67
3/20/2021 7:45:00 PM 5.26 41.468 0.106 7.14 7.17 12.67
3/20/2021 8:00:00 PM 5.19 41.342 0.106 7.13 7.51 12.68
3/20/2021 8:15:00 PM 5.1 41.18 0.106 7.12 7.17 12.69
3/20/2021 8:30:00 PM 5 41 0.107 7.11 7.79 12.71
3/20/2021 8:45:00 PM 4.89 40.802 0.106 7.1 7.39 12.73
3/20/2021 9:00:00 PM 4.77 40.586 0.107 7.09 7.46 12.76
3/20/2021 9:15:00 PM 4.65 40.37 0.107 7.07 7.47 12.78
3/20/2021 9:30:00 PM 4.53 40.154 0.107 7.07 7.23 12.82
3/20/2021 9:45:00 PM 4.41 39.938 0.107 7.06 7.11 12.85
3/20/2021 10:00:00 PM 4.29 39.722 0.107 7.07 7.64 12.89
3/20/2021 10:15:00 PM 4.17 39.506 0.107 7.07 7.31 12.91
3/20/2021 10:30:00 PM 4.06 39.308 0.106 7.06 7.34 12.95
3/20/2021 10:45:00 PM 3.96 39.128 0.107 7.06 7.06 12.98
3/20/2021 11:00:00 PM 3.86 38.948 0.107 7.04 7.05 13.01
3/20/2021 11:15:00 PM 3.76 38.768 0.107 7.05 8.66 13.04
3/20/2021 11:30:00 PM 3.67 38.606 0.107 7.05 7.17 13.07
3/20/2021 11:45:00 PM 3.59 38.462 0.107 7.05 6.6 13.09
3/21/2021 12:00:00 AM 3.51 38.318 0.107 7.02 7.08 13.12
3/21/2021 12:15:00 AM 3.43 38.174 0.107 7.04 7.31 13.14
3/21/2021 12:30:00 AM 3.35 38.03 0.107 7.04 6.79 13.17
3/21/2021 12:45:00 AM 3.28 37.904 0.107 7.05 6.42 13.19
3/21/2021 1:00:00 AM 3.21 37.778 0.107 7.05 7.41 13.21
3/21/2021 1:15:00 AM 3.14 37.652 0.107 7.05 6.76 13.24
3/21/2021 1:30:00 AM 3.07 37.526 0.107 7.06 6.51 13.26
3/21/2021 1:45:00 AM 3.01 37.418 0.107 7.06 6.58 13.28
3/21/2021 2:00:00 AM 2.94 37.292 0.107 7.07 6.39 13.31
3/21/2021 2:15:00 AM 2.88 37.184 0.107 7.04 7.09 13.33
3/21/2021 2:30:00 AM 2.82 37.076 0.107 7.06 6.57 13.35
3/21/2021 2:45:00 AM 2.76 36.968 0.107 7.07 7.36 13.37
3/21/2021 3:00:00 AM 2.7 36.86 0.107 7.07 6.52 13.39
3/21/2021 3:15:00 AM 2.64 36.752 0.107 7.08 6.55 13.41
3/21/2021 3:30:00 AM 2.59 36.662 0.107 7.08 6.79 13.43
3/21/2021 3:45:00 AM 2.54 36.572 0.107 7.08 6.72 13.45
3/21/2021 4:00:00 AM 2.49 36.482 0.108 7.08 6.62 13.46
3/21/2021 4:15:00 AM 2.44 36.392 0.108 7.08 6.5 13.49
3/21/2021 4:30:00 AM 2.4 36.32 0.108 7.08 6.13 13.5
3/21/2021 4:45:00 AM 2.36 36.248 0.108 7.07 6.16 13.52
3/21/2021 5:00:00 AM 2.32 36.176 0.107 7.07 6.24 13.52
3/21/2021 5:15:00 AM 2.28 36.104 0.108 7.08 6.68 13.55
3/21/2021 5:30:00 AM 2.25 36.05 0.108 7.07 6.38 13.55
3/21/2021 5:45:00 AM 2.22 35.996 0.108 7.08 6.24 13.57
3/21/2021 6:00:00 AM 2.18 35.924 0.108 7.07 6.44 13.58
3/21/2021 6:15:00 AM 2.15 35.87 0.108 7.07 6.4 13.59
3/21/2021 6:30:00 AM 2.12 35.816 0.108 7.08 6.62 13.6
3/21/2021 6:45:00 AM 2.09 35.762 0.108 7.08 6.23 13.62
3/21/2021 7:00:00 AM 2.06 35.708 0.108 7.09 6.56 13.63
3/21/2021 7:15:00 AM 2.03 35.654 0.108 7.07 6.26 13.65
3/21/2021 7:30:00 AM 2 35.6 0.108 7.09 6.43 13.67
3/21/2021 7:45:00 AM 1.98 35.564 0.108 7.09 6.52 13.7
3/21/2021 8:00:00 AM 1.96 35.528 0.108 7.1 6.42 13.73
3/21/2021 8:15:00 AM 1.95 35.51 0.108 7.1 6.23 13.77
3/21/2021 8:30:00 AM 1.95 35.51 0.107 7.12 6.25 13.79
3/21/2021 8:45:00 AM 1.96 35.528 0.107 7.13 6.02 13.82
3/21/2021 9:00:00 AM 1.99 35.582 0.108 7.14 5.95 13.85
3/21/2021 9:15:00 AM 2.05 35.69 0.108 7.14 5.84 13.86
3/21/2021 9:30:00 AM 2.12 35.816 0.107 7.16 5.98 13.87
3/21/2021 9:45:00 AM 2.21 35.978 0.107 7.18 5.88 13.87
3/21/2021 10:00:00 AM 2.31 36.158 0.107 7.2 5.89 13.87
3/21/2021 10:15:00 AM 2.42 36.356 0.107 7.21 5.8 13.86
3/21/2021 10:30:00 AM 2.54 36.572 0.107 7.22 5.76 13.84
3/21/2021 10:45:00 AM 2.68 36.824 0.107 7.23 5.85 13.82
3/21/2021 11:00:00 AM 2.83 37.094 0.107 7.24 5.8 13.79
3/21/2021 11:15:00 AM 3 37.4 0.107 7.25 5.86 13.76
3/21/2021 11:30:00 AM 3.19 37.742 0.107 7.26 5.53 13.72
3/21/2021 11:45:00 AM 3.39 38.102 0.107 7.26 5.65 13.67
3/21/2021 12:00:00 PM 3.59 38.462 0.107 7.28 5.55 13.62
3/21/2021 12:15:00 PM 3.81 38.858 0.106 7.29 5.46 13.56
3/21/2021 12:30:00 PM 4.02 39.236 0.107 7.29 5.51 13.51
3/21/2021 12:45:00 PM 4.23 39.614 0.107 7.3 5.45 13.44
3/21/2021 1:00:00 PM 4.45 40.01 0.107 7.3 5.33 13.38
3/21/2021 1:15:00 PM 4.66 40.388 0.106 7.32 5.48 13.32
3/21/2021 1:30:00 PM 4.87 40.766 0.107 7.32 5.34 13.25
3/21/2021 1:45:00 PM 5.07 41.126 0.107 7.31 5.54 13.2
3/21/2021 2:00:00 PM 5.27 41.486 0.107 7.32 5.2 13.13
3/21/2021 2:15:00 PM 5.45 41.81 0.106 7.33 5.28 13.07
3/21/2021 2:30:00 PM 5.63 42.134 0.106 7.33 5.39 13.01
3/21/2021 2:45:00 PM 5.78 42.404 0.106 7.34 5.2 12.96
3/21/2021 3:00:00 PM 5.93 42.674 0.107 7.33 5.75 12.9
3/21/2021 3:15:00 PM 6.07 42.926 0.106 7.33 5.41 12.85
3/21/2021 3:30:00 PM 6.18 43.124 0.107 7.33 5.54 12.81
3/21/2021 3:45:00 PM 6.29 43.322 0.106 7.34 5.32 12.75
3/21/2021 4:00:00 PM 6.39 43.502 0.106 7.34 5.23 12.7
3/21/2021 4:15:00 PM 6.47 43.646 0.106 7.33 5.01 12.66
3/21/2021 4:30:00 PM 6.55 43.79 0.106 7.32 5.23 12.62
3/21/2021 4:45:00 PM 6.61 43.898 0.106 7.32 5.27 12.58
3/21/2021 5:00:00 PM 6.66 43.988 0.106 7.31 5.76 12.54
3/21/2021 5:15:00 PM 6.7 44.06 0.106 7.31 5.45 12.49
3/21/2021 5:30:00 PM 6.74 44.132 0.106 7.31 5.26 12.45
3/21/2021 5:45:00 PM 6.76 44.168 0.106 7.29 5.25 12.42
3/21/2021 6:00:00 PM 6.78 44.204 0.106 7.29 5.38 12.38
3/21/2021 6:15:00 PM 6.79 44.222 0.106 7.28 5.71 12.34
3/21/2021 6:30:00 PM 6.79 44.222 0.106 7.26 5.34 12.3
3/21/2021 6:45:00 PM 6.79 44.222 0.106 7.24 6.3 12.26
3/21/2021 7:00:00 PM 6.78 44.204 0.107 7.22 6.57 12.23
3/21/2021 7:15:00 PM 6.77 44.186 0.106 7.2 6.06 12.2
3/21/2021 7:30:00 PM 6.74 44.132 0.106 7.18 5.94 12.18
3/21/2021 7:45:00 PM 6.7 44.06 0.107 7.16 5.66 12.16
3/21/2021 8:00:00 PM 6.65 43.97 0.107 7.15 5.76 12.16
3/21/2021 8:15:00 PM 6.59 43.862 0.107 7.13 5.68 12.16
3/21/2021 8:30:00 PM 6.51 43.718 0.107 7.09 6.02 12.16
3/21/2021 8:45:00 PM 6.41 43.538 0.107 7.09 6.17 12.18
3/21/2021 9:00:00 PM 6.31 43.358 0.107 7.08 5.95 12.2
3/21/2021 9:15:00 PM 6.2 43.16 0.106 7.09 5.5 12.22
3/21/2021 9:30:00 PM 6.09 42.962 0.107 7.08 5.52 12.24
3/21/2021 9:45:00 PM 5.97 42.746 0.107 7.08 5.81 12.27
3/21/2021 10:00:00 PM 5.85 42.53 0.107 7.06 5.82 12.32
3/21/2021 10:15:00 PM 5.73 42.314 0.107 7.06 5.74 12.34
3/21/2021 10:30:00 PM 5.6 42.08 0.107 7.06 5.79 12.38
3/21/2021 10:45:00 PM 5.48 41.864 0.107 7.05 5.63 12.41
3/21/2021 11:00:00 PM 5.37 41.666 0.107 7.05 5.62 12.45
3/21/2021 11:15:00 PM 5.25 41.45 0.107 7.05 5.78 12.48
3/21/2021 11:30:00 PM 5.15 41.27 0.108 7.05 5.97 12.51
3/21/2021 11:45:00 PM 5.04 41.072 0.108 7.04 5.74 12.54
3/22/2021 12:00:00 AM 4.94 40.892 0.108 7.05 5.37 12.57
3/22/2021 12:15:00 AM 4.84 40.712 0.108 7.03 5.7 12.59
3/22/2021 12:30:00 AM 4.75 40.55 0.108 7.05 5.52 12.63
3/22/2021 12:45:00 AM 4.66 40.388 0.108 7.03 5.82 12.66
3/22/2021 1:00:00 AM 4.57 40.226 0.108 7.05 5.86 12.68
3/22/2021 1:15:00 AM 4.49 40.082 0.108 7.05 5.97 12.71
3/22/2021 1:30:00 AM 4.4 39.92 0.108 7.05 6.17 12.74
3/22/2021 1:45:00 AM 4.32 39.776 0.108 7.06 5.47 12.76
3/22/2021 2:00:00 AM 4.25 39.65 0.108 7.06 5.92 12.79
3/22/2021 2:15:00 AM 4.17 39.506 0.108 7.06 5.8 12.8
3/22/2021 2:30:00 AM 4.09 39.362 0.108 7.06 5.63 12.84
3/22/2021 2:45:00 AM 4.02 39.236 0.108 7.06 5.87 12.86
3/22/2021 3:00:00 AM 3.94 39.092 0.108 7.07 5.54 12.88
3/22/2021 3:15:00 AM 3.87 38.966 0.109 7.07 5.59 12.91
3/22/2021 3:30:00 AM 3.8 38.84 0.108 7.07 5.62 12.93
3/22/2021 3:45:00 AM 3.72 38.696 0.109 7.06 5.65 12.96
3/22/2021 4:00:00 AM 3.65 38.57 0.109 7.07 6.03 12.98
3/22/2021 4:15:00 AM 3.59 38.462 0.109 7.07 5.29 13
3/22/2021 4:30:00 AM 3.52 38.336 0.109 7.07 5.87 13.03
3/22/2021 4:45:00 AM 3.46 38.228 0.109 7.07 5.55 13.05
3/22/2021 5:00:00 AM 3.4 38.12 0.109 7.06 5.66 13.08
3/22/2021 5:15:00 AM 3.34 38.012 0.109 7.07 5.47 13.1
3/22/2021 5:30:00 AM 3.28 37.904 0.109 7.05 5.98 13.11
3/22/2021 5:45:00 AM 3.23 37.814 0.109 7.08 5.47 13.13
3/22/2021 6:00:00 AM 3.18 37.724 0.109 7.08 5.88 13.15
3/22/2021 6:15:00 AM 3.13 37.634 0.109 7.08 5.59 13.17
3/22/2021 6:30:00 AM 3.08 37.544 0.109 7.08 5.48 13.19
3/22/2021 6:45:00 AM 3.04 37.472 0.109 7.08 5.14 13.2
3/22/2021 7:00:00 AM 3 37.4 0.109 7.09 5.42 13.21
3/22/2021 7:15:00 AM 2.96 37.328 0.109 7.09 5.56 13.25
3/22/2021 7:30:00 AM 2.92 37.256 0.109 7.1 5.46 13.28
3/22/2021 7:45:00 AM 2.89 37.202 0.109 7.1 5.39 13.32
3/22/2021 8:00:00 AM 2.87 37.166 0.109 7.11 5.39 13.35
3/22/2021 8:15:00 AM 2.86 37.148 0.109 7.13 5.62 13.39
3/22/2021 8:30:00 AM 2.87 37.166 0.109 7.14 5.37 13.42
3/22/2021 8:45:00 AM 2.88 37.184 0.109 7.16 5.42 13.45
3/22/2021 9:00:00 AM 2.91 37.238 0.109 7.16 5.17 13.47
3/22/2021 9:15:00 AM 2.96 37.328 0.109 7.18 5.33 13.49
3/22/2021 9:30:00 AM 3.04 37.472 0.109 7.2 5.25 13.5
3/22/2021 9:45:00 AM 3.14 37.652 0.109 7.21 5.33 13.51
3/22/2021 10:00:00 AM 3.25 37.85 0.109 7.23 5.17 13.51
3/22/2021 10:15:00 AM 3.37 38.066 0.109 7.25 5.23 13.5
3/22/2021 10:30:00 AM 3.5 38.3 0.109 7.26 5.25 13.48
3/22/2021 10:45:00 AM 3.65 38.57 0.109 7.27 5.61 13.46
3/22/2021 11:00:00 AM 3.81 38.858 0.109 7.28 5.23 13.43
3/22/2021 11:15:00 AM 3.99 39.182 0.109 7.3 4.96 13.4
3/22/2021 11:30:00 AM 4.19 39.542 0.108 7.32 5.33 13.35
3/22/2021 11:45:00 AM 4.4 39.92 0.108 7.32 5.15 13.31
3/22/2021 12:00:00 PM 4.63 40.334 0.108 7.33 4.96 13.25
3/22/2021 12:15:00 PM 4.85 40.73 0.108 7.34 5.14 13.19
3/22/2021 12:30:00 PM 5.08 41.144 0.108 7.35 4.96 13.14
3/22/2021 12:45:00 PM 5.3 41.54 0.108 7.36 5.01 13.06
3/22/2021 1:00:00 PM 5.53 41.954 0.108 7.36 4.67 13
3/22/2021 1:15:00 PM 5.75 42.35 0.108 7.37 4.88 12.94
3/22/2021 1:30:00 PM 5.97 42.746 0.108 7.38 4.62 12.87
3/22/2021 1:45:00 PM 6.2 43.16 0.108 7.39 4.79 12.81
3/22/2021 2:00:00 PM 6.4 43.52 0.108 7.4 4.75 12.74
3/22/2021 2:15:00 PM 6.6 43.88 0.108 7.4 4.74 12.68
3/22/2021 2:30:00 PM 6.78 44.204 0.108 7.4 4.35 12.62
3/22/2021 2:45:00 PM 6.94 44.492 0.108 7.41 5.01 12.56
3/22/2021 3:00:00 PM 7.09 44.762 0.107 7.4 4.86 12.51
3/22/2021 3:15:00 PM 7.22 44.996 0.107 7.4 4.76 12.46
3/22/2021 3:30:00 PM 7.33 45.194 0.108 7.4 4.65 12.41
3/22/2021 3:45:00 PM 7.43 45.374 0.107 7.4 4.64 12.37
3/22/2021 4:00:00 PM 7.51 45.518 0.107 7.4 4.66 12.32
3/22/2021 4:15:00 PM 7.58 45.644 0.107 7.39 4.64 12.29
3/22/2021 4:30:00 PM 7.64 45.752 0.107 7.39 4.82 12.25
3/22/2021 4:45:00 PM 7.69 45.842 0.107 7.39 4.88 12.21
3/22/2021 5:00:00 PM 7.74 45.932 0.107 7.38 4.73 12.17
3/22/2021 5:15:00 PM 7.77 45.986 0.107 7.37 4.67 12.13
3/22/2021 5:30:00 PM 7.8 46.04 0.107 7.36 4.79 12.09
3/22/2021 5:45:00 PM 7.82 46.076 0.107 7.35 5 12.05
3/22/2021 6:00:00 PM 7.84 46.112 0.107 7.34 4.72 12.01
3/22/2021 6:15:00 PM 7.86 46.148 0.107 7.33 4.83 11.97
3/22/2021 6:30:00 PM 7.87 46.166 0.107 7.31 4.71 11.92
3/22/2021 6:45:00 PM 7.87 46.166 0.107 7.28 4.96 11.87
3/22/2021 7:00:00 PM 7.88 46.184 0.107 7.26 4.8 11.83
3/22/2021 7:15:00 PM 7.88 46.184 0.108 7.24 4.74 11.79
3/22/2021 7:30:00 PM 7.87 46.166 0.107 7.21 5.13 11.75
3/22/2021 7:45:00 PM 7.84 46.112 0.107 7.19 6.04 11.73
3/22/2021 8:00:00 PM 7.8 46.04 0.108 7.17 5.48 11.71
3/22/2021 8:15:00 PM 7.75 45.95 0.108 7.14 5.12 11.71
3/22/2021 8:30:00 PM 7.69 45.842 0.108 7.15 5.21 11.71
3/22/2021 8:45:00 PM 7.62 45.716 0.108 7.15 5.38 11.72
3/22/2021 9:00:00 PM 7.53 45.554 0.108 7.15 5.27 11.74
3/22/2021 9:15:00 PM 7.43 45.374 0.108 7.14 5.23 11.76
3/22/2021 9:30:00 PM 7.33 45.194 0.108 7.13 5.46 11.77
3/22/2021 9:45:00 PM 7.22 44.996 0.108 7.13 4.99 11.79
3/22/2021 10:00:00 PM 7.11 44.798 0.108 7.11 5.33 11.82
3/22/2021 10:15:00 PM 7 44.6 0.108 7.1 5.26 11.85
3/22/2021 10:30:00 PM 6.88 44.384 0.108 7.1 5.34 11.88
3/22/2021 10:45:00 PM 6.76 44.168 0.109 7.1 5.25 11.91
3/22/2021 11:00:00 PM 6.65 43.97 0.109 7.09 5.42 11.95
3/22/2021 11:15:00 PM 6.53 43.754 0.109 7.09 5.29 11.98
3/22/2021 11:30:00 PM 6.41 43.538 0.109 7.07 5.32 12.01
3/22/2021 11:45:00 PM 6.29 43.322 0.109 7.07 5.23 12.04
3/23/2021 12:00:00 AM 6.18 43.124 0.109 7.06 4.98 12.08
3/23/2021 12:15:00 AM 6.07 42.926 0.11 7.08 5.12 12.12
3/23/2021 12:30:00 AM 5.96 42.728 0.11 7.08 5.22 12.15
3/23/2021 12:45:00 AM 5.85 42.53 0.11 7.07 5.04 12.18
3/23/2021 1:00:00 AM 5.75 42.35 0.11 7.07 5.12 12.21
3/23/2021 1:15:00 AM 5.65 42.17 0.11 7.08 4.92 12.24
3/23/2021 1:30:00 AM 5.55 41.99 0.11 7.08 5.08 12.27
3/23/2021 1:45:00 AM 5.46 41.828 0.109 7.07 5.33 12.3
3/23/2021 2:00:00 AM 5.36 41.648 0.109 7.08 5.07 12.33
3/23/2021 2:15:00 AM 5.27 41.486 0.11 7.07 5.01 12.36
3/23/2021 2:30:00 AM 5.19 41.342 0.11 7.07 5.05 12.38
3/23/2021 2:45:00 AM 5.1 41.18 0.11 7.07 5.04 12.4
3/23/2021 3:00:00 AM 5.02 41.036 0.11 7.05 5.15 12.43
3/23/2021 3:15:00 AM 4.95 40.91 0.11 7.08 4.93 12.46
3/23/2021 3:30:00 AM 4.87 40.766 0.11 7.07 5.27 12.49
3/23/2021 3:45:00 AM 4.79 40.622 0.11 7.07 4.98 12.51
3/23/2021 4:00:00 AM 4.71 40.478 0.11 7.07 5.16 12.54
3/23/2021 4:15:00 AM 4.63 40.334 0.11 7.06 5.9 12.57
3/23/2021 4:30:00 AM 4.56 40.208 0.11 7.07 4.86 12.59
3/23/2021 4:45:00 AM 4.49 40.082 0.11 7.07 5.24 12.62
3/23/2021 5:00:00 AM 4.41 39.938 0.11 7.08 5.39 12.64
3/23/2021 5:15:00 AM 4.34 39.812 0.11 7.07 5.23 12.67
3/23/2021 5:30:00 AM 4.27 39.686 0.11 7.09 5.4 12.69
3/23/2021 5:45:00 AM 4.2 39.56 0.11 7.08 5.31 12.72
3/23/2021 6:00:00 AM 4.13 39.434 0.11 7.07 5.04 12.74
3/23/2021 6:15:00 AM 4.07 39.326 0.11 7.07 5.24 12.76
3/23/2021 6:30:00 AM 4 39.2 0.11 7.07 5.33 12.78
3/23/2021 6:45:00 AM 3.94 39.092 0.11 7.07 5.27 12.81
3/23/2021 7:00:00 AM 3.88 38.984 0.11 7.08 5.4 12.83
3/23/2021 7:15:00 AM 3.83 38.894 0.11 7.08 5.23 12.86
3/23/2021 7:30:00 AM 3.78 38.804 0.11 7.08 5.42 12.91
3/23/2021 7:45:00 AM 3.74 38.732 0.11 7.09 5.31 12.96
3/23/2021 8:00:00 AM 3.7 38.66 0.11 7.11 5.38 13
3/23/2021 8:15:00 AM 3.68 38.624 0.11 7.12 5.13 13.06
3/23/2021 8:30:00 AM 3.68 38.624 0.11 7.14 5.07 13.1
3/23/2021 8:45:00 AM 3.68 38.624 0.11 7.16 5.16 13.14
3/23/2021 9:00:00 AM 3.71 38.678 0.11 7.17 5.31 13.17
3/23/2021 9:15:00 AM 3.76 38.768 0.11 7.19 5.01 13.2
3/23/2021 9:30:00 AM 3.83 38.894 0.11 7.22 5.26 13.22
3/23/2021 9:45:00 AM 3.93 39.074 0.11 7.23 5.12 13.23
3/23/2021 10:00:00 AM 4.05 39.29 0.11 7.25 4.99 13.23
3/23/2021 10:15:00 AM 4.18 39.524 0.11 7.28 4.93 13.23
3/23/2021 10:30:00 AM 4.32 39.776 0.11 7.3 4.98 13.22
3/23/2021 10:45:00 AM 4.46 40.028 0.109 7.3 4.78 13.2
3/23/2021 11:00:00 AM 4.63 40.334 0.109 7.32 5.01 13.17
3/23/2021 11:15:00 AM 4.82 40.676 0.109 7.34 4.75 13.14
3/23/2021 11:30:00 AM 5.03 41.054 0.109 7.35 4.88 13.11
3/23/2021 11:45:00 AM 5.24 41.432 0.109 7.37 4.95 13.06
3/23/2021 12:00:00 PM 5.48 41.864 0.109 7.38 4.94 13
3/23/2021 12:15:00 PM 5.73 42.314 0.109 7.41 4.72 12.94
3/23/2021 12:30:00 PM 5.95 42.71 0.109 7.42 4.91 12.89
3/23/2021 12:45:00 PM 6.18 43.124 0.109 7.42 5.02 12.82
3/23/2021 1:00:00 PM 6.44 43.592 0.108 7.44 4.81 12.76
3/23/2021 1:15:00 PM 6.68 44.024 0.109 7.45 4.66 12.69
3/23/2021 1:30:00 PM 6.92 44.456 0.108 7.46 4.72 12.63
3/23/2021 1:45:00 PM 7.13 44.834 0.108 7.45 4.8 12.56
3/23/2021 2:00:00 PM 7.33 45.194 0.108 7.47 4.82 12.51
3/23/2021 2:15:00 PM 7.52 45.536 0.108 7.48 4.94 12.45
3/23/2021 2:30:00 PM 7.67 45.806 0.108 7.48 4.69 12.4
3/23/2021 2:45:00 PM 7.81 46.058 0.108 7.49 4.7 12.35
3/23/2021 3:00:00 PM 7.93 46.274 0.108 7.49 4.8 12.3
3/23/2021 3:15:00 PM 8.03 46.454 0.108 7.47 4.76 12.27
3/23/2021 3:30:00 PM 8.1 46.58 0.108 7.49 4.62 12.23
3/23/2021 3:45:00 PM 8.15 46.67 0.108 7.49 4.78 12.19
3/23/2021 4:00:00 PM 8.2 46.76 0.107 7.5 4.64 12.17
3/23/2021 4:15:00 PM 8.28 46.904 0.107 7.51 4.73 12.15
3/23/2021 4:30:00 PM 8.32 46.976 0.107 7.5 4.58 12.11
3/23/2021 4:45:00 PM 8.36 47.048 0.107 7.5 4.65 12.09
3/23/2021 5:00:00 PM 8.42 47.156 0.107 7.5 4.63 12.06
3/23/2021 5:15:00 PM 8.47 47.246 0.107 7.5 4.71 12.03
3/23/2021 5:30:00 PM 8.53 47.354 0.107 7.5 4.83 11.98
3/23/2021 5:45:00 PM 8.58 47.444 0.107 7.47 4.82 11.94
3/23/2021 6:00:00 PM 8.62 47.516 0.107 7.46 4.84 11.85
3/23/2021 6:15:00 PM 8.65 47.57 0.107 7.43 4.82 11.79
3/23/2021 6:30:00 PM 8.68 47.624 0.107 7.41 4.75 11.74
3/23/2021 6:45:00 PM 8.71 47.678 0.107 7.36 4.84 11.68
3/23/2021 7:00:00 PM 8.72 47.696 0.107 7.35 4.82 11.62
3/23/2021 7:15:00 PM 8.73 47.714 0.108 7.33 4.74 11.54
3/23/2021 7:30:00 PM 8.72 47.696 0.108 7.3 5.04 11.51
3/23/2021 7:45:00 PM 8.7 47.66 0.108 7.26 5.03 11.48
3/23/2021 8:00:00 PM 8.66 47.588 0.108 7.24 4.83 11.45
3/23/2021 8:15:00 PM 8.62 47.516 0.108 7.22 5 11.42
3/23/2021 8:30:00 PM 8.58 47.444 0.108 7.2 5.03 11.43
3/23/2021 8:45:00 PM 8.53 47.354 0.108 7.19 5.07 11.41
3/23/2021 9:00:00 PM 8.47 47.246 0.108 7.17 4.92 11.42
3/23/2021 9:15:00 PM 8.41 47.138 0.108 7.16 5.12 11.42
3/23/2021 9:30:00 PM 8.34 47.012 0.108 7.16 4.67 11.45
3/23/2021 9:45:00 PM 8.27 46.886 0.108 7.13 4.93 11.44
3/23/2021 10:00:00 PM 8.2 46.76 0.109 7.12 4.86 11.46
3/23/2021 10:15:00 PM 8.12 46.616 0.109 7.13 4.76 11.48
3/23/2021 10:30:00 PM 8.05 46.49 0.109 7.12 5.02 11.49
3/23/2021 10:45:00 PM 7.97 46.346 0.109 7.12 4.88 11.51
3/23/2021 11:00:00 PM 7.9 46.22 0.109 7.09 5.34 11.52
3/23/2021 11:15:00 PM 7.83 46.094 0.109 7.1 5.22 11.54
3/23/2021 11:30:00 PM 7.76 45.968 0.109 7.11 4.96 11.56
3/23/2021 11:45:00 PM 7.69 45.842 0.109 7.1 5.1 11.58
3/24/2021 12:00:00 AM 7.62 45.716 0.109 7.11 5.04 11.6
3/24/2021 12:15:00 AM 7.54 45.572 0.109 7.1 4.98 11.62
3/24/2021 12:30:00 AM 7.46 45.428 0.109 7.1 4.94 11.64
3/24/2021 12:45:00 AM 7.38 45.284 0.11 7.1 5.13 11.66
3/24/2021 1:00:00 AM 7.3 45.14 0.11 7.1 5.33 11.68
3/24/2021 1:15:00 AM 7.23 45.014 0.11 7.1 5.33 11.7
3/24/2021 1:30:00 AM 7.16 44.888 0.11 7.1 4.92 11.72
3/24/2021 1:45:00 AM 7.1 44.78 0.11 7.14 5.3 11.75
3/24/2021 2:00:00 AM 7.03 44.654 0.11 7.11 5.32 11.76
3/24/2021 2:15:00 AM 6.97 44.546 0.11 7.09 4.99 11.78
3/24/2021 2:30:00 AM 6.91 44.438 0.11 7.1 5.1 11.8
3/24/2021 2:45:00 AM 6.86 44.348 0.11 7.1 5.22 11.81
3/24/2021 3:00:00 AM 6.81 44.258 0.111 7.1 5.26 11.83
3/24/2021 3:15:00 AM 6.77 44.186 0.111 7.1 4.98 11.84
3/24/2021 3:30:00 AM 6.72 44.096 0.111 7.1 5.12 11.85
3/24/2021 3:45:00 AM 6.68 44.024 0.111 7.11 5.02 11.86
3/24/2021 4:00:00 AM 6.64 43.952 0.111 7.11 5.19 11.87
3/24/2021 4:15:00 AM 6.6 43.88 0.111 7.11 5.24 11.89
3/24/2021 4:30:00 AM 6.56 43.808 0.111 7.12 5.02 11.9
3/24/2021 4:45:00 AM 6.53 43.754 0.111 7.11 5.07 11.92
3/24/2021 5:00:00 AM 6.49 43.682 0.111 7.1 5.27 11.93
3/24/2021 5:15:00 AM 6.45 43.61 0.111 7.11 5.13 11.93
3/24/2021 5:30:00 AM 6.42 43.556 0.111 7.11 5.17 11.94
3/24/2021 5:45:00 AM 6.4 43.52 0.111 7.12 5.21 11.96
3/24/2021 6:00:00 AM 6.38 43.484 0.111 7.1 5.16 11.96
3/24/2021 6:15:00 AM 6.36 43.448 0.111 7.13 5.2 11.97
3/24/2021 6:30:00 AM 6.34 43.412 0.111 7.11 4.9 11.97
3/24/2021 6:45:00 AM 6.32 43.376 0.111 7.13 4.97 11.99
3/24/2021 7:00:00 AM 6.3 43.34 0.111 7.12 5.01 11.99
3/24/2021 7:15:00 AM 6.28 43.304 0.111 7.11 5.26 12
3/24/2021 7:30:00 AM 6.28 43.304 0.111 7.12 5.07 12
3/24/2021 7:45:00 AM 6.27 43.286 0.111 7.1 5.03 12.03
3/24/2021 8:00:00 AM 6.27 43.286 0.111 7.12 5.22 12.04
3/24/2021 8:15:00 AM 6.27 43.286 0.111 7.14 5.07 12.05
3/24/2021 8:30:00 AM 6.27 43.286 0.111 7.14 5.11 12.07
3/24/2021 8:45:00 AM 6.27 43.286 0.111 7.15 5.14 12.08
3/24/2021 9:00:00 AM 6.28 43.304 0.111 7.16 5.29 12.1
3/24/2021 9:15:00 AM 6.3 43.34 0.111 7.17 5.19 12.12
3/24/2021 9:30:00 AM 6.31 43.358 0.111 7.18 5 12.15
3/24/2021 9:45:00 AM 6.33 43.394 0.111 7.19 5.46 12.18
3/24/2021 10:00:00 AM 6.36 43.448 0.111 7.2 5.12 12.21
3/24/2021 10:15:00 AM 6.39 43.502 0.11 7.22 5.27 12.25
3/24/2021 10:30:00 AM 6.45 43.61 0.11 7.24 5.09 12.28
3/24/2021 10:45:00 AM 6.49 43.682 0.11 7.26 5 12.3
3/24/2021 11:00:00 AM 6.53 43.754 0.11 7.28 5.48 12.31
3/24/2021 11:15:00 AM 6.58 43.844 0.11 7.29 5.22 12.33
3/24/2021 11:30:00 AM 6.62 43.916 0.11 7.31 5.28 12.35
3/24/2021 11:45:00 AM 6.68 44.024 0.11 7.32 5.15 12.35
3/24/2021 12:00:00 PM 6.72 44.096 0.11 7.33 4.92 12.35
3/24/2021 12:15:00 PM 6.79 44.222 0.109 7.36 4.96 12.36
3/24/2021 12:30:00 PM 6.85 44.33 0.109 7.38 4.89 12.37
3/24/2021 12:45:00 PM 6.91 44.438 0.109 7.38 5.28 12.36
3/24/2021 1:00:00 PM 6.96 44.528 0.109 7.4 4.79 12.35
3/24/2021 1:15:00 PM 7.01 44.618 0.109 7.39 4.98 12.34
3/24/2021 1:30:00 PM 7.07 44.726 0.109 7.41 5 12.35
3/24/2021 1:45:00 PM 7.12 44.816 0.109 7.42 5.14 12.32
3/24/2021 2:00:00 PM 7.18 44.924 0.109 7.42 5.37 12.29
3/24/2021 2:15:00 PM 7.23 45.014 0.109 7.42 5.36 12.27
3/24/2021 2:30:00 PM 7.27 45.086 0.108 7.41 5.02 12.24
3/24/2021 2:45:00 PM 7.31 45.158 0.108 7.4 5.22 12.22
3/24/2021 3:00:00 PM 7.34 45.212 0.108 7.38 5.56 12.17
3/24/2021 3:15:00 PM 7.39 45.302 0.108 7.37 5.49 12.17
3/24/2021 3:30:00 PM 7.41 45.338 0.108 7.37 5.45 12.13
3/24/2021 3:45:00 PM 7.45 45.41 0.109 7.37 5.67 12.12
3/24/2021 4:00:00 PM 7.48 45.464 0.109 7.36 5.23 12.08
3/24/2021 4:15:00 PM 7.5 45.5 0.109 7.34 5.39 12.05
3/24/2021 4:30:00 PM 7.52 45.536 0.109 7.32 5.6 12.02
3/24/2021 4:45:00 PM 7.55 45.59 0.109 7.32 6.14 12.01
3/24/2021 5:00:00 PM 7.57 45.626 0.109 7.31 6.16 11.97
3/24/2021 5:15:00 PM 7.58 45.644 0.109 7.31 6.67 11.95
3/24/2021 5:30:00 PM 7.59 45.662 0.11 7.29 7.19 11.91
3/24/2021 5:45:00 PM 7.6 45.68 0.111 7.27 7.15 11.89
3/24/2021 6:00:00 PM 7.61 45.698 0.111 7.26 7.51 11.88
3/24/2021 6:15:00 PM 7.62 45.716 0.112 7.26 7.7 11.86
3/24/2021 6:30:00 PM 7.64 45.752 0.112 7.26 7.48 11.84
3/24/2021 6:45:00 PM 7.65 45.77 0.112 7.24 7.83 11.82
3/24/2021 7:00:00 PM 7.66 45.788 0.112 7.24 8.09 11.79
3/24/2021 7:15:00 PM 7.68 45.824 0.112 7.23 8.12 11.76
3/24/2021 7:30:00 PM 7.68 45.824 0.112 7.22 8.16 11.73
3/24/2021 7:45:00 PM 7.7 45.86 0.113 7.21 8.68 11.7
3/24/2021 8:00:00 PM 7.7 45.86 0.113 7.2 8.92 11.68
3/24/2021 8:15:00 PM 7.7 45.86 0.113 7.21 8.96 11.67
3/24/2021 8:30:00 PM 7.7 45.86 0.113 7.2 9.28 11.65
3/24/2021 8:45:00 PM 7.69 45.842 0.114 7.18 9.33 11.64
3/24/2021 9:00:00 PM 7.69 45.842 0.113 7.18 9.86 11.63
3/24/2021 9:15:00 PM 7.68 45.824 0.114 7.18 9.78 11.63
3/24/2021 9:30:00 PM 7.67 45.806 0.113 7.17 10.16 11.62
3/24/2021 9:45:00 PM 7.66 45.788 0.113 7.17 9.51 11.61
3/24/2021 10:00:00 PM 7.65 45.77 0.113 7.17 10.18 11.61
3/24/2021 10:15:00 PM 7.64 45.752 0.113 7.16 10.25 11.62
3/24/2021 10:30:00 PM 7.62 45.716 0.113 7.14 10.5 11.61
3/24/2021 10:45:00 PM 7.6 45.68 0.113 7.14 10.14 11.62
3/24/2021 11:00:00 PM 7.59 45.662 0.113 7.13 10.72 11.61
3/24/2021 11:15:00 PM 7.57 45.626 0.113 7.13 11.11 11.61
3/24/2021 11:30:00 PM 7.55 45.59 0.113 7.13 11.78 11.61
3/24/2021 11:45:00 PM 7.54 45.572 0.113 7.09 11.48 11.61
3/25/2021 12:00:00 AM 7.52 45.536 0.113 7.09 12.01 11.62
3/25/2021 12:15:00 AM 7.5 45.5 0.113 7.08 12.7 11.62
3/25/2021 12:30:00 AM 7.48 45.464 0.113 7.07 12.62 11.63
3/25/2021 12:45:00 AM 7.46 45.428 0.112 7.06 12.57 11.63
3/25/2021 1:00:00 AM 7.44 45.392 0.112 7.06 13.43 11.63
3/25/2021 1:15:00 AM 7.42 45.356 0.112 7.06 13.23 11.63
3/25/2021 1:30:00 AM 7.41 45.338 0.111 7.07 13.55 11.63
3/25/2021 1:45:00 AM 7.4 45.32 0.111 7.07 13.26 11.65
3/25/2021 2:00:00 AM 7.38 45.284 0.111 7.07 13.61 11.66
3/25/2021 2:15:00 AM 7.37 45.266 0.11 7.06 13.39 11.65
3/25/2021 2:30:00 AM 7.36 45.248 0.11 7.06 14.06 11.65
3/25/2021 2:45:00 AM 7.34 45.212 0.11 7.06 13.96 11.66
3/25/2021 3:00:00 AM 7.33 45.194 0.11 7.06 14.1 11.66
3/25/2021 3:15:00 AM 7.32 45.176 0.11 7.06 14.9 11.67
3/25/2021 3:30:00 AM 7.31 45.158 0.11 7.05 14.83 11.67
3/25/2021 3:45:00 AM 7.3 45.14 0.11 7.05 15.09 11.67
3/25/2021 4:00:00 AM 7.29 45.122 0.111 7.05 17.67 11.67
3/25/2021 4:15:00 AM 7.28 45.104 0.111 7.05 17.8 11.68
3/25/2021 4:30:00 AM 7.27 45.086 0.112 7.04 18.76 11.68
3/25/2021 4:45:00 AM 7.26 45.068 0.112 7.04 18.41 11.68
3/25/2021 5:00:00 AM 7.25 45.05 0.113 7.04 19.09 11.68
3/25/2021 5:15:00 AM 7.24 45.032 0.113 7.04 19.06 11.69
3/25/2021 5:30:00 AM 7.23 45.014 0.113 7.03 18.61 11.69
3/25/2021 5:45:00 AM 7.23 45.014 0.113 7.03 17.73 11.7
3/25/2021 6:00:00 AM 7.22 44.996 0.113 7.04 25.32 11.69
3/25/2021 6:15:00 AM 7.21 44.978 0.112 7.01 13.14 11.7
3/25/2021 6:30:00 AM 7.19 44.942 0.112 7.02 17.08 11.71
3/25/2021 6:45:00 AM 7.17 44.906 0.111 7.03 16.14 11.71
3/25/2021 7:00:00 AM 7.15 44.87 0.111 7.02 16.76 11.72
3/25/2021 7:15:00 AM 7.14 44.852 0.111 7 16.39 11.73
3/25/2021 7:30:00 AM 7.12 44.816 0.111 7.02 20.36 11.75
3/25/2021 7:45:00 AM 7.12 44.816 0.111 7.03 16.35 11.76
3/25/2021 8:00:00 AM 7.13 44.834 0.111 7.04 16.68 11.79
3/25/2021 8:15:00 AM 7.13 44.834 0.111 7.05 15.4 11.82
3/25/2021 8:30:00 AM 7.14 44.852 0.112 7.06 15.9 11.85
3/25/2021 8:45:00 AM 7.15 44.87 0.112 7.07 15.91 11.88
3/25/2021 9:00:00 AM 7.19 44.942 0.112 7.08 16.42 11.91
3/25/2021 9:15:00 AM 7.24 45.032 0.112 7.12 16.28 11.93
3/25/2021 9:30:00 AM 7.3 45.14 0.112 7.13 16.85 11.96
3/25/2021 9:45:00 AM 7.39 45.302 0.112 7.16 20.13 11.97
3/25/2021 10:00:00 AM 7.45 45.41 0.112 7.18 16.35 11.99
3/25/2021 10:15:00 AM 7.53 45.554 0.112 7.19 16.55 11.99
3/25/2021 10:30:00 AM 7.64 45.752 0.112 7.22 13.28 12.01
3/25/2021 10:45:00 AM 7.76 45.968 0.111 7.24 16.05 12.02
3/25/2021 11:00:00 AM 7.88 46.184 0.111 7.26 16.11 12.02
3/25/2021 11:15:00 AM 7.96 46.328 0.111 7.27 16.08 12.01
3/25/2021 11:30:00 AM 8.1 46.58 0.11 7.29 16.49 12.01
3/25/2021 11:45:00 AM 8.28 46.904 0.11 7.31 15.77 11.99
3/25/2021 12:00:00 PM 8.48 47.264 0.11 7.34 15.73 11.96
3/25/2021 12:15:00 PM 8.69 47.642 0.109 7.36 16.53 11.94
3/25/2021 12:30:00 PM 8.89 48.002 0.109 7.37 15.69 11.89
3/25/2021 12:45:00 PM 9.04 48.272 0.109 7.36 16.33 11.86
3/25/2021 1:00:00 PM 9.21 48.578 0.108 7.38 16.29 11.83
3/25/2021 1:15:00 PM 9.43 48.974 0.108 7.4 16.83 11.8
3/25/2021 1:30:00 PM 9.6 49.28 0.108 7.42 15.91 11.76
3/25/2021 1:45:00 PM 9.75 49.55 0.108 7.42 15.64 11.73
3/25/2021 2:00:00 PM 9.89 49.802 0.108 7.42 14.99 11.69
3/25/2021 2:15:00 PM 10.05 50.09 0.107 7.45 15.57 11.65
3/25/2021 2:30:00 PM 10.21 50.378 0.107 7.45 16.34 11.62
3/25/2021 2:45:00 PM 10.33 50.594 0.107 7.46 15.89 11.58
3/25/2021 3:00:00 PM 10.43 50.774 0.107 7.46 15.72 11.55
3/25/2021 3:15:00 PM 10.53 50.954 0.107 7.45 15.34 11.51
3/25/2021 3:30:00 PM 10.63 51.134 0.107 7.47 15.95 11.47
3/25/2021 3:45:00 PM 10.71 51.278 0.107 7.46 15.51 11.43
3/25/2021 4:00:00 PM 10.77 51.386 0.107 7.46 15.34 11.4
3/25/2021 4:15:00 PM 10.83 51.494 0.107 7.46 14.87 11.37
3/25/2021 4:30:00 PM 10.88 51.584 0.107 7.44 15.67 11.33
3/25/2021 4:45:00 PM 10.94 51.692 0.107 7.44 14.95 11.29
3/25/2021 5:00:00 PM 11 51.8 0.107 7.44 14.52 11.26
3/25/2021 5:15:00 PM 11.06 51.908 0.107 7.41 14.31 11.21
3/25/2021 5:30:00 PM 11.09 51.962 0.107 7.39 14.21 11.17
3/25/2021 5:45:00 PM 11.11 51.998 0.108 7.36 13.69 11.12
3/25/2021 6:00:00 PM 11.11 51.998 0.108 7.34 14.43 11.09
3/25/2021 6:15:00 PM 11.1 51.98 0.108 7.32 14.76 11.04
3/25/2021 6:30:00 PM 11.07 51.926 0.108 7.31 14.07 11
3/25/2021 6:45:00 PM 11.04 51.872 0.108 7.28 13.7 10.97
3/25/2021 7:00:00 PM 10.99 51.782 0.108 7.24 14.55 10.93
3/25/2021 7:15:00 PM 10.94 51.692 0.109 7.2 14.05 10.9
3/25/2021 7:30:00 PM 10.88 51.584 0.109 7.17 15.14 10.86
3/25/2021 7:45:00 PM 10.82 51.476 0.109 7.15 14.15 10.85
3/25/2021 8:00:00 PM 10.76 51.368 0.109 7.12 14.31 10.82
3/25/2021 8:15:00 PM 10.7 51.26 0.109 7.1 14.34 10.81
3/25/2021 8:30:00 PM 10.64 51.152 0.11 7.08 14.35 10.82
3/25/2021 8:45:00 PM 10.58 51.044 0.11 7.06 14.58 10.81
3/25/2021 9:00:00 PM 10.51 50.918 0.11 7.07 13.67 10.81
3/25/2021 9:15:00 PM 10.47 50.846 0.11 7.08 14.19 10.82
3/25/2021 9:30:00 PM 10.43 50.774 0.11 7.07 13.77 10.83
3/25/2021 9:45:00 PM 10.39 50.702 0.111 7.07 13.24 10.83
3/25/2021 10:00:00 PM 10.35 50.63 0.111 7.07 12.96 10.83
3/25/2021 10:15:00 PM 10.31 50.558 0.111 7.07 14.08 10.83
3/25/2021 10:30:00 PM 10.27 50.486 0.111 7.07 13.31 10.83
3/25/2021 10:45:00 PM 10.23 50.414 0.111 7.06 13.49 10.83
3/25/2021 11:00:00 PM 10.2 50.36 0.111 7.06 13.67 10.83
3/25/2021 11:15:00 PM 10.16 50.288 0.111 7.07 13.59 10.84
3/25/2021 11:30:00 PM 10.12 50.216 0.111 7.06 13.06 10.84
3/25/2021 11:45:00 PM 10.09 50.162 0.112 7.04 13.2 10.84
3/26/2021 12:00:00 AM 10.07 50.126 0.112 7.06 13.18 10.84
3/26/2021 12:15:00 AM 10.04 50.072 0.112 7.04 12.87 10.84
3/26/2021 12:30:00 AM 10.01 50.018 0.112 7.06 13.74 10.85
3/26/2021 12:45:00 AM 9.98 49.964 0.112 7.05 13.02 10.85
3/26/2021 1:00:00 AM 9.96 49.928 0.112 7.06 13.07 10.85
3/26/2021 1:15:00 AM 9.94 49.892 0.112 7.06 12.95 10.85
3/26/2021 1:30:00 AM 9.92 49.856 0.112 7.06 13.09 10.86
3/26/2021 1:45:00 AM 9.9 49.82 0.112 7.04 13.11 10.85
3/26/2021 2:00:00 AM 9.89 49.802 0.112 7.06 12.99 10.86
3/26/2021 2:15:00 AM 9.88 49.784 0.112 7.06 12.87 10.85
3/26/2021 2:30:00 AM 9.86 49.748 0.112 7.07 12.76 10.86
3/26/2021 2:45:00 AM 9.84 49.712 0.112 7.04 13.21 10.86
3/26/2021 3:00:00 AM 9.83 49.694 0.112 7.06 12.88 10.86
3/26/2021 3:15:00 AM 9.83 49.694 0.112 7.06 12.95 10.86
3/26/2021 3:30:00 AM 9.82 49.676 0.112 7.06 12.71 10.85
3/26/2021 3:45:00 AM 9.83 49.694 0.112 7.06 12.25 10.85
3/26/2021 4:00:00 AM 9.84 49.712 0.112 7.07 13.13 10.85
3/26/2021 4:15:00 AM 9.85 49.73 0.112 7.07 12.53 10.83
3/26/2021 4:30:00 AM 9.86 49.748 0.112 7.07 11.7 10.83
3/26/2021 4:45:00 AM 9.88 49.784 0.112 7.08 12.24 10.82
3/26/2021 5:00:00 AM 9.9 49.82 0.112 7.05 12.82 10.81
3/26/2021 5:15:00 AM 9.91 49.838 0.112 7.08 12.31 10.8
3/26/2021 5:30:00 AM 9.93 49.874 0.112 7.05 11.94 10.79
3/26/2021 5:45:00 AM 9.94 49.892 0.112 7.07 11.52 10.78
3/26/2021 6:00:00 AM 9.94 49.892 0.112 7.07 11.59 10.78
3/26/2021 6:15:00 AM 9.95 49.91 0.112 7.08 11.75 10.78
3/26/2021 6:30:00 AM 9.97 49.946 0.112 7.08 11.53 10.77
3/26/2021 6:45:00 AM 9.98 49.964 0.112 7.08 11.09 10.77
3/26/2021 7:00:00 AM 10.01 50.018 0.112 7.09 11.71 10.76
3/26/2021 7:15:00 AM 10.05 50.09 0.112 7.09 11.35 10.75
3/26/2021 7:30:00 AM 10.07 50.126 0.112 7.1 10.97 10.75
3/26/2021 7:45:00 AM 10.1 50.18 0.111 7.09 11.26 10.76
3/26/2021 8:00:00 AM 10.12 50.216 0.112 7.1 10.61 10.79
3/26/2021 8:15:00 AM 10.16 50.288 0.111 7.1 10.21 10.83
3/26/2021 8:30:00 AM 10.22 50.396 0.111 7.14 9.54 10.86
3/26/2021 8:45:00 AM 10.27 50.486 0.111 7.16 11.47 10.87
3/26/2021 9:00:00 AM 10.31 50.558 0.111 7.16 10.17 10.85
3/26/2021 9:15:00 AM 10.35 50.63 0.111 7.16 9.87 10.9
3/26/2021 9:30:00 AM 10.46 50.828 0.111 7.21 10.11 10.95
3/26/2021 9:45:00 AM 10.6 51.08 0.111 7.25 9.94 10.99
3/26/2021 10:00:00 AM 10.75 51.35 0.111 7.3 9.69 11.02
3/26/2021 10:15:00 AM 10.85 51.53 0.111 7.3 9.99 11.01
3/26/2021 10:30:00 AM 10.92 51.656 0.111 7.31 9.59 11.01
3/26/2021 10:45:00 AM 10.95 51.71 0.111 7.32 9.89 11.01
3/26/2021 11:00:00 AM 11.08 51.944 0.111 7.35 9.21 11.04
3/26/2021 11:15:00 AM 11.34 52.412 0.111 7.41 9.03 11.05
3/26/2021 11:30:00 AM 11.57 52.826 0.111 7.45 8.99 11.01
3/26/2021 11:45:00 AM 11.61 52.898 0.11 7.43 9.08 10.96
3/26/2021 12:00:00 PM 11.63 52.934 0.11 7.43 9.07 10.96
3/26/2021 12:15:00 PM 11.7 53.06 0.11 7.45 9.38 10.97
3/26/2021 12:30:00 PM 11.82 53.276 0.11 7.47 9.08 10.98
3/26/2021 12:45:00 PM 11.95 53.51 0.11 7.5 8.86 10.95
3/26/2021 1:00:00 PM 12.07 53.726 0.11 7.53 8.98 10.93
3/26/2021 1:15:00 PM 12.13 53.834 0.11 7.52 8.56 10.92
3/26/2021 1:30:00 PM 12.13 53.834 0.109 7.49 8.9 10.86
3/26/2021 1:45:00 PM 12.09 53.762 0.11 7.46 9.15 10.85
3/26/2021 2:00:00 PM 12.09 53.762 0.109 7.47 9.04 10.83
3/26/2021 2:15:00 PM 12.11 53.798 0.109 7.47 8.9 10.83
3/26/2021 2:30:00 PM 12.14 53.852 0.11 7.48 8.76 10.82
3/26/2021 2:45:00 PM 12.15 53.87 0.109 7.46 9.08 10.81
3/26/2021 3:00:00 PM 12.18 53.924 0.109 7.48 8.37 10.82
3/26/2021 3:15:00 PM 12.22 53.996 0.109 7.5 8.9 10.84
3/26/2021 3:30:00 PM 12.24 54.032 0.109 7.49 8.92 10.82
3/26/2021 3:45:00 PM 12.29 54.122 0.109 7.52 8.36 10.84
3/26/2021 4:00:00 PM 12.31 54.158 0.109 7.52 8.37 10.83
3/26/2021 4:15:00 PM 12.32 54.176 0.109 7.52 7.98 10.82
3/26/2021 4:30:00 PM 12.32 54.176 0.109 7.51 8.69 10.8
3/26/2021 4:45:00 PM 12.29 54.122 0.109 7.48 8.7 10.76
3/26/2021 5:00:00 PM 12.26 54.068 0.109 7.46 8.39 10.76
3/26/2021 5:15:00 PM 12.23 54.014 0.109 7.46 8.46 10.77
3/26/2021 5:30:00 PM 12.2 53.96 0.109 7.45 8.84 10.76
3/26/2021 5:45:00 PM 12.17 53.906 0.109 7.43 8.75 10.74
3/26/2021 6:00:00 PM 12.13 53.834 0.109 7.4 8.74 10.72
3/26/2021 6:15:00 PM 12.07 53.726 0.109 7.36 8.61 10.68
3/26/2021 6:30:00 PM 12 53.6 0.109 7.32 8.36 10.63
3/26/2021 6:45:00 PM 11.93 53.474 0.109 7.28 8.49 10.59
3/26/2021 7:00:00 PM 11.86 53.348 0.109 7.25 8.61 10.58
3/26/2021 7:15:00 PM 11.79 53.222 0.11 7.2 8.67 10.56
3/26/2021 7:30:00 PM 11.72 53.096 0.11 7.2 8.16 10.55
3/26/2021 7:45:00 PM 11.65 52.97 0.11 7.19 8.47 10.53
3/26/2021 8:00:00 PM 11.58 52.844 0.109 7.18 9.18 10.53
3/26/2021 8:15:00 PM 11.52 52.736 0.109 7.16 8.71 10.53
3/26/2021 8:30:00 PM 11.46 52.628 0.109 7.14 9.02 10.54
3/26/2021 8:45:00 PM 11.39 52.502 0.109 7.13 8.71 10.55
3/26/2021 9:00:00 PM 11.33 52.394 0.11 7.13 8.48 10.56
3/26/2021 9:15:00 PM 11.27 52.286 0.11 7.12 8.97 10.57
3/26/2021 9:30:00 PM 11.2 52.16 0.11 7.12 8.63 10.58
3/26/2021 9:45:00 PM 11.14 52.052 0.11 7.11 8.66 10.58
3/26/2021 10:00:00 PM 11.07 51.926 0.11 7.12 8.78 10.6
3/26/2021 10:15:00 PM 11.01 51.818 0.11 7.11 8.68 10.62
3/26/2021 10:30:00 PM 10.94 51.692 0.11 7.11 8.87 10.62
3/26/2021 10:45:00 PM 10.87 51.566 0.11 7.1 8.87 10.65
3/26/2021 11:00:00 PM 10.79 51.422 0.11 7.1 8.77 10.66
3/26/2021 11:15:00 PM 10.73 51.314 0.11 7.1 8.5 10.68
3/26/2021 11:30:00 PM 10.67 51.206 0.111 7.1 8.39 10.69
3/26/2021 11:45:00 PM 10.61 51.098 0.11 7.09 8.49 10.71
3/27/2021 12:00:00 AM 10.55 50.99 0.11 7.07 8.46 10.72
3/27/2021 12:15:00 AM 10.47 50.846 0.111 7.09 8.37 10.74
3/27/2021 12:30:00 AM 10.41 50.738 0.111 7.08 8.44 10.76
3/27/2021 12:45:00 AM 10.32 50.576 0.111 7.07 7.99 10.78
3/27/2021 1:00:00 AM 10.25 50.45 0.111 7.07 8.42 10.79
3/27/2021 1:15:00 AM 10.18 50.324 0.111 7.07 8.77 10.81
3/27/2021 1:30:00 AM 10.1 50.18 0.111 7.08 8.21 10.82
3/27/2021 1:45:00 AM 10.04 50.072 0.111 7.08 8.07 10.84
3/27/2021 2:00:00 AM 9.98 49.964 0.111 7.08 8.67 10.86
3/27/2021 2:15:00 AM 9.91 49.838 0.111 7.08 8.38 10.87
3/27/2021 2:30:00 AM 9.84 49.712 0.111 7.08 8.34 10.9
3/27/2021 2:45:00 AM 9.78 49.604 0.111 7.08 8.64 10.91
3/27/2021 3:00:00 AM 9.73 49.514 0.111 7.08 8.69 10.92
3/27/2021 3:15:00 AM 9.69 49.442 0.111 7.09 8.25 10.93
3/27/2021 3:30:00 AM 9.66 49.388 0.111 7.09 8.4 10.95
3/27/2021 3:45:00 AM 9.63 49.334 0.111 7.09 8.26 10.95
3/27/2021 4:00:00 AM 9.59 49.262 0.111 7.09 8.36 10.97
3/27/2021 4:15:00 AM 9.55 49.19 0.111 7.07 8.13 10.98
3/27/2021 4:30:00 AM 9.51 49.118 0.112 7.09 8.42 10.99
3/27/2021 4:45:00 AM 9.48 49.064 0.111 7.09 8.3 11
3/27/2021 5:00:00 AM 9.44 48.992 0.111 7.09 8.18 11.01
3/27/2021 5:15:00 AM 9.41 48.938 0.112 7.1 8.09 11.03
3/27/2021 5:30:00 AM 9.38 48.884 0.112 7.09 8.01 11.03
3/27/2021 5:45:00 AM 9.35 48.83 0.112 7.09 8.4 11.04
3/27/2021 6:00:00 AM 9.32 48.776 0.112 7.1 8.4 11.06
3/27/2021 6:15:00 AM 9.29 48.722 0.112 7.1 8.04 11.06
3/27/2021 6:30:00 AM 9.26 48.668 0.112 7.1 7.95 11.07
3/27/2021 6:45:00 AM 9.23 48.614 0.112 7.1 8.15 11.09
3/27/2021 7:00:00 AM 9.2 48.56 0.112 7.1 7.96 11.1
3/27/2021 7:15:00 AM 9.17 48.506 0.112 7.09 8.04 11.11
3/27/2021 7:30:00 AM 9.15 48.47 0.112 7.1 7.99 11.15
3/27/2021 7:45:00 AM 9.14 48.452 0.112 7.14 8 11.2
3/27/2021 8:00:00 AM 9.14 48.452 0.112 7.14 7.94 11.27
3/27/2021 8:15:00 AM 9.13 48.434 0.112 7.16 7.99 11.31
3/27/2021 8:30:00 AM 9.13 48.434 0.112 7.18 7.9 11.36
3/27/2021 8:45:00 AM 9.14 48.452 0.112 7.21 7.69 11.41
3/27/2021 9:00:00 AM 9.16 48.488 0.112 7.22 7.69 11.49
3/27/2021 9:15:00 AM 9.2 48.56 0.112 7.28 7.89 11.55
3/27/2021 9:30:00 AM 9.24 48.632 0.112 7.31 8.15 11.6
3/27/2021 9:45:00 AM 9.3 48.74 0.111 7.36 7.6 11.65
3/27/2021 10:00:00 AM 9.39 48.902 0.111 7.39 9 11.67
3/27/2021 10:15:00 AM 9.46 49.028 0.111 7.4 9.59 11.69
3/27/2021 10:30:00 AM 9.47 49.046 0.111 7.42 8.16 11.68
3/27/2021 10:45:00 AM 9.56 49.208 0.111 7.45 8.07 11.71
3/27/2021 11:00:00 AM 9.72 49.496 0.111 7.49 8.04 11.71
3/27/2021 11:15:00 AM 9.87 49.766 0.111 7.52 7.55 11.71
3/27/2021 11:30:00 AM 9.99 49.982 0.111 7.54 7.78 11.7
3/27/2021 11:45:00 AM 10.12 50.216 0.111 7.58 7.43 11.7
3/27/2021 12:00:00 PM 10.31 50.558 0.11 7.6 7.47 11.69
3/27/2021 12:15:00 PM 10.4 50.72 0.11 7.61 7.38 11.66
3/27/2021 12:30:00 PM 10.6 51.08 0.11 7.65 7.32 11.63
3/27/2021 12:45:00 PM 10.75 51.35 0.11 7.67 7.67 11.59
3/27/2021 1:00:00 PM 10.84 51.512 0.11 7.68 7.44 11.58
3/27/2021 1:15:00 PM 11.04 51.872 0.11 7.7 7.53 11.54
3/27/2021 1:30:00 PM 11.22 52.196 0.11 7.71 7.34 11.49
3/27/2021 1:45:00 PM 11.35 52.43 0.11 7.72 7.37 11.45
3/27/2021 2:00:00 PM 11.47 52.646 0.11 7.73 7.62 11.43
3/27/2021 2:15:00 PM 11.6 52.88 0.11 7.75 7.18 11.39
3/27/2021 2:30:00 PM 11.76 53.168 0.11 7.77 7.06 11.37
3/27/2021 2:45:00 PM 11.89 53.402 0.11 7.78 7.26 11.33
3/27/2021 3:00:00 PM 12 53.6 0.11 7.79 7.23 11.29
3/27/2021 3:15:00 PM 12.1 53.78 0.11 7.79 7.42 11.25
3/27/2021 3:30:00 PM 12.17 53.906 0.109 7.8 7.05 11.22
3/27/2021 3:45:00 PM 12.18 53.924 0.109 7.79 7.18 11.2
3/27/2021 4:00:00 PM 12.15 53.87 0.109 7.78 6.97 11.18
3/27/2021 4:15:00 PM 12.16 53.888 0.109 7.77 7.22 11.17
3/27/2021 4:30:00 PM 12.18 53.924 0.109 7.77 7.1 11.16
3/27/2021 4:45:00 PM 12.19 53.942 0.109 7.76 6.96 11.13
3/27/2021 5:00:00 PM 12.21 53.978 0.109 7.76 7.1 11.1
3/27/2021 5:15:00 PM 12.22 53.996 0.109 7.74 7.34 11.07
3/27/2021 5:30:00 PM 12.22 53.996 0.109 7.7 7.12 11.03
3/27/2021 5:45:00 PM 12.23 54.014 0.109 7.67 6.96 10.99
3/27/2021 6:00:00 PM 12.25 54.05 0.109 7.65 6.75 10.95
3/27/2021 6:15:00 PM 12.26 54.068 0.109 7.61 6.9 10.9
3/27/2021 6:30:00 PM 12.25 54.05 0.109 7.54 7.02 10.84
3/27/2021 6:45:00 PM 12.25 54.05 0.109 7.5 6.93 10.78
3/27/2021 7:00:00 PM 12.23 54.014 0.109 7.45 6.93 10.71
3/27/2021 7:15:00 PM 12.2 53.96 0.109 7.4 6.79 10.65
3/27/2021 7:30:00 PM 12.16 53.888 0.109 7.36 7.14 10.58
3/27/2021 7:45:00 PM 12.11 53.798 0.11 7.3 6.79 10.52
3/27/2021 8:00:00 PM 12.05 53.69 0.11 7.26 6.85 10.49
3/27/2021 8:15:00 PM 11.98 53.564 0.11 7.22 7.22 10.47
3/27/2021 8:30:00 PM 11.9 53.42 0.11 7.22 7.19 10.46
3/27/2021 8:45:00 PM 11.82 53.276 0.11 7.19 6.94 10.46
3/27/2021 9:00:00 PM 11.74 53.132 0.11 7.17 7.14 10.47
3/27/2021 9:15:00 PM 11.65 52.97 0.111 7.16 6.82 10.47
3/27/2021 9:30:00 PM 11.56 52.808 0.111 7.15 6.97 10.48
3/27/2021 9:45:00 PM 11.47 52.646 0.111 7.14 6.97 10.49
3/27/2021 10:00:00 PM 11.37 52.466 0.111 7.13 6.8 10.52
3/27/2021 10:15:00 PM 11.27 52.286 0.111 7.12 6.85 10.52
3/27/2021 10:30:00 PM 11.17 52.106 0.111 7.11 7.05 10.55
3/27/2021 10:45:00 PM 11.08 51.944 0.111 7.1 6.81 10.55
3/27/2021 11:00:00 PM 11 51.8 0.111 7.09 6.85 10.56
3/27/2021 11:15:00 PM 10.93 51.674 0.111 7.1 7.04 10.58
3/27/2021 11:30:00 PM 10.87 51.566 0.111 7.1 6.83 10.6
3/27/2021 11:45:00 PM 10.8 51.44 0.111 7.1 6.83 10.63
3/28/2021 12:00:00 AM 10.73 51.314 0.112 7.1 7.03 10.63
3/28/2021 12:15:00 AM 10.67 51.206 0.112 7.09 6.59 10.64
3/28/2021 12:30:00 AM 10.6 51.08 0.112 7.1 6.91 10.65
3/28/2021 12:45:00 AM 10.53 50.954 0.112 7.1 6.88 10.67
3/28/2021 1:00:00 AM 10.47 50.846 0.112 7.1 6.72 10.68
3/28/2021 1:15:00 AM 10.41 50.738 0.112 7.1 6.96 10.69
3/28/2021 1:30:00 AM 10.34 50.612 0.113 7.1 6.94 10.71
3/28/2021 1:45:00 AM 10.27 50.486 0.112 7.1 6.77 10.72
3/28/2021 2:00:00 AM 10.2 50.36 0.112 7.1 6.76 10.74
3/28/2021 2:15:00 AM 10.12 50.216 0.113 7.09 7 10.76
3/28/2021 2:30:00 AM 10.04 50.072 0.113 7.08 6.57 10.77
3/28/2021 2:45:00 AM 9.97 49.946 0.113 7.09 7.15 10.79
3/28/2021 3:00:00 AM 9.89 49.802 0.113 7.08 7.01 10.8
3/28/2021 3:15:00 AM 9.82 49.676 0.113 7.09 6.69 10.82
3/28/2021 3:30:00 AM 9.75 49.55 0.113 7.09 6.55 10.84
3/28/2021 3:45:00 AM 9.67 49.406 0.113 7.09 6.79 10.85
3/28/2021 4:00:00 AM 9.6 49.28 0.113 7.09 6.81 10.87
3/28/2021 4:15:00 AM 9.53 49.154 0.113 7.1 6.65 10.89
3/28/2021 4:30:00 AM 9.48 49.064 0.113 7.1 6.99 10.9
3/28/2021 4:45:00 AM 9.43 48.974 0.113 7.1 7.08 10.91
3/28/2021 5:00:00 AM 9.39 48.902 0.113 7.11 6.83 10.93
3/28/2021 5:15:00 AM 9.36 48.848 0.114 7.11 6.75 10.94
3/28/2021 5:30:00 AM 9.33 48.794 0.113 7.11 6.77 10.95
3/28/2021 5:45:00 AM 9.3 48.74 0.113 7.11 6.84 10.96
3/28/2021 6:00:00 AM 9.28 48.704 0.113 7.12 6.54 10.96
3/28/2021 6:15:00 AM 9.26 48.668 0.113 7.13 6.65 10.97
3/28/2021 6:30:00 AM 9.24 48.632 0.113 7.13 6.47 10.97
3/28/2021 6:45:00 AM 9.22 48.596 0.113 7.13 7.14 10.98
3/28/2021 7:00:00 AM 9.2 48.56 0.114 7.14 6.84 10.98
3/28/2021 7:15:00 AM 9.18 48.524 0.114 7.13 6.63 10.99
3/28/2021 7:30:00 AM 9.17 48.506 0.114 7.13 6.78 11.01
3/28/2021 7:45:00 AM 9.16 48.488 0.114 7.14 6.99 11.01
3/28/2021 8:00:00 AM 9.15 48.47 0.114 7.15 6.96 11.02
3/28/2021 8:15:00 AM 9.14 48.452 0.114 7.16 6.56 11.04
3/28/2021 8:30:00 AM 9.14 48.452 0.114 7.17 6.45 11.07
3/28/2021 8:45:00 AM 9.13 48.434 0.114 7.17 6.27 11.09
3/28/2021 9:00:00 AM 9.13 48.434 0.114 7.2 6.52 11.13
3/28/2021 9:15:00 AM 9.13 48.434 0.113 7.21 6.64 11.15
3/28/2021 9:30:00 AM 9.13 48.434 0.113 7.22 6.32 11.17
3/28/2021 9:45:00 AM 9.14 48.452 0.113 7.23 6.42 11.21
3/28/2021 10:00:00 AM 9.14 48.452 0.113 7.24 6.55 11.21
3/28/2021 10:15:00 AM 9.14 48.452 0.113 7.25 6.36 11.24
3/28/2021 10:30:00 AM 9.16 48.488 0.113 7.27 6.38 11.29
3/28/2021 10:45:00 AM 9.19 48.542 0.113 7.3 6.27 11.37
3/28/2021 11:00:00 AM 9.22 48.596 0.113 7.33 6.5 11.41
3/28/2021 11:15:00 AM 9.26 48.668 0.113 7.36 6.59 11.43
3/28/2021 11:30:00 AM 9.31 48.758 0.113 7.4 6.53 11.48
3/28/2021 11:45:00 AM 9.37 48.866 0.112 7.44 6.4 11.52
3/28/2021 12:00:00 PM 9.44 48.992 0.112 7.47 6.23 11.54
3/28/2021 12:15:00 PM 9.5 49.1 0.112 7.49 6.37 11.55
3/28/2021 12:30:00 PM 9.56 49.208 0.112 7.51 6.65 11.52
3/28/2021 12:45:00 PM 9.62 49.316 0.112 7.54 6.28 11.52
3/28/2021 1:00:00 PM 9.66 49.388 0.112 7.53 6.29 11.45
3/28/2021 1:15:00 PM 9.69 49.442 0.112 7.5 6.3 11.39
3/28/2021 1:30:00 PM 9.74 49.532 0.112 7.51 6.19 11.43
3/28/2021 1:45:00 PM 9.84 49.712 0.112 7.55 6.37 11.47
3/28/2021 2:00:00 PM 9.93 49.874 0.112 7.59 6.61 11.47
3/28/2021 2:15:00 PM 10.01 50.018 0.111 7.62 6.64 11.46
3/28/2021 2:30:00 PM 10.09 50.162 0.111 7.65 6.74 11.44
3/28/2021 2:45:00 PM 10.15 50.27 0.111 7.65 6.47 11.42
3/28/2021 3:00:00 PM 10.23 50.414 0.111 7.68 6.28 11.43
3/28/2021 3:15:00 PM 10.3 50.54 0.111 7.69 6.33 11.4
3/28/2021 3:30:00 PM 10.36 50.648 0.111 7.7 6.79 11.38
3/28/2021 3:45:00 PM 10.44 50.792 0.111 7.7 6.63 11.37
3/28/2021 4:00:00 PM 10.52 50.936 0.111 7.73 6.28 11.35
3/28/2021 4:15:00 PM 10.58 51.044 0.111 7.72 6.25 11.3
3/28/2021 4:30:00 PM 10.59 51.062 0.111 7.65 6.38 11.17
3/28/2021 4:45:00 PM 10.6 51.08 0.111 7.58 6.37 11.08
3/28/2021 5:00:00 PM 10.6 51.08 0.111 7.52 6.48 11.01
3/28/2021 5:15:00 PM 10.63 51.134 0.111 7.45 6.57 10.95
3/28/2021 5:30:00 PM 10.65 51.17 0.11 7.45 6.27 11
3/28/2021 5:45:00 PM 10.66 51.188 0.111 7.45 6.59 10.98
3/28/2021 6:00:00 PM 10.65 51.17 0.11 7.42 6.3 10.91
3/28/2021 6:15:00 PM 10.64 51.152 0.11 7.39 6.19 10.89
3/28/2021 6:30:00 PM 10.61 51.098 0.11 7.36 6.27 10.83
3/28/2021 6:45:00 PM 10.57 51.026 0.11 7.32 6.55 10.83
3/28/2021 7:00:00 PM 10.52 50.936 0.11 7.31 6.52 10.81
3/28/2021 7:15:00 PM 10.48 50.864 0.11 7.28 6.58 10.78
3/28/2021 7:30:00 PM 10.43 50.774 0.111 7.27 6.68 10.75
3/28/2021 7:45:00 PM 10.38 50.684 0.111 7.24 6.62 10.72
3/28/2021 8:00:00 PM 10.32 50.576 0.111 7.22 7.09 10.71
3/28/2021 8:15:00 PM 10.27 50.486 0.112 7.2 7.65 10.7
3/28/2021 8:30:00 PM 10.22 50.396 0.112 7.2 8.26 10.69
3/28/2021 8:45:00 PM 10.18 50.324 0.112 7.2 8.06 10.7
3/28/2021 9:00:00 PM 10.13 50.234 0.113 7.19 7.72 10.71
3/28/2021 9:15:00 PM 10.07 50.126 0.113 7.19 7.89 10.71
3/28/2021 9:30:00 PM 10 50 0.113 7.18 7.15 10.72
3/28/2021 9:45:00 PM 9.93 49.874 0.113 7.18 7.13 10.73
3/28/2021 10:00:00 PM 9.86 49.748 0.113 7.18 7.33 10.75
3/28/2021 10:15:00 PM 9.78 49.604 0.113 7.17 6.95 10.76
3/28/2021 10:30:00 PM 9.69 49.442 0.113 7.16 6.9 10.78
3/28/2021 10:45:00 PM 9.61 49.298 0.113 7.17 7.05 10.79
3/28/2021 11:00:00 PM 9.53 49.154 0.113 7.17 6.68 10.82
3/28/2021 11:15:00 PM 9.45 49.01 0.114 7.15 6.86 10.85
3/28/2021 11:30:00 PM 9.39 48.902 0.114 7.15 6.75 10.86
3/28/2021 11:45:00 PM 9.3 48.74 0.114 7.15 7.13 10.88
3/29/2021 12:00:00 AM 9.2 48.56 0.114 7.14 6.97 10.91
3/29/2021 12:15:00 AM 9.12 48.416 0.114 7.15 7.19 10.93
3/29/2021 12:30:00 AM 9.05 48.29 0.114 7.15 6.78 10.95
3/29/2021 12:45:00 AM 8.97 48.146 0.114 7.14 6.96 10.98
3/29/2021 1:00:00 AM 8.87 47.966 0.114 7.14 7.17 11
3/29/2021 1:15:00 AM 8.78 47.804 0.114 7.14 6.99 11.03
3/29/2021 1:30:00 AM 8.66 47.588 0.114 7.14 7.12 11.07
3/29/2021 1:45:00 AM 8.57 47.426 0.114 7.14 7.15 11.08
3/29/2021 2:00:00 AM 8.48 47.264 0.114 7.15 6.88 11.1
3/29/2021 2:15:00 AM 8.41 47.138 0.114 7.15 7.55 11.14
3/29/2021 2:30:00 AM 8.31 46.958 0.114 7.15 7.25 11.16
3/29/2021 2:45:00 AM 8.21 46.778 0.114 7.14 7.41 11.19
3/29/2021 3:00:00 AM 8.12 46.616 0.114 7.16 7.19 11.22
3/29/2021 3:15:00 AM 8.04 46.472 0.114 7.16 7.5 11.25
3/29/2021 3:30:00 AM 7.96 46.328 0.114 7.15 7.49 11.27
3/29/2021 3:45:00 AM 7.89 46.202 0.114 7.15 7.87 11.3
3/29/2021 4:00:00 AM 7.82 46.076 0.114 7.15 7.78 11.32
3/29/2021 4:15:00 AM 7.74 45.932 0.114 7.15 7.83 11.35
3/29/2021 4:30:00 AM 7.67 45.806 0.114 7.17 7.92 11.37
3/29/2021 4:45:00 AM 7.6 45.68 0.114 7.16 8.31 11.41
3/29/2021 5:00:00 AM 7.53 45.554 0.114 7.16 8.05 11.42
3/29/2021 5:15:00 AM 7.47 45.446 0.114 7.15 7.9 11.45
3/29/2021 5:30:00 AM 7.4 45.32 0.113 7.15 7.87 11.48
3/29/2021 5:45:00 AM 7.33 45.194 0.113 7.15 7.76 11.5
3/29/2021 6:00:00 AM 7.25 45.05 0.113 7.13 7.9 11.54
3/29/2021 6:15:00 AM 7.17 44.906 0.113 7.16 7.73 11.56
3/29/2021 6:30:00 AM 7.08 44.744 0.113 7.14 7.92 11.6
3/29/2021 6:45:00 AM 7.03 44.654 0.112 7.14 7.78 11.61
3/29/2021 7:00:00 AM 6.98 44.564 0.112 7.15 7.9 11.64
3/29/2021 7:15:00 AM 6.93 44.474 0.112 7.14 8 11.67
3/29/2021 7:30:00 AM 6.89 44.402 0.112 7.16 8.11 11.7
3/29/2021 7:45:00 AM 6.85 44.33 0.112 7.16 8.03 11.73
3/29/2021 8:00:00 AM 6.81 44.258 0.112 7.16 8.04 11.77
3/29/2021 8:15:00 AM 6.77 44.186 0.111 7.18 8.43 11.81
3/29/2021 8:30:00 AM 6.74 44.132 0.111 7.19 8.3 11.87
3/29/2021 8:45:00 AM 6.72 44.096 0.111 7.2 8.39 11.89
3/29/2021 9:00:00 AM 6.69 44.042 0.111 7.21 8.29 11.92
3/29/2021 9:15:00 AM 6.67 44.006 0.111 7.23 8.73 11.96
3/29/2021 9:30:00 AM 6.66 43.988 0.111 7.24 9.07 11.99
3/29/2021 9:45:00 AM 6.66 43.988 0.111 7.26 9.36 12.04
3/29/2021 10:00:00 AM 6.66 43.988 0.11 7.26 9.72 12.1
3/29/2021 10:15:00 AM 6.7 44.06 0.11 7.3 10 12.16
3/29/2021 10:30:00 AM 6.75 44.15 0.111 7.34 9.89 12.22
3/29/2021 10:45:00 AM 6.81 44.258 0.111 7.37 10.21 12.26
3/29/2021 11:00:00 AM 6.86 44.348 0.111 7.39 10.11 12.29
3/29/2021 11:15:00 AM 6.91 44.438 0.111 7.41 9.78 12.33
3/29/2021 11:30:00 AM 6.95 44.51 0.111 7.44 9.62 12.35
3/29/2021 11:45:00 AM 7.11 44.798 0.111 7.48 9.15 12.38
3/29/2021 12:00:00 PM 7.24 45.032 0.111 7.51 8.95 12.36
3/29/2021 12:15:00 PM 7.38 45.284 0.111 7.53 8.65 12.35
3/29/2021 12:30:00 PM 7.55 45.59 0.111 7.55 8.39 12.34
3/29/2021 12:45:00 PM 7.71 45.878 0.111 7.58 8.43 12.33
3/29/2021 1:00:00 PM 7.83 46.094 0.111 7.59 8.16 12.29
3/29/2021 1:15:00 PM 7.88 46.184 0.111 7.58 8.19 12.29
3/29/2021 1:30:00 PM 8 46.4 0.11 7.59 8.48 12.25
3/29/2021 1:45:00 PM 8.21 46.778 0.11 7.63 8.18 12.23
3/29/2021 2:00:00 PM 8.39 47.102 0.11 7.64 8.4 12.18
3/29/2021 2:15:00 PM 8.56 47.408 0.11 7.65 8.71 12.13
3/29/2021 2:30:00 PM 8.72 47.696 0.11 7.66 8.63 12.09
3/29/2021 2:45:00 PM 8.82 47.876 0.11 7.66 8.65 12.06
3/29/2021 3:00:00 PM 8.93 48.074 0.11 7.67 8.72 12.03
3/29/2021 3:15:00 PM 9.04 48.272 0.11 7.68 8.75 11.99
3/29/2021 3:30:00 PM 9.12 48.416 0.11 7.67 8.69 11.96
3/29/2021 3:45:00 PM 9.19 48.542 0.11 7.67 9.24 11.94
3/29/2021 4:00:00 PM 9.24 48.632 0.111 7.66 8.9 11.91
3/29/2021 4:15:00 PM 9.29 48.722 0.111 7.65 9.19 11.88
3/29/2021 4:30:00 PM 9.32 48.776 0.111 7.65 9.13 11.85
3/29/2021 4:45:00 PM 9.32 48.776 0.111 7.62 9.28 11.83
3/29/2021 5:00:00 PM 9.32 48.776 0.111 7.6 8.96 11.8
3/29/2021 5:15:00 PM 9.3 48.74 0.111 7.59 8.86 11.77
3/29/2021 5:30:00 PM 9.27 48.686 0.111 7.56 8.72 11.74
3/29/2021 5:45:00 PM 9.24 48.632 0.111 7.53 9.09 11.7
3/29/2021 6:00:00 PM 9.2 48.56 0.112 7.5 8.87 11.66
3/29/2021 6:15:00 PM 9.15 48.47 0.112 7.47 8.71 11.62
3/29/2021 6:30:00 PM 9.12 48.416 0.111 7.44 8.77 11.58
3/29/2021 6:45:00 PM 9.09 48.362 0.112 7.41 8.64 11.54
3/29/2021 7:00:00 PM 9.06 48.308 0.111 7.39 9 11.48
3/29/2021 7:15:00 PM 9.05 48.29 0.111 7.35 8.81 11.45
3/29/2021 7:30:00 PM 9.03 48.254 0.111 7.33 8.85 11.41
3/29/2021 7:45:00 PM 9 48.2 0.111 7.29 9.65 11.37
3/29/2021 8:00:00 PM 8.95 48.11 0.111 7.27 9.13 11.35
3/29/2021 8:15:00 PM 8.89 48.002 0.111 7.25 9.17 11.34
3/29/2021 8:30:00 PM 8.82 47.876 0.111 7.23 9.47 11.35
3/29/2021 8:45:00 PM 8.73 47.714 0.111 7.22 9.63 11.36
3/29/2021 9:00:00 PM 8.64 47.552 0.111 7.2 9.08 11.36
3/29/2021 9:15:00 PM 8.53 47.354 0.111 7.19 8.97 11.38
3/29/2021 9:30:00 PM 8.42 47.156 0.111 7.18 9.05 11.39
3/29/2021 9:45:00 PM 8.3 46.94 0.111 7.17 9.06 11.42
3/29/2021 10:00:00 PM 8.17 46.706 0.112 7.15 9.14 11.45
3/29/2021 10:15:00 PM 8.05 46.49 0.112 7.16 8.88 11.48
3/29/2021 10:30:00 PM 7.92 46.256 0.112 7.14 8.85 11.51
3/29/2021 10:45:00 PM 7.79 46.022 0.112 7.15 9.03 11.54
3/29/2021 11:00:00 PM 7.66 45.788 0.112 7.13 8.93 11.59
3/29/2021 11:15:00 PM 7.54 45.572 0.112 7.13 8.54 11.61
3/29/2021 11:30:00 PM 7.42 45.356 0.112 7.13 8.71 11.65
3/29/2021 11:45:00 PM 7.3 45.14 0.112 7.13 8.69 11.68
3/30/2021 12:00:00 AM 7.19 44.942 0.112 7.12 8.97 11.72
3/30/2021 12:15:00 AM 7.08 44.744 0.112 7.13 8.76 11.74
3/30/2021 12:30:00 AM 6.98 44.564 0.112 7.12 9.17 11.77
3/30/2021 12:45:00 AM 6.89 44.402 0.113 7.13 9.08 11.8
3/30/2021 1:00:00 AM 6.79 44.222 0.112 7.13 9.14 11.83
3/30/2021 1:15:00 AM 6.71 44.078 0.113 7.13 9.1 11.85
3/30/2021 1:30:00 AM 6.62 43.916 0.113 7.13 8.83 11.87
3/30/2021 1:45:00 AM 6.55 43.79 0.113 7.14 9.03 11.89
3/30/2021 2:00:00 AM 6.47 43.646 0.113 7.13 9.09 11.91
3/30/2021 2:15:00 AM 6.4 43.52 0.113 7.12 9 11.94
3/30/2021 2:30:00 AM 6.33 43.394 0.113 7.13 9.04 11.97
3/30/2021 2:45:00 AM 6.25 43.25 0.113 7.14 9.52 11.97
3/30/2021 3:00:00 AM 6.18 43.124 0.113 7.13 9.26 12.01
3/30/2021 3:15:00 AM 6.11 42.998 0.113 7.13 9.04 12.03
3/30/2021 3:30:00 AM 6.04 42.872 0.113 7.12 8.97 12.05
3/30/2021 3:45:00 AM 5.97 42.746 0.113 7.13 9.26 12.07
3/30/2021 4:00:00 AM 5.89 42.602 0.113 7.13 9.04 12.1
3/30/2021 4:15:00 AM 5.83 42.494 0.113 7.14 8.93 12.11
3/30/2021 4:30:00 AM 5.76 42.368 0.113 7.13 9.42 12.14
3/30/2021 4:45:00 AM 5.69 42.242 0.113 7.13 9.07 12.16
3/30/2021 5:00:00 AM 5.62 42.116 0.113 7.13 9.07 12.18
3/30/2021 5:15:00 AM 5.55 41.99 0.113 7.13 9.45 12.21
3/30/2021 5:30:00 AM 5.48 41.864 0.113 7.13 9.27 12.23
3/30/2021 5:45:00 AM 5.42 41.756 0.113 7.13 8.95 12.26
3/30/2021 6:00:00 AM 5.35 41.63 0.114 7.14 9.42 12.28
3/30/2021 6:15:00 AM 5.29 41.522 0.114 7.14 9.33 12.3
3/30/2021 6:30:00 AM 5.23 41.414 0.114 7.14 9.58 12.32
3/30/2021 6:45:00 AM 5.18 41.324 0.114 7.14 8.82 12.34
3/30/2021 7:00:00 AM 5.12 41.216 0.114 7.15 8.96 12.37
3/30/2021 7:15:00 AM 5.08 41.144 0.114 7.15 9.14 12.42
3/30/2021 7:30:00 AM 5.03 41.054 0.114 7.17 8.9 12.47
3/30/2021 7:45:00 AM 5 41 0.115 7.19 9.29 12.53
3/30/2021 8:00:00 AM 4.98 40.964 0.114 7.2 8.95 12.6
3/30/2021 8:15:00 AM 4.97 40.946 0.114 7.23 9.21 12.66
3/30/2021 8:30:00 AM 4.98 40.964 0.115 7.25 9.28 12.73
3/30/2021 8:45:00 AM 5.01 41.018 0.115 7.27 9.31 12.77
3/30/2021 9:00:00 AM 5.05 41.09 0.114 7.3 9.36 12.81
3/30/2021 9:15:00 AM 5.13 41.234 0.115 7.33 9.36 12.85
3/30/2021 9:30:00 AM 5.23 41.414 0.115 7.36 9.45 12.87
3/30/2021 9:45:00 AM 5.35 41.63 0.115 7.39 9.67 12.89
3/30/2021 10:00:00 AM 5.47 41.846 0.114 7.41 9.43 12.9
3/30/2021 10:15:00 AM 5.62 42.116 0.114 7.44 9.44 12.9
3/30/2021 10:30:00 AM 5.77 42.386 0.114 7.46 9.63 12.89
3/30/2021 10:45:00 AM 5.95 42.71 0.114 7.49 9.65 12.87
3/30/2021 11:00:00 AM 6.12 43.016 0.114 7.5 11 12.87
3/30/2021 11:15:00 AM 6.34 43.412 0.114 7.53 9.79 12.83
3/30/2021 11:30:00 AM 6.56 43.808 0.114 7.55 10.22 12.8
3/30/2021 11:45:00 AM 6.8 44.24 0.114 7.57 10.29 12.75
3/30/2021 12:00:00 PM 7.05 44.69 0.113 7.59 10.68 12.71
3/30/2021 12:15:00 PM 7.3 45.14 0.113 7.61 11.37 12.65
3/30/2021 12:30:00 PM 7.55 45.59 0.113 7.63 11.39 12.6
3/30/2021 12:45:00 PM 7.79 46.022 0.113 7.64 11.64 12.55
3/30/2021 1:00:00 PM 8.04 46.472 0.113 7.66 11.02 12.49
3/30/2021 1:15:00 PM 8.27 46.886 0.113 7.67 10.91 12.42
3/30/2021 1:30:00 PM 8.51 47.318 0.113 7.69 11.18 12.36
3/30/2021 1:45:00 PM 8.73 47.714 0.113 7.71 11.61 12.31
3/30/2021 2:00:00 PM 8.94 48.092 0.113 7.72 11.7 12.24
3/30/2021 2:15:00 PM 9.14 48.452 0.112 7.73 10.69 12.19
3/30/2021 2:30:00 PM 9.33 48.794 0.112 7.75 10.7 12.14
3/30/2021 2:45:00 PM 9.49 49.082 0.112 7.75 11.61 12.09
3/30/2021 3:00:00 PM 9.65 49.37 0.112 7.76 11.67 12.04
3/30/2021 3:15:00 PM 9.77 49.586 0.112 7.76 11.13 11.98
3/30/2021 3:30:00 PM 9.88 49.784 0.112 7.76 11.11 11.93
3/30/2021 3:45:00 PM 9.97 49.946 0.112 7.75 11.6 11.88
3/30/2021 4:00:00 PM 10.04 50.072 0.112 7.75 11.29 11.84
3/30/2021 4:15:00 PM 10.1 50.18 0.112 7.74 11.29 11.81
3/30/2021 4:30:00 PM 10.13 50.234 0.112 7.73 11.05 11.77
3/30/2021 4:45:00 PM 10.16 50.288 0.112 7.72 11.15 11.73
3/30/2021 5:00:00 PM 10.18 50.324 0.112 7.7 11.57 11.69
3/30/2021 5:15:00 PM 10.19 50.342 0.111 7.67 10.24 11.64
3/30/2021 5:30:00 PM 10.18 50.324 0.111 7.63 10.46 11.56
3/30/2021 5:45:00 PM 10.17 50.306 0.111 7.59 9.89 11.55
3/30/2021 6:00:00 PM 10.2 50.36 0.111 7.6 9.91 11.52
3/30/2021 6:15:00 PM 10.21 50.378 0.112 7.55 9.98 11.43
3/30/2021 6:30:00 PM 10.21 50.378 0.112 7.51 9.7 11.38
3/30/2021 6:45:00 PM 10.23 50.414 0.112 7.48 10.39 11.3
3/30/2021 7:00:00 PM 10.23 50.414 0.112 7.43 9.76 11.22
3/30/2021 7:15:00 PM 10.24 50.432 0.112 7.38 9.74 11.13
3/30/2021 7:30:00 PM 10.25 50.45 0.112 7.34 9.43 11.06
3/30/2021 7:45:00 PM 10.25 50.45 0.112 7.35 9.13 10.99
3/30/2021 8:00:00 PM 10.25 50.45 0.112 7.28 9.28 10.94
3/30/2021 8:15:00 PM 10.24 50.432 0.112 7.25 9.25 10.92
3/30/2021 8:30:00 PM 10.22 50.396 0.112 7.24 9.04 10.9
3/30/2021 8:45:00 PM 10.19 50.342 0.113 7.22 8.79 10.88
3/30/2021 9:00:00 PM 10.15 50.27 0.113 7.2 9.57 10.88
3/30/2021 9:15:00 PM 10.11 50.198 0.113 7.19 9.45 10.88
3/30/2021 9:30:00 PM 10.06 50.108 0.113 7.18 9.34 10.88
3/30/2021 9:45:00 PM 10 50 0.113 7.17 9.28 10.88
3/30/2021 10:00:00 PM 9.94 49.892 0.113 7.17 22.35 10.89
3/30/2021 10:15:00 PM 9.88 49.784 0.113 7.15 9.67 10.91
3/30/2021 10:30:00 PM 9.82 49.676 0.114 7.14 9.51 10.91
3/30/2021 10:45:00 PM 9.75 49.55 0.114 7.14 9.5 10.93
3/30/2021 11:00:00 PM 9.68 49.424 0.113 7.14 9.02 10.95
3/30/2021 11:15:00 PM 9.61 49.298 0.114 7.14 8.88 10.96
3/30/2021 11:30:00 PM 9.54 49.172 0.114 7.13 8.97 10.97
3/30/2021 11:45:00 PM 9.47 49.046 0.114 7.14 8.85 10.99
3/31/2021 12:00:00 AM 9.4 48.92 0.114 7.14 8.66 11.01
3/31/2021 12:15:00 AM 9.33 48.794 0.114 7.13 8.77 11.03
3/31/2021 12:30:00 AM 9.27 48.686 0.114 7.11 8.79 11.04
3/31/2021 12:45:00 AM 9.2 48.56 0.114 7.12 8.53 11.06
3/31/2021 1:00:00 AM 9.13 48.434 0.114 7.11 9.34 11.07
3/31/2021 1:15:00 AM 9.06 48.308 0.114 7.11 8.84 11.09
3/31/2021 1:30:00 AM 8.99 48.182 0.114 7.11 8.85 11.11
3/31/2021 1:45:00 AM 8.92 48.056 0.114 7.11 8.67 11.12
3/31/2021 2:00:00 AM 8.86 47.948 0.115 7.11 9 11.15
3/31/2021 2:15:00 AM 8.8 47.84 0.115 7.1 8.44 11.16
3/31/2021 2:30:00 AM 8.74 47.732 0.115 7.11 8.63 11.16
3/31/2021 2:45:00 AM 8.68 47.624 0.115 7.11 8.28 11.18
3/31/2021 3:00:00 AM 8.62 47.516 0.115 7.1 8.41 11.19
3/31/2021 3:15:00 AM 8.57 47.426 0.115 7.11 8.64 11.21
3/31/2021 3:30:00 AM 8.51 47.318 0.115 7.11 8.68 11.23
3/31/2021 3:45:00 AM 8.46 47.228 0.115 7.11 9.01 11.24
3/31/2021 4:00:00 AM 8.41 47.138 0.115 7.11 8.75 11.25
3/31/2021 4:15:00 AM 8.36 47.048 0.115 7.11 8.67 11.27
3/31/2021 4:30:00 AM 8.31 46.958 0.115 7.11 8.39 11.27
3/31/2021 4:45:00 AM 8.26 46.868 0.115 7.11 8.25 11.28
3/31/2021 5:00:00 AM 8.22 46.796 0.115 7.11 8.5 11.31
3/31/2021 5:15:00 AM 8.17 46.706 0.115 7.12 7.97 11.31
3/31/2021 5:30:00 AM 8.13 46.634 0.115 7.15 8.38 11.33
3/31/2021 5:45:00 AM 8.09 46.562 0.115 7.15 8.3 11.33
3/31/2021 6:00:00 AM 8.06 46.508 0.115 7.14 8.42 11.34
3/31/2021 6:15:00 AM 8.02 46.436 0.115 7.14 8.54 11.36
3/31/2021 6:30:00 AM 7.99 46.382 0.115 7.15 9.11 11.37
3/31/2021 6:45:00 AM 7.97 46.346 0.115 7.15 8.84 11.37
3/31/2021 7:00:00 AM 7.95 46.31 0.115 7.15 8.48 11.39
3/31/2021 7:15:00 AM 7.94 46.292 0.115 7.16 8.44 11.42
3/31/2021 7:30:00 AM 7.92 46.256 0.115 7.17 8.45 11.46
3/31/2021 7:45:00 AM 7.92 46.256 0.115 7.19 8.44 11.51
3/31/2021 8:00:00 AM 7.92 46.256 0.115 7.21 8.21 11.57
3/31/2021 8:15:00 AM 7.93 46.274 0.115 7.24 8.32 11.63
3/31/2021 8:30:00 AM 7.95 46.31 0.115 7.26 8.19 11.71
3/31/2021 8:45:00 AM 7.98 46.364 0.115 7.3 8.28 11.81
3/31/2021 9:00:00 AM 8.01 46.418 0.114 7.33 8.25 11.87
3/31/2021 9:15:00 AM 8.05 46.49 0.114 7.37 8.41 11.93
3/31/2021 9:30:00 AM 8.1 46.58 0.114 7.41 8.73 12
3/31/2021 9:45:00 AM 8.16 46.688 0.114 7.45 8.53 12.01
3/31/2021 10:00:00 AM 8.22 46.796 0.114 7.49 8.2 12.06
3/31/2021 10:15:00 AM 8.31 46.958 0.114 7.53 8.86 12.1
3/31/2021 10:30:00 AM 8.41 47.138 0.114 7.57 8.6 12.13
3/31/2021 10:45:00 AM 8.49 47.282 0.114 7.61 8.86 12.13
3/31/2021 11:00:00 AM 8.57 47.426 0.113 7.64 8.93 12.12
3/31/2021 11:15:00 AM 8.63 47.534 0.113 7.65 8.88 12.1
3/31/2021 11:30:00 AM 8.68 47.624 0.113 7.66 9.61 12.06
3/31/2021 11:45:00 AM 8.72 47.696 0.113 7.67 9.6 12.05
3/31/2021 12:00:00 PM 8.77 47.786 0.113 7.68 9.42 12.01